4 million SRR files and counting

PRE DATA

Datetime Release
2018-06-18 00:02:18 Maad_and_Flame_-_Aliens-(SZ011)-WEB-2018-MMS
2018-06-18 00:02:54 Kungliga.TV-Magasinet.S01E06.SWEDiSH.720p.WEB.h264-HAJK
2018-06-18 00:04:15 Art_Frequency_-_This_is_Art_Frequency-(NEXT045)-WEB-2018-MMS
2018-06-18 00:06:08 Franksen_-_Night_Voyage-SAT-06-17-2018-TALiON
2018-06-18 00:06:58 Sister_Bliss_-_In_Session-SAT-06-13-2018-TALiON
2018-06-18 00:07:15 Lefto_-_In_the_Mix_(Studio_Brussel)-CABLE-06-17-2018-TALiON
2018-06-18 00:08:58 Sebb_Junior_-_Traxsource_Live_176-SAT-06-17-2018-TALiON
2018-06-18 00:09:40 Ambient_Temple_of_Imagination-Sonic_Acupuncture-WEB-2016-CBR
2018-06-18 00:09:58 Boris_-_Transmissions_234__Incl_Carlo_Lio_Guestmix-SAT-06-17-2018-TALiON
2018-06-18 00:11:01 Coyu_-_Suara_PodCats_225__Incl_Monkey_Safari_Guestmix-SAT-06-17-2018-TALiON
2018-06-18 00:11:20 Kinky-Loco-ES-SINGLE-WEB-2018-FREGON
2018-06-18 00:11:58 Christian_Smith_-_Tronic_307-SAT-06-17-2018-TALiON
2018-06-18 00:12:57 VA_-_Spinnin_Sessions_266__Incl_Cheat_Codes_Guestmix-SAT-06-17-2018-TALiON
2018-06-18 00:13:59 Eats_Everything_-_Edible_bEats_068-SAT-06-17-2018-TALiON
2018-06-18 00:14:57 Basic_Soul_Unit_-_Slam_Radio_298-SAT-06-17-2018-TALiON
2018-06-18 00:15:58 Chus_and_Ceballos_-_In_Stereo_253-SAT-06-15-2018-TALiON
2018-06-18 00:16:43 Ryan_K_-_Solenoid-(LSR02)-WEB-2018-MMS
2018-06-18 00:16:58 Cosmic_Gate_-_Wake_Your_Mind_Radio_219-SAT-06-17-2018-TALiON
2018-06-18 00:17:58 Roger_Shah_-_Magic_Island_526-SAT-06-17-2018-TALiON
2018-06-18 00:18:59 David_Penn_-_Urbana_377__Incl_Dennis_Quin_Guestmix-SAT-06-16-2018-TALiON
2018-06-18 00:19:33 Criminal.Minds.S13E16.FRENCH.720p.HDTV.x264-SH0W
2018-06-18 00:21:58 Sander_van_Doorn_-_Identity_447-SAT-06-15-2018-TALiON
2018-06-18 00:22:58 Ben_Harder_-_Ben_Harder_Show-CABLE-06-17-2018-TALiON
2018-06-18 00:23:59 Mamiko_Motto_-_Solid_Steel-SAT-06-15-2018-TALiON
2018-06-18 00:24:57 Barely_Legal_-_Solid_Steel-SAT-06-15-2018-TALiON
2018-06-18 00:25:11 My.Hero.Academia.S03E05.SUBFRENCH.HDTV.x264-AMB3R
2018-06-18 00:25:29 My.Hero.Academia.S03E06.SUBFRENCH.720p.HDTV.x264-AMB3R
2018-06-18 00:25:47 My.Hero.Academia.S03E06.SUBFRENCH.HDTV.x264-AMB3R
2018-06-18 00:25:59 Erick_Morillo_-_Subliminal_Sessions_064-SAT-06-15-2018-TALiON
2018-06-18 00:26:21 FIFA.World.Cup.2018.Group.E.Brazil.vs.Switzerland.1080p.HDTV.x264-PRiNCE
2018-06-18 00:29:50 FIFA.World.Cup.2018.Group.E.Brazil.Vs.Switzerland.HDTV.x264-PLUTONiUM
2018-06-18 00:30:22 AmKingdom.com_18.06.17.Upskirts.And.Panties.3.Softcore.136.Kara.Lee.XXX.IMAGESET-FuGLi
2018-06-18 00:30:56 AmKingdom.com_18.06.17.Upskirts.And.Panties.3.Softcore.136.Chloe.Foster.XXX.IMAGESET-FuGLi
2018-06-18 00:32:21 AmKingdom.com_18.06.17.Upskirts.And.Panties.3.Softcore.136.Lucy.Valentine.XXX.IMAGESET-FuGLi
2018-06-18 00:33:01 AmKingdom.com_18.06.17.Upskirts.And.Panties.3.Softcore.136.Mia.Vallis.XXX.IMAGESET-FuGLi
2018-06-18 00:33:48 AmKingdom.com_18.06.17.Upskirts.And.Panties.3.Softcore.136.Sophia.Grace.XXX.IMAGESET-FuGLi
2018-06-18 00:35:03 Enquete.Exclusive.Techno.Et.Rodeo.Un.Ete.Survolte.A.Montreal.DOC.FRENCH.720p.HDTV.x264-SH0W
2018-06-18 00:35:05 AmKingdom.com_18.06.17.Upskirts.And.Panties.3.Softcore.136.Selena.Stone.XXX.IMAGESET-FuGLi
2018-06-18 00:35:51 AmKingdom.com_18.06.17.Upskirts.And.Panties.3.Softcore.136.Sadie.Holmes.XXX.IMAGESET-FuGLi
2018-06-18 00:37:24 Enquete.Exclusive.Techno.Et.Rodeo.Un.Ete.Survolte.A.Montreal.DOC.FRENCH.HDTV.x264-SH0W
2018-06-18 00:43:01 Criminal.Minds.S13E16.FRENCH.HDTV.x264-AMB3R
2018-06-18 00:53:59 FIFA.World.Cup.2018.Group.F.Germany.vs.Mexico.1080p.HDTV.x264-PRiNCE
2018-06-18 00:55:25 Kooley_High-Heights-EP-WEB-2015-UVU
2018-06-18 00:55:34 Kooley_High-Presents_David_Thompson-WEB-2011-UVU
2018-06-18 00:55:44 Renegades.2017.MULTi.COMPLETE.BLURAY-JRP
2018-06-18 00:55:45 Mall_G-Grandmas_House_(Feat._Serius_Jones_and_Mosspoint_Luck)-Single-WEB-2018-UVU
2018-06-18 00:55:54 Rudy_Williams_and_King_Mez-Animal_Music-Single-WEB-2015-UVU
2018-06-18 00:58:29 Dinosaur_L-24-24_Music_The_Definitive_Arthur_Russell_Sleeping_Bag_Recordings-(TEG-76534-2)-WEB-2015-MOHAWK
2018-06-18 01:00:32 Lack_Of_Remorse-The_Bacon_Chronicles_I-WEB-2015-FREGON
2018-06-18 01:08:33 Jizzed.Teens.4.XXX.DVDRip.x264-Pr0nStarS
2018-06-18 01:19:43 Final.Space.S01E03.SPANiSH.1080p.HDTV.x264-4FiRE
2018-06-18 01:20:43 Final.Space.S01E03.SPANiSH.720p.HDTV.x264-4FiRE
2018-06-18 01:20:59 WWE.2018.Money.In.The.Bank.All.Access.Pass.HDTV.x264-PLUTONiUM
2018-06-18 01:21:45 Final.Space.S01E03.SPANiSH.HDTV.x264-4FiRE
2018-06-18 01:23:18 Ghosted.S01E10.720p.HDTV.x264-LucidTV
2018-06-18 01:29:28 Ghosted.S01E10.HDTV.x264-LucidTV
2018-06-18 01:46:58 Song.Of.Granite.2017.PAL.DVD9-WaLMaRT
2018-06-18 01:51:31 Deluded.Mind.Update.v1.8.1-CODEX
2018-06-18 01:57:37 Reyli-Que_Vueltas_Da_La_Vida-(886974764823)-ES-CD-FLAC-2009-FREGON
2018-06-18 02:02:35 VirtualRealityBang.Big.Tits.Brunette.In.VR.Porn.PROPER.XXX.HR.MP4-FaiLED
2018-06-18 02:04:01 Ghosted.S01E11.720p.HDTV.x264-LucidTV
2018-06-18 02:05:27 Snoop.Dogg.Presents.The.Jokers.Wild.S02E10.WEB.x264-TBS
2018-06-18 02:06:15 Snoop.Dogg.Presents.The.Jokers.Wild.S02E10.720p.WEB.x264-TBS
2018-06-18 02:06:45 Drop.the.Mic.S02E10.WEB.x264-TBS
2018-06-18 02:07:20 WWE.2018.Money.In.The.Bank.All.Access.Pass.720p.HDTV.x264.10000th.Release-PLUTONiUM
2018-06-18 02:09:00 Ghosted.S01E11.HDTV.x264-LucidTV
2018-06-18 02:18:57 Don_Chrelli-Caramel_EP-(RADASS001)-WEB-2018-MOHAWK
2018-06-18 02:21:31 Sartorial-Brick_Work_Jazz-(TDR004)-WEB-2018-MOHAWK
2018-06-18 02:31:45 Maxime_Duvall-Raining_In_My_Heart-(BAP121)-WEB-2018-MOHAWK
2018-06-18 02:34:44 Requiem.S01D01.PAL.DVD9-WaLMaRT
2018-06-18 02:34:46 Ghosted.S01E10.REPACK.HDTV.x264-LucidTV
2018-06-18 02:43:28 Deny-Reino_De_Tormentas-ES-WEB-2011-FREGON
2018-06-18 02:43:56 Deny-La_Distancia-ES-REISSUE-BONUS_TRACKS-WEB-2012-FREGON
2018-06-18 02:44:35 Deny-Invencible-ES-WEB-2014-FREGON
2018-06-18 02:47:23 WWE.2018.Money.In.The.Bank.All.Access.Pass.1080p.HDTV.x264-PLUTONiUM
2018-06-18 02:47:50 Requiem.S01D02.PAL.DVD9-WaLMaRT
2018-06-18 02:49:58 Instinct.US.S01E11.720p.HDTV.X264-DIMENSION
2018-06-18 02:52:31 Im.Dying.Up.Here.S02E07.720p.WEB.H264-DEFLATE
2018-06-18 02:52:58 Instinct.US.S01E11.1080p.HDTV.X264-DIMENSION
2018-06-18 02:53:33 Im.Dying.Up.Here.S02E07.WEB.H264-DEFLATE
2018-06-18 02:54:36 Im.Dying.Up.Here.S02E07.1080p.WEB.H264-DEFLATE
2018-06-18 02:55:27 Andhim-Clubding-SAT-06-17-2018-PTC
2018-06-18 02:56:35 Trishes-Liquid_Radio-SAT-06-18-2018-PTC
2018-06-18 02:59:10 Master.Keaton.E01.INTERNAL.DVDRIP.x264-DARKFLiX
2018-06-18 02:59:56 Master.Keaton.E02.INTERNAL.DVDRIP.x264-DARKFLiX
2018-06-18 03:00:29 Instinct.US.S01E11.HDTV.x264-LOL
2018-06-18 03:00:41 Master.Keaton.E03.INTERNAL.DVDRIP.x264-DARKFLiX
2018-06-18 03:01:26 Master.Keaton.E04.INTERNAL.DVDRIP.x264-DARKFLiX
2018-06-18 03:02:12 Master.Keaton.E05.INTERNAL.DVDRIP.x264-DARKFLiX
2018-06-18 03:18:32 Jubei_And_Marcus_Intalex-Lubbly_Jubbly-METAJMI001-WEB-2018-z0ne
2018-06-18 03:24:22 CELO-Sinister-DC027-WEB-2018-z0ne
2018-06-18 03:30:25 Westworld.S02E09.720p.WEB.H264-DEFLATE
2018-06-18 03:31:25 Westworld.S02E09.WEB.H264-DEFLATE
2018-06-18 03:35:04 Claws.S02E02.WEBRip.x264-TBS
2018-06-18 03:39:16 Claws.S02E02.720p.WEBRip.x264-TBS
2018-06-18 03:56:58 Westworld.S02E09.SUBFRENCH.720p.HDTV.x264-SH0W
2018-06-18 04:03:38 The.Americans.S06E10.SPANiSH.HDTV.x264-4FiRE
2018-06-18 04:07:32 Ghosted.S01E12.WEB.x264-TBS
2018-06-18 04:08:25 Femjoy.com_18.06.18.Cristin.M.Premiere.XXX.IMAGESET-FuGLi
2018-06-18 04:08:27 Ghosted.S01E12.1080p.WEB.x264-TBS
2018-06-18 04:15:43 Westworld.S02E09.1080p.WEB.H264-DEFLATE
2018-06-18 04:16:39 Westworld.S02E09.SUBFRENCH.HDTV.x264-AMB3R
2018-06-18 04:21:11 Pose.S01E03.720p.HDTV.x264-AVS
2018-06-18 04:21:12 Claws.S02E02.1080p.WEBRip.x264-TBS
2018-06-18 04:22:00 Pose.S01E03.HDTV.x264-SVA
2018-06-18 04:29:39 Bad.Stepmother.2018.720p.HDTV.x264-W4F
2018-06-18 04:34:05 Claws.S02E02.720p.HDTV.x264-LucidTV
2018-06-18 04:36:48 Bar.Rescue.S06E14.720p.WEB.x264-TBS
2018-06-18 04:37:07 Succession.S01E03.720p.WEB.H264-DEFLATE
2018-06-18 04:38:09 Succession.S01E03.WEB.H264-DEFLATE
2018-06-18 04:39:34 Bad.Stepmother.2018.HDTV.x264-W4F
2018-06-18 04:49:59 Good.Witch.S04E08.WEBRip.x264-TBS
2018-06-18 04:51:00 Alberto_Remondini_Feat._Patrizia_Prinzivalli-M2O_Chart-SAT-16-06-2018-LFA
2018-06-18 04:51:15 Diego_Donati-KUnique_(Independent_House_Show)-SAT-17-06-2018-LFA
2018-06-18 04:51:28 Dino_Brown-Dual_Core_(Sunday_Edition)-SAT-17-06-2018-LFA
2018-06-18 04:51:41 DJ_Osso-Dual_Core_Anni_80-SAT-17-06-2018-LFA
2018-06-18 04:51:54 DJ_Osso-Happy_Edition_(Extended_Mix)-SAT-17-06-2018-LFA
2018-06-18 04:52:06 DJ_Osso-Happy_Edition_(Short_Version)-SAT-16-06-2018-LFA
2018-06-18 04:52:31 Fabio_Amoroso_Feat._Mila_Martiniuc-Gamepad-SAT-17-06-2018-LFA
2018-06-18 04:52:44 Gianluca_Costella_and_Eddy_Costella-House_History-SAT-17-06-2018-LFA
2018-06-18 04:52:57 Headwaters-Signal_Hills_223-SAT-17-06-2018-LFA
2018-06-18 04:53:10 Leandro_Da_Silva-In_Da_Silva_House-SAT-16-06-2018-LFA
2018-06-18 04:53:22 Leandro_Da_Silva-In_Da_Silva_House-SAT-17-06-2018-LFA
2018-06-18 04:53:38 Manuela_Doriani_and_Bob_Sinclar-Electro_Zone-SAT-16-06-2018-LFA
2018-06-18 04:53:51 Marcello_Riotta-No_Stress-SAT-17-06-2018-LFA
2018-06-18 04:54:04 Mattei_and_Omich-Waves_151-SAT-16-06-2018-LFA
2018-06-18 04:54:18 Merk_and_Kremont-Club_Stories_032-SAT-16-06-2018-LFA
2018-06-18 04:54:21 Spreadstorm.x64-DARKSiDERS
2018-06-18 04:54:40 Lands.Of.The.Lost-DARKSiDERS
2018-06-18 04:54:48 Micol_Ronchi_With_Fabio_De_Vivo-Rumors-SAT-17-06-2018-LFA
2018-06-18 04:55:04 Paolo_Bolognesi-Stardust_Chart-SAT-16-06-2018-LFA
2018-06-18 04:55:17 Prevale-Memories-SAT-17-06-2018-LFA
2018-06-18 04:55:31 Renee_La_Bulgara_B2B_Chiara_Robiony-Girls_DJ_Club-SAT-16-06-2018-LFA
2018-06-18 04:55:50 The_Samsara_Crew-One_Of_Us_(Samsara_Beach_Radio_Show)-SAT-16-06-2018-LFA
2018-06-18 04:56:08 The_Samsara_Crew-One_Of_Us_(Samsara_Beach_Radio_Show)-SAT-17-06-2018-LFA
2018-06-18 05:02:14 Into.the.Badlands.S03E08.HDTV.x264-SVA
2018-06-18 05:06:09 Vixen.com_18.05.14.Athena.Palomino.While.Shes.Gone.XXX.IMAGESET-FuGLi
2018-06-18 05:06:57 Vixen.com_18.05.19.Elena.Koshka.Instant.Rebound.XXX.IMAGESET-FuGLi
2018-06-18 05:09:22 Vixen.com_18.05.09.Ivy.Wolfe.Rosalyn.Sphinx.Never.Enough.XXX.IMAGESET-FuGLi
2018-06-18 05:15:18 NASCAR.Xfinity.Series.2018.06.17.Iowa.iNTERNAL.720p.HDTV.h264-DHD
2018-06-18 05:16:01 Heavy.Rescue.401.S01E01.iNTERNAL.FRENCH.WEB.x264-CiELOS
2018-06-18 05:16:34 Heavy.Rescue.401.S01E01.iNTERNAL.FRENCH.720p.WEB.x264-CiELOS
2018-06-18 05:16:36 Heavy.Rescue.401.S01E01.MULTi.1080p.WEB.x264-CiELOS
2018-06-18 05:16:51 Heavy.Rescue.401.S01E02.iNTERNAL.FRENCH.WEB.x264-CiELOS
2018-06-18 05:16:54 Heavy.Rescue.401.S01E02.iNTERNAL.FRENCH.720p.WEB.x264-CiELOS
2018-06-18 05:16:55 Heavy.Rescue.401.S01E02.MULTi.1080p.WEB.x264-CiELOS
2018-06-18 05:17:16 Heavy.Rescue.401.S01E03.iNTERNAL.FRENCH.WEB.x264-CiELOS
2018-06-18 05:17:18 Heavy.Rescue.401.S01E03.iNTERNAL.FRENCH.720p.WEB.x264-CiELOS
2018-06-18 05:17:20 Heavy.Rescue.401.S01E03.MULTi.1080p.WEB.x264-CiELOS
2018-06-18 05:17:39 Heavy.Rescue.401.S01E04.iNTERNAL.FRENCH.WEB.x264-CiELOS
2018-06-18 05:17:40 Heavy.Rescue.401.S01E04.iNTERNAL.FRENCH.720p.WEB.x264-CiELOS
2018-06-18 05:17:42 Heavy.Rescue.401.S01E04.MULTi.1080p.WEB.x264-CiELOS
2018-06-18 05:18:04 Heavy.Rescue.401.S01E05.iNTERNAL.FRENCH.WEB.x264-CiELOS
2018-06-18 05:18:05 Heavy.Rescue.401.S01E05.iNTERNAL.FRENCH.720p.WEB.x264-CiELOS
2018-06-18 05:18:08 Heavy.Rescue.401.S01E05.MULTi.1080p.WEB.x264-CiELOS
2018-06-18 05:18:16 Heavy.Rescue.401.S01E06.iNTERNAL.FRENCH.WEB.x264-CiELOS
2018-06-18 05:18:17 Heavy.Rescue.401.S01E06.iNTERNAL.FRENCH.720p.WEB.x264-CiELOS
2018-06-18 05:18:20 Heavy.Rescue.401.S01E06.MULTi.1080p.WEB.x264-CiELOS
2018-06-18 05:18:25 Heavy.Rescue.401.S01E07.iNTERNAL.FRENCH.WEB.x264-CiELOS
2018-06-18 05:18:27 Heavy.Rescue.401.S01E07.iNTERNAL.FRENCH.720p.WEB.x264-CiELOS
2018-06-18 05:18:30 Heavy.Rescue.401.S01E07.MULTi.1080p.WEB.x264-CiELOS
2018-06-18 05:18:43 Heavy.Rescue.401.S01E08.FRENCH.WEB.x264-CiELOS
2018-06-18 05:18:44 Heavy.Rescue.401.S01E08.FRENCH.720p.WEB.x264-CiELOS
2018-06-18 05:19:09 Heavy.Rescue.401.S01E08.MULTi.1080p.WEB.x264-CiELOS
2018-06-18 05:19:25 Heavy.Rescue.401.S01E09.FiNAL.FRENCH.WEB.x264-CiELOS
2018-06-18 05:19:26 Heavy.Rescue.401.S01E09.FiNAL.FRENCH.720p.WEB.x264-CiELOS
2018-06-18 05:19:29 Heavy.Rescue.401.S01E09.FiNAL.MULTi.1080p.WEB.x264-CiELOS
2018-06-18 05:19:34 Morphology-Traveller-(FS011)-WEB-2018-dL
2018-06-18 05:21:05 Alden_Tyrell-Acid_3_and_7-(Delft006)-VINYL-FLAC-2014-dL
2018-06-18 05:21:54 Succession.S01E03.1080p.WEB.H264-DEFLATE
2018-06-18 05:23:15 Bass_Junkie-Low_Frequency_Fugitive-(BA072)-VINYL-FLAC-2018-dL
2018-06-18 05:24:16 Elementary.S05E01.MULTi.1080p.WEB.x264-CiELOS
2018-06-18 05:24:32 Elementary.S05E03.MULTi.1080p.WEB.x264-CiELOS
2018-06-18 05:25:22 CRC_vs._Myon-Mass_Defect_E.P.-(HEM-2)-VINYL-FLAC-2010-dL
2018-06-18 05:25:28 Elementary.S05E04.MULTi.1080p.WEB.x264-CiELOS
2018-06-18 05:25:36 Elementary.S05E05.MULTi.1080p.WEB.x264-CiELOS
2018-06-18 05:25:44 Elementary.S05E06.MULTi.1080p.WEB.x264-CiELOS
2018-06-18 05:26:41 Elementary.S05E07.MULTi.1080p.WEB.x264-CiELOS
2018-06-18 05:26:48 Elementary.S05E08.MULTi.1080p.WEB.x264-CiELOS
2018-06-18 05:26:57 Elementary.S05E09.MULTi.1080p.WEB.x264-CiELOS
2018-06-18 05:27:04 Elementary.S05E10.MULTi.1080p.WEB.x264-CiELOS
2018-06-18 05:27:32 Efdemin__CRC-Metisse_05-(CURLE-M05)-VINYL-FLAC-2009-dL
2018-06-18 05:27:45 Elementary.S05E13.MULTi.1080p.WEB.x264-CiELOS
2018-06-18 05:27:55 Elementary.S05E14.MULTi.1080p.WEB.x264-CiELOS
2018-06-18 05:28:59 Elementary.S05E16.MULTi.1080p.WEB.x264-CiELOS
2018-06-18 05:29:07 Elementary.S05E17.MULTi.1080p.WEB.x264-CiELOS
2018-06-18 05:29:15 Elementary.S05E18.MULTi.1080p.WEB.x264-CiELOS
2018-06-18 05:29:26 Girl.Followed.2017.1080p.HDTV.x264-W4F
2018-06-18 05:29:47 Future_Beat_Alliance-Mode_2-(FBAR001)-REMASTERED-VINYL-FLAC-2017-dL
2018-06-18 05:29:53 Elementary.S05E19.MULTi.1080p.WEB.x264-CiELOS
2018-06-18 05:30:01 Elementary.S05E20.MULTi.1080p.WEB.x264-CiELOS
2018-06-18 05:30:09 Elementary.S05E21.MULTi.1080p.WEB.x264-CiELOS
2018-06-18 05:30:53 Elementary.S05E22.MULTi.1080p.WEB.x264-CiELOS
2018-06-18 05:31:01 Elementary.S05E23.MULTi.1080p.WEB.x264-CiELOS
2018-06-18 05:31:09 Elementary.S05E24.FiNAL.MULTi.1080p.WEB.x264-CiELOS
2018-06-18 05:34:12 Neville_Watson-I_Love_Acid_016-(ILA016)-PROMO-VINYL-FLAC-2017-dL
2018-06-18 05:36:20 Plug-Back_On_Time-(ZENCD177)-REISSUE-CD-FLAC-2012-dL
2018-06-18 05:38:30 Plug-Drum_N_Bass_For_Papa-(ANGEL1CD)-CD-FLAC-1996-dL
2018-06-18 05:39:21 Girl.Followed.2017.720p.HDTV.x264-W4F
2018-06-18 05:40:39 Robert_Babicz-Pingpong_In_Moonlight-(AM25)-VINYL-FLAC-2007-dL
2018-06-18 05:42:43 60.Minutes.S50E41.WEB.x264-TBS
2018-06-18 05:42:49 Squarepusher-Feed_Me_Weird_Things-(CAT037CD)-CD-FLAC-1996-dL
2018-06-18 05:44:25 60.Minutes.S50E41.720p.WEB.x264-TBS
2018-06-18 05:44:32 60.Minutes.S50E41.1080p.WEB.x264-TBS
2018-06-18 05:44:58 The_Future_Sound_Of_London-My_Kingdom_Re-Imagined-(CDTOT73)-CD-FLAC-2018-dL
2018-06-18 05:45:04 The_Future_re_Sound_Of_London-My_Kingdom_Re-Imagined-(CDTOT7CD-FLAC-2018-dL
2018-06-18 05:45:05 The_Future_Sound_Of_London-My_Kingdom_Re-Imagined-(CDTOT7CD-FLAC-2018-dL
2018-06-18 05:47:09 VA-21st_Century_Soul-(534_742-2)-CD-FLAC-1997-dL
2018-06-18 05:49:14 Girl.Followed.2017.HDTV.x264-W4F
2018-06-18 05:49:19 VA-Beyond_The_Globe-(SLP-CD2003)-CD-FLAC-1995-dL
2018-06-18 05:49:53 Holed.18.06.18.Jane.Wilde.Anal.Pick.Up.XXX.1080p.MP4-KTR
2018-06-18 05:50:59 SpyFam.18.06.18.Eliza.Ibarra.XXX.1080p.MP4-KTR
2018-06-18 05:51:10 Robot.Chicken.S09E14.READNFO.REAL.HDTV.x264-BATV
2018-06-18 05:51:28 VA-Kompakt_100-(KOMPAKTCD34)-2CD-FLAC-2004-dL
2018-06-18 05:51:29 Say.Yes.to.the.Dress.Atlanta.S10E02.Let.Me.Show.Yall.How.Its.Done.WEB.x264-CAFFEiNE
2018-06-18 05:53:26 Robot.Chicken.S09E14.REAL.720p.HDTV.x264-BATV
2018-06-18 05:53:37 VA-Luftkastellet_5-(ZZZCD0037)-CD-FLAC-2007-dL
2018-06-18 05:54:46 Holed.18.06.18.Jane.Wilde.Anal.Pick.Up.XXX.2160p.MP4-KTR
2018-06-18 05:55:48 VA-Solar_Spectrums_Mixed_By_Chris_Coco-(EVSCD01)-2CD-FLAC-2000-dL
2018-06-18 05:57:00 SpyFam.18.06.18.Eliza.Ibarra.XXX.2160p.MP4-KTR
2018-06-18 05:57:57 VA-Trancesylvania-(23-CD2)-2CD-FLAC-1993-dL
2018-06-18 06:04:47 Private.Eyes.S02E13.HDTV.x264-aAF
2018-06-18 06:04:58 BrazzersExxtra.18.06.18.Penny.Pax.Getting.Smashed.XXX.1080p.MP4-KTR
2018-06-18 06:06:05 DirtyMasseur.18.06.18.Devon.Green.Recline.And.Unwind.XXX.1080p.MP4-KTR
2018-06-18 06:07:57 LetsTryAnal.18.06.18.Maya.Bijou.Maya.Oh.My.XXX.1080p.MP4-KTR
2018-06-18 06:15:34 Total.Bellas.S03E05.720p.WEB.x264-TBS
2018-06-18 06:16:10 Total.Bellas.S03E05.WEB.x264-TBS
2018-06-18 06:16:19 Total.Bellas.S03E05.1080p.WEB.x264-TBS
2018-06-18 06:16:59 Last.Week.Tonight.With.John.Oliver.S05E15.720p.HDTV.X264-UAV
2018-06-18 06:18:04 1000Facials.18.06.18.Tana.Lea.XXX.1080p.MP4-KTR
2018-06-18 06:20:19 AllGirlMassage.18.06.18.Zoey.Monroe.And.Scarlett.Sage.The.Labia.Touch.XXX.1080p.MP4-KTR
2018-06-18 06:20:57 Giada.On.The.Beach.S01E01.Italian.Surf.n.Turf.720p.HDTV.x264-W4F
2018-06-18 06:22:14 Bang.RealTeens.18.06.18.Vanna.Bardot.XXX.1080p.MP4-KTR
2018-06-18 06:23:25 EuroGirlsOnGirls.18.06.18.Angel.Princess.And.Anastasia.De.Vine.XXX.1080p.MP4-KTR
2018-06-18 06:23:29 Giada.On.The.Beach.S01E04.Clam.Bake.720p.HDTV.x264-W4F
2018-06-18 06:24:44 Giada.On.The.Beach.S01E04.Clam.Bake.HDTV.x264-W4F
2018-06-18 06:25:50 EuroGirlsOnGirls.18.06.18.Angel.Princess.And.Anastasia.De.Vine.XXX.2160p.MP4-KTR
2018-06-18 06:26:01 Giada.On.The.Beach.S01E05.Summer.Sunday.Supper.720p.HDTV.x264-W4F
2018-06-18 06:26:15 Robot.Chicken.S09E14.REAL.REPACK.HDTV.x264-BATV
2018-06-18 06:27:17 Giada.On.The.Beach.S01E05.Summer.Sunday.Supper.HDTV.x264-W4F
2018-06-18 06:27:23 GirlsWay.18.06.18.Riley.Reid.And.Abella.Danger.The.Haunted.House.XXX.1080p.MP4-KTR
2018-06-18 06:28:09 Robot.Chicken.S09E14.REAL.REPACK.720p.HDTV.x264-BATV
2018-06-18 06:28:36 Giada.On.The.Beach.S01E06.Farmers.Market.Lunch.720p.HDTV.x264-W4F
2018-06-18 06:31:05 Giada.On.The.Beach.S01E07.Summer.Brunch.720p.HDTV.x264-W4F
2018-06-18 06:31:20 Last.Week.Tonight.With.John.Oliver.S05E15.HDTV.x264-UAV
2018-06-18 06:32:21 Giada.On.The.Beach.S01E07.Summer.Brunch.HDTV.x264-W4F
2018-06-18 06:37:22 Playmakers.2017.S03E07.SWEDiSH.1080p.WEB.x264-SAAB
2018-06-18 06:37:23 Snoop.Dogg.Presents.The.Jokers.Wild.S02E10.Gambling.With.the.Realest.G.720p.HDTV.x264-CRiMSON
2018-06-18 06:37:42 Snoop.Dogg.Presents.The.Jokers.Wild.S02E10.Gambling.With.the.Realest.G.HDTV.x264-CRiMSON
2018-06-18 06:37:57 Total.Bellas.S03E05.Make.Up.or.Break.Up.HDTV.x264-CRiMSON
2018-06-18 06:43:50 Vixen.com_18.05.24.Red.Fox.Make.Me.Your.Muse.XXX.IMAGESET-FuGLi
2018-06-18 06:46:31 Vixen.com_18.05.29.Alina.Lopez.Ariana.Marie.She.Taught.Me.Everything.XXX.IMAGESET-FuGLi
2018-06-18 06:47:59 Vixen.com_18.06.03.My.Specific.Sexual.Profile.XXX.IMAGESET-FuGLi
2018-06-18 06:48:31 Cody_Walden_-_Misbehave-(00000010)-WEB-2018-ZzZz
2018-06-18 06:49:51 ClubSeventeen.18.06.18.Alex.Diaz.Hardcore.XXX.1080p.MP4-KTR
2018-06-18 06:50:46 TeachMeFisting.18.06.18.Nicole.Love.And.Rebecca.Black.Fistful.Of.Gape.XXX.1080p.MP4-KTR
2018-06-18 06:55:03 Marcus_Mouya_feat_Matilda_Glantz_-_Blushin_Around_You-(RU158127)-WEB-2018-ZzZz
2018-06-18 06:55:59 Vixen.com_18.06.08.Carmen.Caliente.Sorry.Not.Sorry.XXX.IMAGESET-FuGLi
2018-06-18 06:56:40 Siri_Svegler_-_No_Need_To_Define_(DJ_Deelight_Remix)-(MPR5)-WEB-2018-ZzZz
2018-06-18 07:01:03 MotoGP.2018.Catalunya.1080p.HDTV.x264-VERUM
2018-06-18 07:03:25 PornMegaLoad.18.06.17.Kaho.Shibuya.Big.Boobs.And.Tiny.Bubbles.XXX.1080p.MP4-KTR
2018-06-18 07:06:04 PornFidelity.E747.Kenzie.Reeves.Losing.It.XXX.1080p.MP4-KTR
2018-06-18 07:07:57 Amin_Ravelle-001TR-(FR003D)-WEB-2018-ENSLAVE
2018-06-18 07:09:01 VA_-_Dance_Guide_Selection_(8)-(3615931592400)-WEB-2018-ZzZz
2018-06-18 07:11:25 VA_-_Summer_Dance_Trance_(Vol_1_Summer_Life)-(KMT047)-WEB-2018-ZzZz
2018-06-18 07:11:56 Vixen.com_18.06.13.Nicole.Aniston.Spa.Day.XXX.IMAGESET-FuGLi
2018-06-18 07:12:21 Il.Corriere.Della.Sera.06.18.2018.iTALiAN.RETAiL.eBook-DiVER
2018-06-18 07:14:31 Bonnie_Prince_Billy-Sings_Greatest_Palace_Music-WEB-2018-ENTiTLED_iNT
2018-06-18 07:15:25 GangbangCreampie.18.06.18.G167.Lily.Lane.BTS.XXX.1080p.MP4-KTR
2018-06-18 07:16:36 Protolife-PLAZA
2018-06-18 07:17:00 Allburn_and_Ria_Ananda_-_The_One-(GRVV0352)-WEB-2018-ZzZz
2018-06-18 07:17:05 NewSensations.18.06.18.Britney.Light.XXX.1080p.MP4-KTR
2018-06-18 07:17:27 Protolife.X64.RIP-SiMPLEX
2018-06-18 07:18:16 Protolife.X86.RIP-SiMPLEX
2018-06-18 07:20:04 Private.Eyes.S02E13.1080p.HDTV.x264-aAF
2018-06-18 07:22:27 Leksin_-_Colossus-(FWRBE006)-WEB-2018-ZzZz
2018-06-18 07:26:44 Sandro_Mireno_-_Saffo-(MST071)-WEB-2018-ZzZz
2018-06-18 07:28:18 Rivek_and_Noid_-_Valencia-(YR633)-WEB-2018-ZzZz
2018-06-18 07:30:05 Jose_Bumps_-_Forward-(GERT0406)-WEB-2018-ZzZz
2018-06-18 07:31:20 Vojageur_-_Fiesta-(DMAX511)-WEB-2018-ZzZz
2018-06-18 07:33:26 One_Pale_Ghost_-_Momentum-(DMAX510)-WEB-2018-ZzZz
2018-06-18 07:33:52 TabooPOV.18.06.17.Scarlett.Sage.XXX.720p.MP4-KTR
2018-06-18 07:36:06 GroupBanged.18.06.18.Her.Gang.Bang.Fantasy.Comes.True.XXX.1080p.MP4-KTR
2018-06-18 07:37:15 John_Fisherman_-_Mirage_(Remixes)-(EXIA144)-WEB-2018-ZzZz
2018-06-18 07:38:32 HussieAuditions.18.06.15.Bambi.Black.XXX.1080p.MP4-KTR
2018-06-18 07:39:37 Dm_Moon_-_The_Follow-(TBR057)-WEB-2018-ZzZz
2018-06-18 07:39:39 Dm_Moon_-The_Follow-(TBR057)-WEB-2018-ZzZz
2018-06-18 07:39:55 Christian_Monique-The_Mentalists_Temple-WEB-2018-AFO_INT
2018-06-18 07:40:50 NewSensations.18.06.18.Britney.Light.XXX.2160p.MP4-KTR
2018-06-18 07:42:28 La.Gazzetta.Dello.Sport.06.18.2018.iTALiAN.RETAiL.eBook-DiVER
2018-06-18 07:45:23 PornFidelity.E747.Kenzie.Reeves.Losing.It.XXX.2160p.MP4-KTR
2018-06-18 07:45:44 Moonrider_-_Tempus_(Extended_Mix)-(MSBKR114)-WEB-2018-ZzZz
2018-06-18 07:46:26 EANP-Like_Sand_In_My_Hands-WEB-2018-AFO
2018-06-18 07:47:46 Marco_Mc_Neil_-_Freefall_(Remixes)-(ALYF009R)-WEB-2018-ZzZz
2018-06-18 07:49:46 FullyClothedPissing.18.06.17.Wonder.Sluts.In.Workout.Gear.Add.Some.Piss.To.The.Sweat.XXX.1080p.MP4-KTR
2018-06-18 07:51:16 VIPissy.18.06.18.Vinna.Reed.XXX.1080p.MP4-KTR
2018-06-18 07:52:51 Dennis_Price-Lost_Legacy-WEB-2018-AFO
2018-06-18 07:53:57 Mitcry_feat_EMMA_-_Mi_Legado_(Far_Away)_(Adrian_Cabrera_Remix)-(OTM097)-WEB-2018-ZzZz
2018-06-18 07:54:05 VIPissy.18.06.18.Vinna.Reed.XXX.2160p.MP4-KTR
2018-06-18 07:54:09 CRUXZ-Colora-WEB-2018-AFO
2018-06-18 07:58:18 Jaroslav_Nodes_and_DJ_Kosvanec_-_Aquatic-(10137487)-WEB-2018-ZzZz
2018-06-18 07:59:19 Fate.Zero.VOL01.SAMPLE.FiX.SUBFRENCH.BDRip.x264-KAZETV
2018-06-18 08:00:21 Calvin_Shelar_-_Everywhere_in_the_North_(Finland)-(TCOTS002)-WEB-2018-ZzZz
2018-06-18 08:02:21 KeyWork_-_First_in_Space-(PD201)-WEB-2018-ZzZz
2018-06-18 08:03:43 Jempit_Tull_-_Jet_Lag-(3615932180934)-WEB-2018-ZzZz
2018-06-18 08:05:16 Jaime_Narvaez-Planet_X-WEB-2018-AFO
2018-06-18 08:05:43 POVPornstars.18.04.30.Ana.Rose.XXX.1080p.MP4-KTR
2018-06-18 08:06:19 Elevator.Girl.2010.1080p.HDTV.x264-W4F
2018-06-18 08:07:19 POVPornstars.18.04.30.Ashly.Anderson.XXX.2160p.MP4-KTR
2018-06-18 08:08:25 Gregore_Konstantine-Stop_Me_EP-WEB-2018-AFO
2018-06-18 08:08:45 Jacob_Ireng_-_To_You-(3615932174438)-WEB-2018-ZzZz
2018-06-18 08:09:22 Andy_Bach-Ibiza_Sunset-WEB-2018-AFO
2018-06-18 08:10:36 POVPornstars.18.04.30.Evelyn.Stone.XXX.1080p.MP4-KTR
2018-06-18 08:11:21 Naked.and.Afraid.XL.S04E07.720p.HDTV.x264-W4F
2018-06-18 08:12:35 POVPornstars.18.04.30.Sadie.Pop.XXX.2160p.MP4-KTR
2018-06-18 08:12:37 Twenty_Three-Metanoia-WEB-2018-AFO
2018-06-18 08:15:44 POVPornstars.18.05.07.Khloe.Kapri.XXX.1080p.MP4-KTR
2018-06-18 08:16:13 Elevator.Girl.2010.720p.HDTV.x264-W4F
2018-06-18 08:17:50 VA-Initializing_Vol_18-WEB-2018-AFO
2018-06-18 08:18:08 POVPornstars.18.05.07.Tara.Ashley.XXX.2160p.MP4-KTR
2018-06-18 08:18:47 Aron_Mikael_-_Motivation-(ATR15)-WEB-2018-ZzZz
2018-06-18 08:19:30 Leo_Delgado-Messed_Up-WEB-2018-AFO
2018-06-18 08:20:23 POVPornstars.18.05.14.Katrin.Tequila.XXX.1080p.MP4-KTR
2018-06-18 08:21:00 Rishi_K.-Dune_Road-WEB-2018-AFO
2018-06-18 08:22:35 POVPornstars.18.05.21.Valentina.Jewels.XXX.1080p.MP4-KTR
2018-06-18 08:25:55 Gaston_Ponte-Pulse-WEB-2018-AFO
2018-06-18 08:26:07 POVPornstars.18.06.04.Nora.Rain.XXX.1080p.MP4-KTR
2018-06-18 08:26:08 Elevator.Girl.2010.HDTV.x264-W4F
2018-06-18 08:26:54 Dredd.3.XXX.iNTERNAL.2160p.WEBRiP.MP4-GUSH
2018-06-18 08:27:23 E.V.I.P-In_My_Soul-WEB-2018-AFO
2018-06-18 08:27:54 POVPornstars.18.06.11.Skylar.Valentine.XXX.1080p.MP4-KTR
2018-06-18 08:28:59 Katzen-Lucas_Matto-WEB-2018-AFO
2018-06-18 08:29:47 ATKGirlfriends.18.06.18.Devon.Green.XXX.1080p.MP4-KTR
2018-06-18 08:31:23 Starkato-Vienna_EP-WEB-2018-AFO
2018-06-18 08:31:24 Starkato-Vienna_EP-WEB-2018AFO
2018-06-18 08:31:27 ATKGirlfriends.18.06.18.Devon.Green.XXX.2160p.MP4-KTR
2018-06-18 08:33:39 ATKGirlfriends.18.06.18.Hime.Marie.XXX.1080p.MP4-KTR
2018-06-18 08:35:17 Fate.Zero.VOL02.FiNAL.SUBFRENCH.BDRip.x264-KAZETV
2018-06-18 08:35:52 Djcybertsai-Lost_In_Tranceit-WEB-2018-AFO
2018-06-18 08:36:26 Signal_One-Moon-WEB-2018-AFO
2018-06-18 08:36:47 ATKGirlfriends.18.06.18.Hime.Marie.XXX.2160p.MP4-KTR
2018-06-18 08:38:26 VA-Quadrivium_Vol_02-WEB-2018-AFO
2018-06-18 08:38:37 VA-Clubbers_Culture_Melodic_Techno_And_House-(CCVA0550)-WEB-2018-iHR
2018-06-18 08:38:55 Distortion_and_Kaine_ft._Mel_-_4_OClock_In_The_Morning_(Eufeion_2018_Remix)-(NINJAHCSE003)-WEB-2018-MMS
2018-06-18 08:39:11 LethalHardcore.OC.Amateurs.Vol.4.Long.Beach.Babes.XXX.720p.MP4-KTR
2018-06-18 08:39:15 Deep_Dimension-Counterpart-WEB-2018-AFO
2018-06-18 08:40:04 NA7_-_Get_Dirty-(THD071)-WEB-2018-MMS
2018-06-18 08:40:52 VA-Deep_House_Rhythm_And_Special_Beat_Vol_8-(7630026387231)-WEB-2018-iHR
2018-06-18 08:41:04 JKO_-_Break_It_Down-(VD035)-WEB-2018-MMS
2018-06-18 08:41:37 VA-Differenthouserecord_4-(CAT210705)-WEB-2018-iHR
2018-06-18 08:42:17 LethalHardcore.OC.Amateurs.Vol.4.Long.Beach.Babes.XXX.1080p.MP4-KTR
2018-06-18 08:44:37 VA-Ibiza_Chill_House_2018-(10136500)-WEB-2018-iHR
2018-06-18 08:46:07 VA-Legends_Of_The_Night_Riddim-(FXF2161)-WEB-2018-iHR
2018-06-18 08:46:52 VA-Miami_House_Anthems_Vol_21-(RH2COMP524B)-WEB-2018-iHR
2018-06-18 08:46:59 Scerbas-Cygnus-WEB-2018-AFO
2018-06-18 08:48:51 Fate.Zero.E14.SUBFRENCH.1080p.BluRay.x264-KAZETV
2018-06-18 08:49:42 Fate.Zero.E14.SUBFRENCH.720p.BluRay.x264-KAZETV
2018-06-18 08:49:52 VA-Summer_Colours_Vol_2-(YLM0358)-WEB-2018-iHR
2018-06-18 08:50:22 Massive.Monster.Mayhem.S01E08.HDTV.x264-W4F
2018-06-18 08:50:32 Frankie.Drake.Mysteries.S01E11.SPANiSH.1080p.HDTV.x264-FCC
2018-06-18 08:50:46 Frankie.Drake.Mysteries.S01E11.SPANiSH.720p.HDTV.x264-FCC
2018-06-18 08:51:03 Frankie.Drake.Mysteries.S01E11.SPANiSH.HDTV.x264-FCC
2018-06-18 08:51:05 Fate.Zero.E15.SUBFRENCH.1080p.BluRay.x264-KAZETV
2018-06-18 08:51:16 Paris.Etc.S01E06.SPANiSH.1080p.HDTV.x264-FCC
2018-06-18 08:51:39 Massive.Monster.Mayhem.S01E09.720p.HDTV.x264-W4F
2018-06-18 08:51:57 Fate.Zero.E15.SUBFRENCH.720p.BluRay.x264-KAZETV
2018-06-18 08:52:30 Bodybangers_and_DJ_Muscleboy_-_VIKINGCLAP-WEB-2018-MMS
2018-06-18 08:52:59 VA-Clinique_Sampler_Part_145-WEB-2018-AFO
2018-06-18 08:53:19 Fate.Zero.E16.SUBFRENCH.1080p.BluRay.x264-KAZETV
2018-06-18 08:53:43 Sharam_Jey_and_Jean_Bacarreza-Push_It_EP-(BT100)-WEB-2018-CBR
2018-06-18 08:54:01 Hobo-Exodus_EP-WEB-2018-AFO
2018-06-18 08:54:10 Fate.Zero.E16.SUBFRENCH.720p.BluRay.x264-KAZETV
2018-06-18 08:54:11 Massive.Monster.Mayhem.S01E10.720p.HDTV.x264-W4F
2018-06-18 08:54:22 VA-Waves_Collection_Vol_3-(DPB212)-WEB-2018-iHR
2018-06-18 08:55:27 Massive.Monster.Mayhem.S01E10.HDTV.x264-W4F
2018-06-18 08:55:32 Fate.Zero.E17.SUBFRENCH.1080p.BluRay.x264-KAZETV
2018-06-18 08:56:23 Fate.Zero.E17.SUBFRENCH.720p.BluRay.x264-KAZETV
2018-06-18 08:57:44 Fate.Zero.E18.SUBFRENCH.1080p.BluRay.x264-KAZETV
2018-06-18 08:57:59 Massive.Monster.Mayhem.S01E11.HDTV.x264-W4F
2018-06-18 08:58:35 Fate.Zero.E18.SUBFRENCH.720p.BluRay.x264-KAZETV
2018-06-18 08:59:43 Ricardo_Piedra-Scarecrow-WEB-2018-AFO
2018-06-18 08:59:58 Fate.Zero.E19.SUBFRENCH.1080p.BluRay.x264-KAZETV
2018-06-18 09:00:30 Jay_Nortown-Satellites_EP-WEB-2018-AFO
2018-06-18 09:00:47 Fate.Zero.E19.SUBFRENCH.720p.BluRay.x264-KAZETV
2018-06-18 09:02:16 Fate.Zero.E20.SUBFRENCH.1080p.BluRay.x264-KAZETV
2018-06-18 09:03:03 MasterChef.US.S09E05.HDTV.x264-W4F
2018-06-18 09:03:07 Fate.Zero.E20.SUBFRENCH.720p.BluRay.x264-KAZETV
2018-06-18 09:03:18 MetArtX.18.06.18.Sybil.A.Upskirt.Story.2.XXX.1080p.MP4-KTR
2018-06-18 09:04:19 A.Craftsmans.Legacy.S03E13.The.Metal.Shaper.720p.HDTV.x264-W4F
2018-06-18 09:04:29 Fate.Zero.E21.SUBFRENCH.1080p.BluRay.x264-KAZETV
2018-06-18 09:05:19 Fate.Zero.E21.SUBFRENCH.720p.BluRay.x264-KAZETV
2018-06-18 09:05:33 Unsolved.S01E01.FRENCH.720p.WEB.x264-CiELOS
2018-06-18 09:05:35 A.Craftsmans.Legacy.S03E13.The.Metal.Shaper.HDTV.x264-W4F
2018-06-18 09:05:56 VA-Hit_Explosion_Feel_2018-WEB-2018-JUSTiFY
2018-06-18 09:06:28 Unsolved.S01E02.FRENCH.720p.WEB.x264-CiELOS
2018-06-18 09:06:29 Unsolved.S01E03.FRENCH.720p.WEB.x264-CiELOS
2018-06-18 09:06:32 Unsolved.S01E04.FRENCH.720p.WEB.x264-CiELOS
2018-06-18 09:06:42 Fate.Zero.E22.SUBFRENCH.1080p.BluRay.x264-KAZETV
2018-06-18 09:06:51 A.Craftsmans.Legacy.S04E02.The.Ski.Makers.720p.HDTV.x264-W4F
2018-06-18 09:07:32 Fate.Zero.E22.SUBFRENCH.720p.BluRay.x264-KAZETV
2018-06-18 09:07:46 Unsolved.S01E05.FRENCH.720p.WEB.x264-CiELOS
2018-06-18 09:08:06 A.Craftsmans.Legacy.S04E02.The.Ski.Makers.HDTV.x264-W4F
2018-06-18 09:08:35 Unsolved.S01E06.FRENCH.720p.WEB.x264-CiELOS
2018-06-18 09:08:37 Unsolved.S01E07.FRENCH.720p.WEB.x264-CiELOS
2018-06-18 09:08:58 Fate.Zero.E23.SUBFRENCH.1080p.BluRay.x264-KAZETV
2018-06-18 09:09:20 Unsolved.S01E09.FRENCH.720p.WEB.x264-CiELOS
2018-06-18 09:09:21 Unsolved.S01E10.FiNAL.FRENCH.720p.WEB.x264-CiELOS
2018-06-18 09:09:23 A.Craftsmans.Legacy.S04E03.The.Jeans.Maker.720p.HDTV.x264-W4F
2018-06-18 09:09:47 Fate.Zero.E23.SUBFRENCH.720p.BluRay.x264-KAZETV
2018-06-18 09:10:39 A.Craftsmans.Legacy.S04E03.The.Jeans.Maker.HDTV.x264-W4F
2018-06-18 09:10:52 Unsolved.S01E02.MULTi.1080p.WEB.x264-CiELOS
2018-06-18 09:11:09 Fate.Zero.E24.SUBFRENCH.1080p.BluRay.x264-KAZETV
2018-06-18 09:11:58 Fate.Zero.E24.SUBFRENCH.720p.BluRay.x264-KAZETV
2018-06-18 09:12:14 Unsolved.S01E03.MULTi.1080p.WEB.x264-CiELOS
2018-06-18 09:13:09 Unsolved.S01E04.MULTi.1080p.WEB.x264-CiELOS
2018-06-18 09:13:26 Fate.Zero.E25.FiNAL.SUBFRENCH.1080p.BluRay.x264-KAZETV
2018-06-18 09:14:17 Fate.Zero.E25.FiNAL.SUBFRENCH.720p.BluRay.x264-KAZETV
2018-06-18 09:14:29 Unsolved.S01E05.MULTi.1080p.WEB.x264-CiELOS
2018-06-18 09:15:11 VirtualRealityBang.Big.Tits.Brunette.In.VR.Porn.DiRFiX.PROPER.XXX.1440p.MP4-FaiLED
2018-06-18 09:15:51 Unsolved.S01E06.MULTi.1080p.WEB.x264-CiELOS
2018-06-18 09:15:53 Unsolved.S01E07.MULTi.1080p.WEB.x264-CiELOS
2018-06-18 09:15:55 Unsolved.S01E08.MULTi.1080p.WEB.x264-CiELOS
2018-06-18 09:17:38 Unsolved.S01E09.MULTi.1080p.WEB.x264-CiELOS
2018-06-18 09:17:39 Unsolved.S01E10.FiNAL.MULTi.1080p.WEB.x264-CiELOS
2018-06-18 09:18:32 AllOver30.18.06.18.Georgie.Lyall.XXX.1080p.MP4-KTR
2018-06-18 09:19:17 Gegege.No.Kitaro.S01E12.1080p.WEB.x264-DARKFLiX
2018-06-18 09:19:39 Armor.Clash.II.v2.0-CODEX
2018-06-18 09:19:45 AllOver30.18.06.18.Malvina.XXX.1080p.MP4-KTR
2018-06-18 09:20:03 Gegege.No.Kitaro.S01E12.720p.WEB.x264-DARKFLiX
2018-06-18 09:20:49 Gegege.No.Kitaro.S01E12.WEB.x264-DARKFLiX
2018-06-18 09:21:39 AllOver30.18.06.18.Malvina.XXX.2160p.MP4-KTR
2018-06-18 09:23:22 KarupsHA.18.06.16.Genesis.Summers.Solo.1.XXX.1080p.MP4-KTR
2018-06-18 09:23:57 Into.the.Badlands.S03E08.1080p.WEB.H264-DEFLATE
2018-06-18 09:25:16 Ame-Dream_House-IVLP09-Retail-CD-2018-BFHMP3
2018-06-18 09:25:41 KarupsHA.18.06.18.Vienna.Black.Blast.From.The.Past.XXX.1080p.MP4-KTR
2018-06-18 09:25:52 Mr._Cloudy-Light_In_My_Head_(Remastered)-SV19-CD-2018-BFHMP3
2018-06-18 09:26:09 Wicked.Tuna.S07E15.Changing.the.Tide.720p.HDTV.x264-DHD
2018-06-18 09:26:28 Paul_Kalkbrenner-Parts_Of_Life-Retail-CD-2018-BFHMP3
2018-06-18 09:27:04 VA-Groove_173_CD_82-MAG-2018-BFHMP3
2018-06-18 09:27:13 KarupsOW.18.06.18.Roxy.Jay.Solo.2.XXX.1080p.MP4-KTR
2018-06-18 09:27:38 VA-Moments_In_Time_(Compiled_By_Moonboots)-ZZZCD0121-CD-2017-BFHMP3
2018-06-18 09:28:18 VA-Under_The_Influence_Volume_Six_(Compiled_By_Faze_Action)-ZEDDCD043-2CD-2018-BFHMP3
2018-06-18 09:28:32 KarupsPC.18.06.16.Carina.Black.Solo.1.XXX.1080p.MP4-KTR
2018-06-18 09:28:42 Gravity.Falls.S01E01.FRENCH.720p.WEBRip.x264-D4KiD
2018-06-18 09:28:53 Viill-Local_Sleep-SV21-CD-2018-BFHMP3
2018-06-18 09:29:33 KarupsPC.18.06.18.Gabriela.Solo.5.XXX.1080p.MP4-KTR
2018-06-18 09:30:19 Gravity.Falls.S01E03.FRENCH.720p.WEBRip.x264-D4KiD
2018-06-18 09:31:09 Gravity.Falls.S01E04.FRENCH.720p.WEBRip.x264-D4KiD
2018-06-18 09:31:56 Gravity.Falls.S01E05.FRENCH.720p.WEBRip.x264-D4KiD
2018-06-18 09:32:39 PornstarPlatinum.18.06.18.Claudia.Valentine.Fucking.My.Therapist.XXX.1080p.MP4-KTR
2018-06-18 09:32:45 Gravity.Falls.S01E06.FRENCH.720p.WEBRip.x264-D4KiD
2018-06-18 09:33:34 Gravity.Falls.S01E07.FRENCH.720p.WEBRip.x264-D4KiD
2018-06-18 09:34:22 Gravity.Falls.S01E08.FRENCH.720p.WEBRip.x264-D4KiD
2018-06-18 09:35:06 Anilos.18.06.18.Darla.Sweet.Tits.XXX.1080p.MP4-KTR
2018-06-18 09:35:10 Gravity.Falls.S01E09.FRENCH.720p.WEBRip.x264-D4KiD
2018-06-18 09:36:00 Gravity.Falls.S01E10.FRENCH.720p.WEBRip.x264-D4KiD
2018-06-18 09:36:14 Nubiles.18.06.18.Jia.Lissa.Sexy.Sweetheart.XXX.1080p.MP4-KTR
2018-06-18 09:36:48 Gravity.Falls.S01E11.FRENCH.720p.WEBRip.x264-D4KiD
2018-06-18 09:37:36 Gravity.Falls.S01E12.FRENCH.720p.WEBRip.x264-D4KiD
2018-06-18 09:37:47 JulesJordan.18.06.18.Rachael.Cavalli.XXX.1080p.MP4-KTR
2018-06-18 09:38:25 Gravity.Falls.S01E13.FRENCH.720p.WEBRip.x264-D4KiD
2018-06-18 09:39:14 Gravity.Falls.S01E14.FRENCH.720p.WEBRip.x264-D4KiD
2018-06-18 09:40:03 Gravity.Falls.S01E15.FRENCH.720p.WEBRip.x264-D4KiD
2018-06-18 09:40:09 JulesJordan.18.06.18.Rachael.Cavalli.XXX.2160p.MP4-KTR
2018-06-18 09:40:51 Gravity.Falls.S01E16.FRENCH.720p.WEBRip.x264-D4KiD
2018-06-18 09:41:41 Gravity.Falls.S01E17.FRENCH.720p.WEBRip.x264-D4KiD
2018-06-18 09:42:29 Gravity.Falls.S01E18.FRENCH.720p.WEBRip.x264-D4KiD
2018-06-18 09:43:18 Gravity.Falls.S01E19.FRENCH.720p.WEBRip.x264-D4KiD
2018-06-18 09:44:06 Gravity.Falls.S01E20.FiNAL.FRENCH.720p.WEBRip.x264-D4KiD
2018-06-18 09:46:32 NeighborAffair.18.06.18.Kimber.Woods.XXX.1080p.MP4-KTR
2018-06-18 09:50:59 Romper.Stomper.S01E06.WEB.h264-WEBSTER
2018-06-18 09:51:33 NeighborAffair.18.06.18.Kimber.Woods.XXX.2160p.MP4-KTR
2018-06-18 09:52:22 Mystery.Road.S01E04.720p.HDTV.x264-W4F
2018-06-18 09:53:54 Tim_Erzberg-Hell-Go-Land-6CD-Audiobook-DE-2016-vorgelesen
2018-06-18 09:56:54 Gravity.Falls.S02E01.iNTERNAL.FRENCH.720p.WEBRip.x264-D4KiD
2018-06-18 09:57:35 KarupsHA.18.06.18.Vienna.Black.Blast.From.The.Past.XXX.2160p.MP4-KTR
2018-06-18 09:57:42 Gravity.Falls.S02E02.FRENCH.720p.WEBRip.x264-D4KiD
2018-06-18 09:58:31 Gravity.Falls.S02E03.FRENCH.720p.WEBRip.x264-D4KiD
2018-06-18 09:59:18 Gravity.Falls.S02E04.FRENCH.720p.WEBRip.x264-D4KiD
2018-06-18 10:00:06 Gravity.Falls.S02E05.FRENCH.720p.WEBRip.x264-D4KiD
2018-06-18 10:00:53 Gravity.Falls.S02E06.FRENCH.720p.WEBRip.x264-D4KiD
2018-06-18 10:01:04 Afrojack_-_Jacked_Radio_347-CABLE-06-17-2018-TALiON
2018-06-18 10:01:40 Gravity.Falls.S02E07.FRENCH.720p.WEBRip.x264-D4KiD
2018-06-18 10:02:03 Sunnery_James_and_Ryan_Marciano_-_Sexy_by_Nature-CABLE-06-17-2018-TALiON
2018-06-18 10:02:28 Gravity.Falls.S02E08.FRENCH.720p.WEBRip.x264-D4KiD
2018-06-18 10:02:29 Managing.England.The.Impossible.Job.2018.WEB.h264-WEBSTER
2018-06-18 10:03:04 Oliver_Heldens_-_Heldeep_Radio_210-CABLE-06-17-2018-TALiON
2018-06-18 10:03:15 Gravity.Falls.S02E09.FRENCH.720p.WEBRip.x264-D4KiD
2018-06-18 10:04:03 Gravity.Falls.S02E10.FRENCH.720p.WEBRip.x264-D4KiD
2018-06-18 10:04:04 Robin_Schulz_-_Sugar_Radio-CABLE-06-17-2018-TALiON
2018-06-18 10:04:50 Gravity.Falls.S02E11.FRENCH.720p.WEBRip.x264-D4KiD
2018-06-18 10:05:05 DJ_Licious_-_Show_Me_Radio-CABLE-06-09-2018-TALiON
2018-06-18 10:05:38 Gravity.Falls.S02E12.FRENCH.720p.WEBRip.x264-D4KiD
2018-06-18 10:05:48 Dietmar_Wunder_Ben_Aaronovitch-Schwarzer_Mond_Ueber_Soho-DE-AUDIOBOOK-3CD-FLAC-2012-flacbuch
2018-06-18 10:05:59 Jujja_Wieslander-Mama_Muh_Will_Rutschen-DE-AUDIOBOOK-CD-FLAC-2007-flacbuch
2018-06-18 10:06:04 DJ_Licious_-_Show_Me_Radio-CABLE-06-16-2018-TALiON
2018-06-18 10:06:26 CherryPimps.18.06.18.Elsa.Jean.A.Hot.Erotic.Night.XXX.1080p.MP4-KTR
2018-06-18 10:06:40 Salah_Naoura-Superflashboy-DE-AUDIOBOOK-CD-FLAC-2018-flacbuch
2018-06-18 10:07:05 Monki_-_BBC_Radio1__Melvo_Baptiste_in_Control-SAT-06-18-2018-TALiON
2018-06-18 10:07:29 ChicasLoca.18.06.18.Sofi.Goldfinger.SPANISH.XXX.1080p.MP4-KTR
2018-06-18 10:08:03 Tritonal_-_Tritonia_218__Incl_Justin_Caruso_Guestmix-SAT-06-18-2018-TALiON
2018-06-18 10:09:00 Petite.18.06.18.Adrian.Hush.Cumming.On.Adrians.Little.Latina.Pussy.XXX.1080p.MP4-KTR
2018-06-18 10:10:01 Spizoo.18.06.18.Lexi.Lore.Hot.Shower.XXX.1080p.MP4-KTR
2018-06-18 10:10:45 Cum.Craving.Cuckolds.5.XXX.1080p.WEBRip.MP4-VSEX
2018-06-18 10:11:00 Pinkpop.2018.Part02.DUTCH.720p.HDTV.x264-DTOD
2018-06-18 10:11:41 Spizoo.18.06.18.Lexi.Lore.Hot.Shower.XXX.2160p.MP4-KTR
2018-06-18 10:11:57 The.Handmaids.Tale.S02E05.1080p.HDTV.x264-MTB
2018-06-18 10:12:03 JP_Chronic-Drumatic__Rizzos-(FREQ1828)-WEB-2018-CBR
2018-06-18 10:12:46 Anturage_and_Alexey_Union-Over_Me-(HM078)-WEB-2018-CBR
2018-06-18 10:12:54 Gravity.Falls.S02E13.FRENCH.720p.WEBRip.x264-D4KiD
2018-06-18 10:13:00 Trampolin.2016.CROATiAN.WEBRip.x264-RADiOACTiVE
2018-06-18 10:13:41 Gravity.Falls.S02E14.FRENCH.720p.WEBRip.x264-D4KiD
2018-06-18 10:13:59 Beat_Dance_Revenge-Snow_Leopard-(KIESO173)-WEB-2018-CBR
2018-06-18 10:14:29 Gravity.Falls.S02E15.FRENCH.720p.WEBRip.x264-D4KiD
2018-06-18 10:14:37 Gaga-Focus-(DFR252)-WEB-2018-CBR
2018-06-18 10:15:15 Gravity.Falls.S02E16.FRENCH.720p.WEBRip.x264-D4KiD
2018-06-18 10:15:16 Nacim_Ladj-Back_To_Reality-(FPO126)-WEB-2018-CBR
2018-06-18 10:15:52 Nacim_Ladj-Visions-(NASIMUSVIP055)-WEB-2018-CBR
2018-06-18 10:16:03 Gravity.Falls.S02E17.FRENCH.720p.WEBRip.x264-D4KiD
2018-06-18 10:16:50 Gravity.Falls.S02E18.FRENCH.720p.WEBRip.x264-D4KiD
2018-06-18 10:17:04 DJ_Lugo-Masons_EP-(PAR020)-WEB-2018-CBR
2018-06-18 10:17:36 Gravity.Falls.S02E19.FRENCH.720p.WEBRip.x264-D4KiD
2018-06-18 10:17:43 Alex_Brend-Shadow_Of_The_Soul_EP-(MT298D)-WEB-2018-CBR
2018-06-18 10:18:19 SisterMA-Everything-(DIS193)-WEB-2018-CBR
2018-06-18 10:19:10 Gravity.Falls.S02E21.FiNAL.FRENCH.720p.WEBRip.x264-D4KiD
2018-06-18 10:19:34 Lands.Of.The.Lost.RIP-SiMPLEX
2018-06-18 10:20:03 DJ_Lugo-Astral-(BSC098)-WEB-2018-CBR
2018-06-18 10:20:45 The_Effaith-Circus_EP-(CAT213273)-WEB-2018-CBR
2018-06-18 10:21:53 Verche-Dystopia-(HMR051)-WEB-2018-CBR
2018-06-18 10:23:25 Mr._Blase_feat._Sealskin-Communication-(OOI1)-WEB-2018-CBR
2018-06-18 10:24:02 Tony_Madrid-Night_Soul-(TR030)-WEB-2018-CBR
2018-06-18 10:24:42 Tebra-Almada-(8CLL0006)-WEB-2018-CBR
2018-06-18 10:25:58 Steve_Cole_feat._Max_Joni-Way_of_Life_Part_2-(LUM046)-WEB-2018-CBR
2018-06-18 10:26:27 Billions.S03E12.POLISH.720p.HDTV.x264-ProPLTV
2018-06-18 10:26:34 Boy.An-Corazon-(NXL051)-WEB-2018-CBR
2018-06-18 10:27:27 Dr._Cyanide-Mind-(NRDR082)-WEB-2018-CBR
2018-06-18 10:28:02 LS-Beginnings-(TYC044)-WEB-2018-CBR
2018-06-18 10:28:48 Kevin_Arga-Satan_Lives_EP-(BOS201)-WEB-2018-CBR
2018-06-18 10:28:57 Boku.No.Pet.Wa.Otoi.Nazuna.XXX.720p.WEBRip.MP4-VSEX
2018-06-18 10:29:23 Audioglider-Black_Sun_Blood_Moon-(MAM028)-WEB-2018-CBR
2018-06-18 10:29:39 BlackMeatWhiteFeet.18.06.18.Brooklyn.Chase.XXX.1080p.MP4-KTR
2018-06-18 10:29:58 Siiker-Inside_Out-(TRS006)-WEB-2018-CBR
2018-06-18 10:30:52 GloryHole.18.06.18.Jade.Nile.XXX.1080p.MP4-KTR
2018-06-18 10:33:47 WildOnCam.18.06.18.Aaliyah.Hadid.XXX.1080p.MP4-KTR
2018-06-18 10:33:55 Lovec.senzaci.1988.CZECH.PDTV.x264-I_KnoW
2018-06-18 10:34:33 Gravity.Falls.S01E01.FRENCH.1080p.WEBRip.x264-D4KiD
2018-06-18 10:35:21 Gravity.Falls.S01E02.FRENCH.1080p.WEBRip.x264-D4KiD
2018-06-18 10:35:39 IKissGirls.18.06.18.Bree.Daniels.And.Malena.Morgan.Morning.After.XXX.1080p.MP4-KTR
2018-06-18 10:36:07 Gravity.Falls.S01E03.FRENCH.1080p.WEBRip.x264-D4KiD
2018-06-18 10:36:54 Gravity.Falls.S01E04.FRENCH.1080p.WEBRip.x264-D4KiD
2018-06-18 10:37:40 Gravity.Falls.S01E05.FRENCH.1080p.WEBRip.x264-D4KiD
2018-06-18 10:38:28 Gravity.Falls.S01E06.FRENCH.1080p.WEBRip.x264-D4KiD
2018-06-18 10:39:12 EvilAngel.Hookup.Hotshot.Hardcore.Internet.Dating.XXX.720p.MP4-KTR
2018-06-18 10:39:14 Gravity.Falls.S01E07.FRENCH.1080p.WEBRip.x264-D4KiD
2018-06-18 10:40:02 Gravity.Falls.S01E08.FRENCH.1080p.WEBRip.x264-D4KiD
2018-06-18 10:40:48 Gravity.Falls.S01E09.FRENCH.1080p.WEBRip.x264-D4KiD
2018-06-18 10:41:36 Gravity.Falls.S01E10.FRENCH.1080p.WEBRip.x264-D4KiD
2018-06-18 10:42:24 Gravity.Falls.S01E11.FRENCH.1080p.WEBRip.x264-D4KiD
2018-06-18 10:42:26 Boku.No.Pet.Wa.Otoi.Nazuna.XXX.1080p.WEBRip.MP4-VSEX
2018-06-18 10:43:12 Gravity.Falls.S01E12.FRENCH.1080p.WEBRip.x264-D4KiD
2018-06-18 10:43:58 Gravity.Falls.S01E13.FRENCH.1080p.WEBRip.x264-D4KiD
2018-06-18 10:44:38 Rampage.2018.720p.WEB.h264-WEBTiFUL
2018-06-18 10:44:45 Gravity.Falls.S01E14.FRENCH.1080p.WEBRip.x264-D4KiD
2018-06-18 10:45:02 Legion.S02E08.POLISH.720p.HDTV.x264-ProPLTV
2018-06-18 10:45:15 EvilAngel.Hookup.Hotshot.Hardcore.Internet.Dating.XXX.INTERNAL.1080p.MP4-KTR
2018-06-18 10:45:32 Gravity.Falls.S01E15.FRENCH.1080p.WEBRip.x264-D4KiD
2018-06-18 10:47:39 Naya-Blossom-WEB-2017-SPANK
2018-06-18 10:47:46 Naya-Girl_On_The_Moon_(Une_Fille_De_La_Lune)-WEB-FR-2018-SPANK
2018-06-18 10:49:09 Rampage.2018.1080p.WEB.h264-WEBTiFUL
2018-06-18 10:50:44 Legion.S02E09.POLISH.720p.HDTV.x264-ProPLTV
2018-06-18 10:52:07 Gravity.Falls.S01E16.FRENCH.1080p.WEBRip.x264-D4KiD
2018-06-18 10:52:54 Gravity.Falls.S01E17.FRENCH.1080p.WEBRip.x264-D4KiD
2018-06-18 10:53:41 Gravity.Falls.S01E18.FRENCH.1080p.WEBRip.x264-D4KiD
2018-06-18 10:54:25 Rampage.2018.WEB.h264-WEBTiFUL
2018-06-18 10:54:29 Gravity.Falls.S01E19.FRENCH.1080p.WEBRip.x264-D4KiD
2018-06-18 10:54:51 Fitting-Room.18.06.18.Mila.Azul.XXX.1080p.MP4-KTR
2018-06-18 10:55:15 Gravity.Falls.S01E20.FiNAL.FRENCH.1080p.WEBRip.x264-D4KiD
2018-06-18 10:55:37 FIFA.Weltmeisterschaft.2018.Gruppe.D.Costa.Rica.vs.Serbien.German.720p.HDTV.x264-WiNMAU
2018-06-18 10:56:04 Legion.S02E10.POLISH.720p.HDTV.x264-ProPLTV
2018-06-18 10:57:06 Fitting-Room.18.06.18.Mila.Azul.XXX.2160p.MP4-KTR
2018-06-18 10:58:04 HelplessTeens.E62.Paisley.Pepper.XXX.1080p.MP4-KTR
2018-06-18 10:58:40 FIFA.Weltmeisterschaft.2018.Gruppe.D.Costa.Rica.vs.Serbien.German.HDTVRip.x264-WiNMAU
2018-06-18 10:59:31 InTheCrack.E1419.Jade.Kush.XXX.1080p.MP4-KTR
2018-06-18 11:00:27 InTheCrack.E1419.Jade.Kush.3D.XXX.2160p.MP4-KTR
2018-06-18 11:01:31 ScrewBox.18.06.17.Abella.Danger.In.Anamnesis.XXX.1080p.MP4-KTR
2018-06-18 11:01:39 La.Enfermedad.Del.Domingo.2017.SPANiSH.1080p.WEBRip.x264-FERiCE
2018-06-18 11:01:43 Legion.S02E11.POLISH.720p.HDTV.x264-ProPLTV
2018-06-18 11:02:01 Taxing.Love.2018.BDRip.x264-ROVERS
2018-06-18 11:03:25 Absolute.Genius.with.Dick.and.Dom.S03E06.HDTV.x264-dotTV
2018-06-18 11:03:38 La.Enfermedad.Del.Domingo.2017.SPANiSH.720p.WEBRip.x264-FERiCE
2018-06-18 11:04:13 Room.101.S06E04.HDTV.x264-dotTV
2018-06-18 11:04:40 La.Enfermedad.Del.Domingo.2017.SPANiSH.WEBRip.x264-FERiCE
2018-06-18 11:06:59 Au.Royaume.Des.Champignons.2017.DOC.FRENCH.720p.WEB.h264-LaoZi
2018-06-18 11:08:20 Dans.Le.Chaos.Libyen.2018.DOC.FRENCH.720p.WEB.h264-LaoZi
2018-06-18 11:10:04 Laura_May_-_Whaaa-(HTE028)-WEB-2018-ZzZz
2018-06-18 11:10:06 Room.101.S06E04.720p.HDTV.x264-dotTV
2018-06-18 11:11:49 Squirt.The.Movie.2.XXX.1080p.WEBRip.MP4-VSEX
2018-06-18 11:12:15 Absolute.Genius.with.Dick.and.Dom.S03E06.720p.HDTV.x264-dotTV
2018-06-18 11:14:03 Gravity.Falls.S02E02.FRENCH.1080p.WEBRip.x264-D4KiD
2018-06-18 11:14:49 Gravity.Falls.S02E03.FRENCH.1080p.WEBRip.x264-D4KiD
2018-06-18 11:15:29 M_and_W_-_Gotta_Tell_You_2018-(CHUBBY008)-WEB-2018-ZzZz
2018-06-18 11:15:35 Gravity.Falls.S02E04.FRENCH.1080p.WEBRip.x264-D4KiD
2018-06-18 11:16:13 Lucifer.S03E19.POLISH.720p.HDTV.x264-ProPLTV
2018-06-18 11:16:23 Gravity.Falls.S02E05.FRENCH.1080p.WEBRip.x264-D4KiD
2018-06-18 11:17:11 Gravity.Falls.S02E06.FRENCH.1080p.WEBRip.x264-D4KiD
2018-06-18 11:17:57 Gravity.Falls.S02E07.FRENCH.1080p.WEBRip.x264-D4KiD
2018-06-18 11:17:59 Scattered_Purgatory-Sua-Hiam-Zun-WEB-2017-CRUELTY
2018-06-18 11:18:33 Tengger-Segye-WEB-2017-CRUELTY
2018-06-18 11:18:43 Gravity.Falls.S02E08.FRENCH.1080p.WEBRip.x264-D4KiD
2018-06-18 11:19:23 To.Tell.The.Truth.2016.S03E02.REAL.WEB.x264-TBS
2018-06-18 11:19:30 Gravity.Falls.S02E09.FRENCH.1080p.WEBRip.x264-D4KiD
2018-06-18 11:19:44 Gareth_Monks_-_Rumble_In_The_House-(CAT209071)-WEB-2018-ZzZz
2018-06-18 11:20:17 Gravity.Falls.S02E10.FRENCH.1080p.WEBRip.x264-D4KiD
2018-06-18 11:20:19 To.Tell.The.Truth.2016.S03E02.REAL.720p.WEB.x264-TBS
2018-06-18 11:20:50 Celebrity.Family.Feud.2015.S04E02.WEB.x264-TBS
2018-06-18 11:21:05 Gravity.Falls.S02E11.FRENCH.1080p.WEBRip.x264-D4KiD
2018-06-18 11:22:39 Gravity.Falls.S02E13.FRENCH.1080p.WEBRip.x264-D4KiD
2018-06-18 11:23:25 Gravity.Falls.S02E14.FRENCH.1080p.WEBRip.x264-D4KiD
2018-06-18 11:24:13 Gravity.Falls.S02E15.FRENCH.1080p.WEBRip.x264-D4KiD
2018-06-18 11:24:49 Dark.Paradise.4.XXX.720p.WEBRip.MP4-VSEX
2018-06-18 11:24:59 Gravity.Falls.S02E16.FRENCH.1080p.WEBRip.x264-D4KiD
2018-06-18 11:25:46 Gravity.Falls.S02E17.FRENCH.1080p.WEBRip.x264-D4KiD
2018-06-18 11:25:49 Microsoft.Team.Foundation.Server.2018.with.Update2.ISO-TBE
2018-06-18 11:27:48 Gravity.Falls.S02E18.FRENCH.1080p.WEBRip.x264-D4KiD
2018-06-18 11:28:34 Gravity.Falls.S02E19.FRENCH.1080p.WEBRip.x264-D4KiD
2018-06-18 11:29:19 Marvels.Spider-Man.S02E01.WEB.x264-TBS
2018-06-18 11:29:21 Gravity.Falls.S02E20.FRENCH.1080p.WEBRip.x264-D4KiD
2018-06-18 11:30:08 Gravity.Falls.S02E21.FiNAL.FRENCH.1080p.WEBRip.x264-D4KiD
2018-06-18 11:30:19 Najdluzsza.Wojna.Nowoczesnej.Europy.E09.POLISH.720p.HDTV.x264-ProPLTV
2018-06-18 11:30:44 Marvels.Spider-Man.S02E02.WEB.x264-TBS
2018-06-18 11:30:46 Marvels.Spider-Man.S02E02.720p.WEB.x264-TBS
2018-06-18 11:31:19 Educating.Rita.1983.720p.BluRay.X264-AMIABLE
2018-06-18 11:31:42 Iran.Reves.DEmpire.2018.DOC.FRENCH.720p.WEB.h264-LaoZi
2018-06-18 11:31:55 Greidor_Allmaster_presents_Planetmaster_-_Hard_Line_Nation-(ESR267)-WEB-2018-ZzZz
2018-06-18 11:34:24 Educating.Rita.1983.1080p.BluRay.X264-AMIABLE
2018-06-18 11:36:28 Richard_Grey_-_Lets_Be_Together-(GHIGH028)-WEB-2018-ZzZz
2018-06-18 11:37:32 L.Arabie.Saoudite.Une.Puissance.Petroliere.En.Crise.2018.DOC.FRENCH.720p.WEB.h264-LaoZi
2018-06-18 11:38:12 L.Archeologie.A.L.Heure.Du.High-tech.2017.DOC.FRENCH.720p.WEB.h264-LaoZi
2018-06-18 11:38:54 Le.Joli.Mai.1963.DOC.FRENCH.720p.WEB.h264-LaoZi
2018-06-18 11:38:57 Dark.Paradise.4.XXX.1080p.WEBRip.MP4-VSEX
2018-06-18 11:39:25 Marvels.Spider-Man.S02E01.720p.WEB.x264-TBS
2018-06-18 11:39:35 Les.Routes.De.Lesclavage.1375-1620.Pour.Tout.Lor.Du.Monde.Part.2.2018.DOC.FRENCH.720p.WEB.h264-LaoZi
2018-06-18 11:40:16 AssParade.18.06.18.Alycia.Starr.XXX.1080p.MP4-KTR
2018-06-18 11:40:38 Ron_Reeser_and_Ducka_Shan_-_Only_One-(SIR8661)-WEB-2018-ZzZz
2018-06-18 11:42:08 Les.Routes.De.Lesclavage.1620-1788.Du.Sucre.A.La.Revolte.Part.3.2018.DOC.FRENCH.720p.WEB.h264-LaoZi
2018-06-18 11:43:06 Pensjonat.Nad.Rozlewiskiem.E13.POLISH.720p.HDTV.x264-ProPLTV
2018-06-18 11:43:40 Henri_-_Talk_to_Me-(MZC061)-WEB-2018-ZzZz
2018-06-18 11:43:46 Spanien.-.Eine.Zeitreise.E01.Die.Eroberung.GERMAN.DOKU.720p.HDTV.x264-redTV
2018-06-18 11:44:01 Les.Routes.De.Lesclavage.1789-1888.Les.Nouvelles.Frontieres.De.Lesclavage.FINAL.2018.DOC.FRENCH.720p.WEB.h264-LaoZi
2018-06-18 11:45:40 Dirty_Disco_feat_Brenda_Reed_-_I_Am_What_I_Am-(DDM031)-WEB-2018-ZzZz
2018-06-18 11:47:46 Les.Routes.De.Lesclavage.476-1375.Au-dela.Du.Desert.Part.1.2018.DOC.FRENCH.720p.INTERNAL.WEB.h264-LaoZi
2018-06-18 11:48:17 Spanien.-.Eine.Zeitreise.E03.Die.Nation.GERMAN.DOKU.1080p.HDTV.x264-redTV
2018-06-18 11:48:18 Tu.Mourras.Moins.Bete.A.Quand.Le.Sabre.Laser.2015.DOC.FRENCH.720p.WEB.h264-LaoZi
2018-06-18 11:48:48 Tu.Mourras.Moins.Bete.A.Quoi.Servent.Les.Reves.2015.DOC.FRENCH.720p.WEB.h264-LaoZi
2018-06-18 11:49:14 Rodzinka.pl.S12E14.POLISH.720p.HDTV.x264-ProPLTV
2018-06-18 11:49:19 Tu.Mourras.Moins.Bete.Astrophysicien.C.Est.Bien.2017.DOC.FRENCH.720p.WEB.h264-LaoZi
2018-06-18 11:49:43 Enoo_Napa_and_DJ_Merlon-Super_Africans-(MBR287)-WEB-2018-CBR
2018-06-18 11:49:47 Spanien.-.Eine.Zeitreise.E03.Die.Nation.GERMAN.DOKU.720p.HDTV.x264-redTV
2018-06-18 11:49:50 Tu.Mourras.Moins.Bete.Autant.En.Emporte.Le.Vent.2017.DOC.FRENCH.720p.WEB.h264-LaoZi
2018-06-18 11:50:16 VA-Spider_Lilies-CN-OST-CD-FLAC-2007-CHS
2018-06-18 11:50:20 Tu.Mourras.Moins.Bete.Aux.Armes.Etc.2015.DOC.FRENCH.720p.WEB.h264-LaoZi
2018-06-18 11:50:48 Flaminia-Illusion_In_Fire-(MPSYVYN002)-WEB-2018-CBR
2018-06-18 11:50:50 Tu.Mourras.Moins.Bete.Avaler.Une.Araignee.En.Dormant.2015.DOC.FRENCH.720p.WEB.h264-LaoZi
2018-06-18 11:51:19 Mowgly3_M3-Ambiguedad-WEB-2018-CBR
2018-06-18 11:51:20 Tu.Mourras.Moins.Bete.Blessures.Par.Balles.Ca.Fait.Mal.2014.DOC.FRENCH.720p.WEB.h264-LaoZi
2018-06-18 11:51:46 FIFA.Weltmeisterschaft.2018.Gruppe.F.Deutschland.vs.Mexico.German.720p.HDTV.x264.iNTERNAL-WiNMAU
2018-06-18 11:51:51 Tu.Mourras.Moins.Bete.Briller.En.Societe.Avec.Le.Plexus.Coeliaque.2015.DOC.FRENCH.720p.WEB.h264-LaoZi
2018-06-18 11:51:52 The_Humanoid-Watching-(CAT211000)-WEB-2018-CBR
2018-06-18 11:52:21 Tu.Mourras.Moins.Bete.C.Est.Quoi.Une.Near.Death.Experience.2014.DOC.FRENCH.720p.WEB.h264-LaoZi
2018-06-18 11:52:35 Dark_Quadrant-Planetary_Function-(BTNL027)-WEB-2018-CBR
2018-06-18 11:52:36 Have.You.Been.Paying.Attention.2018.06.11.PDTV.x264-CCT
2018-06-18 11:52:52 Tu.Mourras.Moins.Bete.Cherie.Je.Veux.Retrecir.Les.Gosses.2014.DOC.FRENCH.720p.WEB.h264-LaoZi
2018-06-18 11:52:58 The.Living.Room.S07E19.720p.HDTV.x264-CCT
2018-06-18 11:53:03 The.Living.Room.S07E19.HDTV.x264-CCT
2018-06-18 11:53:06 AM.I-Inveniam-(N4A031)-WEB-2018-CBR
2018-06-18 11:53:23 Tu.Mourras.Moins.Bete.Comment.Ca.Marche.Une.Centrale.Nucleaire.2014.DOC.FRENCH.720p.WEB.h264-LaoZi
2018-06-18 11:53:40 Tim_Cant_and_Greekboy-Deep_Screams__World_United-(SVR048)-WEB-2018-CBR
2018-06-18 11:53:53 Tu.Mourras.Moins.Bete.Comment.Devenir.Un.Beau.Fossile.2015.DOC.FRENCH.720p.WEB.h264-LaoZi
2018-06-18 11:54:16 Akoustik-Alien_Abduction-(OVNIEP288)-WEB-2018-CBR
2018-06-18 11:54:23 Tu.Mourras.Moins.Bete.Comment.Fonctionne.La.Memoire.Des.Visages.2015.DOC.FRENCH.720p.WEB.h264-LaoZi
2018-06-18 11:54:44 Strike.S01E02.POLISH.720p.HDTV.x264-ProPLTV
2018-06-18 11:54:54 Tu.Mourras.Moins.Bete.Entomologie.Forensique.2015.DOC.FRENCH.720p.WEB.h264-LaoZi
2018-06-18 11:55:24 Tu.Mourras.Moins.Bete.Evolution.Sexuelle.De.L.Homme.2015.DOC.FRENCH.720p.WEB.h264-LaoZi
2018-06-18 11:55:41 SoundSpirit-H2O-(PWREP210)-WEB-2018-CBR
2018-06-18 11:55:56 Tu.Mourras.Moins.Bete.Expression.Des.Animaux.2015.DOC.FRENCH.720p.WEB.h264-LaoZi
2018-06-18 11:56:04 FIFA.Weltmeisterschaft.2018.Gruppe.F.Deutschland.vs.Mexico.German.HDTVRip.x264.iNTERNAL-WiNMAU
2018-06-18 11:56:26 Tu.Mourras.Moins.Bete.Folie.Spatiale.2015.DOC.FRENCH.720p.WEB.h264-LaoZi
2018-06-18 11:56:57 Ethereal_Vision-World_of_Illusions_EP-(SBCDDIGITAL023)-WEB-2018-CBR
2018-06-18 11:56:58 Tu.Mourras.Moins.Bete.Greffe.De.Visages.2015.DOC.FRENCH.720p.WEB.h264-LaoZi
2018-06-18 11:57:27 Steve_Levi-Omena-(SRZ038)-WEB-2018-CBR
2018-06-18 11:57:28 Tu.Mourras.Moins.Bete.Greffer.Une.Tete.Sur.Un.Corps.2014.DOC.FRENCH.720p.WEB.h264-LaoZi
2018-06-18 11:57:58 Tu.Mourras.Moins.Bete.Jamais.Sans.Mes.Acariens.2015.DOC.FRENCH.720p.WEB.h264-LaoZi
2018-06-18 11:58:22 Salva_Di_Nobles-Over_There-(27FS004)-WEB-2018-CBR
2018-06-18 11:58:26 Andi.Mack.S02E16.720p.WEB.x264-TBS
2018-06-18 11:58:29 Tu.Mourras.Moins.Bete.L.Alcool.C.Est.Bon.Mais.Pas.Pour.La.Sante.2015.DOC.FRENCH.720p.WEB.h264-LaoZi
2018-06-18 11:58:59 Tu.Mourras.Moins.Bete.L.Ascenseur.Spatial.C.Est.Pour.Quand.2015.DOC.FRENCH.720p.WEB.h264-LaoZi
2018-06-18 11:59:15 VA-Level_1-(SPIEL001)-WEB-2018-CBR
2018-06-18 11:59:29 MasterChef.Australia.S10E30.720p.HDTV.x264-ORENJI
2018-06-18 11:59:30 Tu.Mourras.Moins.Bete.L.Ophtalmologie.Chez.Les.Animaux.2015.DOC.FRENCH.720p.WEB.h264-LaoZi
2018-06-18 12:00:00 Tu.Mourras.Moins.Bete.La.Foule.L.Enfer.C.Est.Les.Autres.2017.DOC.FRENCH.720p.WEB.h264-LaoZi
2018-06-18 12:00:32 Tu.Mourras.Moins.Bete.La.Peur.En.Avion.2014.DOC.FRENCH.720p.WEB.h264-LaoZi
2018-06-18 12:01:09 VA-One_Night_in_Mykonos_Vol._4-(RH2COMP543)-WEB-2018-CBR
2018-06-18 12:01:32 Tu.Mourras.Moins.Bete.Le.Boson.De.Higgs.Quesaco.2014.DOC.FRENCH.720p.WEB.h264-LaoZi
2018-06-18 12:02:03 Tu.Mourras.Moins.Bete.Le.Cerveau.De.Lucy.2015.DOC.FRENCH.720p.WEB.h264-LaoZi
2018-06-18 12:02:34 Tu.Mourras.Moins.Bete.Les.Animaux.S.Aiment.Comme.Des.Betes.2015.DOC.FRENCH.720p.WEB.h264-LaoZi
2018-06-18 12:03:04 Tu.Mourras.Moins.Bete.Les.Stups.Dans.Les.Films.2015.DOC.FRENCH.720p.WEB.h264-LaoZi
2018-06-18 12:03:07 Soul_Power_-_Wanna_Funk_With_You-(TRD_396)-WEB-2018-ZzZz
2018-06-18 12:03:10 Walk.the.Prank.S03E08.WEB.x264-TBS
2018-06-18 12:03:24 Walk.the.Prank.S03E08.720p.WEB.x264-TBS
2018-06-18 12:03:35 Tu.Mourras.Moins.Bete.Les.Turbulences.2015.DOC.FRENCH.720p.WEB.h264-LaoZi
2018-06-18 12:04:06 Tu.Mourras.Moins.Bete.Perdre.Son.Gras.Pas.Une.Mince.Affaire.2015.DOC.FRENCH.720p.WEB.h264-LaoZi
2018-06-18 12:04:24 Walk.the.Prank.S03E09.WEB.x264-TBS
2018-06-18 12:04:36 Tu.Mourras.Moins.Bete.Peut-on.Etre.Digere.Vivant.2015.DOC.FRENCH.720p.WEB.h264-LaoZi
2018-06-18 12:05:06 Tu.Mourras.Moins.Bete.Placentophagie.2015.DOC.FRENCH.720p.WEB.h264-LaoZi
2018-06-18 12:05:37 Tu.Mourras.Moins.Bete.Pourquoi.Les.Ados.Sont-ils.Mous.2015.DOC.FRENCH.720p.WEB.h264-LaoZi
2018-06-18 12:05:52 The_Lab_Of_House_-_Raw_Choice_One-(RR_013)-WEB-2018-ZzZz
2018-06-18 12:06:07 Tu.Mourras.Moins.Bete.Quand.Pourrons-nous.Voyager.Comme.Dans.Alien.2014.DOC.FRENCH.720p.WEB.h264-LaoZi
2018-06-18 12:06:26 Strike.S01E03.POLISH.720p.HDTV.x264-ProPLTV
2018-06-18 12:06:39 Tu.Mourras.Moins.Bete.Que.Faire.D.Un.Cadavre.Spatial.2015.DOC.FRENCH.720p.WEB.h264-LaoZi
2018-06-18 12:07:08 What.My.Mum.Doesnt.Know.Wont.Hurt.Her.XXX.1080p.WEBRip.MP4-VSEX
2018-06-18 12:07:09 Tu.Mourras.Moins.Bete.Respirer.Sous.L.Eau.2015.DOC.FRENCH.720p.WEB.h264-LaoZi
2018-06-18 12:07:41 Tu.Mourras.Moins.Bete.S.Irradier.Au.Cine.2015.DOC.FRENCH.720p.WEB.h264-LaoZi
2018-06-18 12:08:10 Tu.Mourras.Moins.Bete.Stades.Freudiens.2015.DOC.FRENCH.720p.WEB.h264-LaoZi
2018-06-18 12:08:41 Tu.Mourras.Moins.Bete.Tous.Dopes.2015.DOC.FRENCH.720p.WEB.h264-LaoZi
2018-06-18 12:09:42 Tu.Mourras.Moins.Bete.Voyage.Dans.Le.Temps.2015.DOC.FRENCH.720p.WEB.h264-LaoZi
2018-06-18 12:10:12 Une.Terre.Deux.Fois.Promise.Israel.Palestine.Part.1.2018.DOC.FRENCH.720p.WEB.h264-LaoZi
2018-06-18 12:10:14 Unqle_Chriz_-_My_Only_One-(VBR153)-WEB-2018-ZzZz
2018-06-18 12:10:43 Une.Terre.Deux.Fois.Promise.Israel.Palestine.Part.2.FiNAL.2018.DOC.FRENCH.720p.WEB.h264-LaoZi
2018-06-18 12:12:53 Fake_Mood_-_Insomnia-(HWD_89)-WEB-2018-ZzZz
2018-06-18 12:15:41 STP_-_Honestly_Sound-(IRECEPIREC945D2TR)-WEB-2018-ZzZz
2018-06-18 12:16:04 Outback.Opal.Hunters_-_Edelsteinjagd.in.Australien.S01E01.GERMAN.DOKU.720p.HDTV.x264-CDD
2018-06-18 12:17:34 Goldrausch.White.Water.Alaska.S01E03.Gefaehrlicher.Tauchgang.GERMAN.DOKU.720p.HDTV.x264-CDD
2018-06-18 12:24:35 Watch.What.Happens.Live.2018.06.17.Ginuwine.and.Robyn.Dixon.720p.WEB.x264-TBS
2018-06-18 12:24:46 Watch.What.Happens.Live.2018.06.17.Ginuwine.and.Robyn.Dixon.WEB.x264-TBS
2018-06-18 12:26:42 The.Real.Housewives.of.Potomac.S03E12.WEB.x264-TBS
2018-06-18 12:26:44 The.Real.Housewives.of.Potomac.S03E12.1080p.WEB.x264-TBS
2018-06-18 12:31:57 De_Silence_Et_Dombre-Ascension-CD-FLAC-2009-CRUELTY
2018-06-18 12:32:05 BackroomCastingCouch.18.06.18.Raini.XXX.720p.MP4-KTR
2018-06-18 12:32:33 Excoriate-On_Pestilent_Winds___-CD-FLAC-2009-CRUELTY
2018-06-18 12:33:23 ReadyOrNotHereICum.18.06.18.Baby.Nicols.XXX.1080p.MP4-KTR
2018-06-18 12:34:25 Surilla_-_Gladiator-(HF204)-WEB-2018-MMS
2018-06-18 12:37:18 Semitoo_ft._Nicco_-_With_You_(DJ_Selecta_Remix)-(YLD002R)-WEB-2018-MMS
2018-06-18 12:37:50 Dredd.3.XXX.iNTERNAL.1080p.WEBRiP.MP4-GUSH
2018-06-18 12:45:38 The.100000.Dollar.Pyramid.2016.S03E02.WEB.h264-TBS
2018-06-18 12:48:36 Stafle.1974.CZECH.PDTV.x264-I_KnoW
2018-06-18 12:49:35 Nazar-Mosaik-DE-2018-NOiR
2018-06-18 12:53:32 Shugga_ft._Elaine_Winter_-_Wunderschoen-(TB564)-WEB-DE-2018-MMS
2018-06-18 12:54:42 FutileStruggles.Adara.The.Punished.Thief-Part.1.XXX.720p.MP4-hUSHhUSH
2018-06-18 12:56:50 FutileStruggles.JJ.Plush.Hogtied.With.A.Lot.Of.Rope-Part.1.XXX.720p.MP4-hUSHhUSH
2018-06-18 13:00:04 FutileStruggles.JJ.Plush.Mummified.And.Hogtied-Part.1.XXX.720p.MP4-hUSHhUSH
2018-06-18 13:02:54 Westworld.S02E09.SUBFRENCH.1080p.HDTV.x264-HYBRiS
2018-06-18 13:02:55 FutileStruggles.Kingsleys.Test-Part.1.XXX.720p.MP4-hUSHhUSH
2018-06-18 13:03:20 DirtyScout.17.05.01.E80.XXX.x264-MANLOVE
2018-06-18 13:03:26 DirtyScout.17.05.08.E81.XXX.x264-MANLOVE
2018-06-18 13:03:30 DirtyScout.17.05.15.E82.XXX.x264-MANLOVE
2018-06-18 13:03:33 DirtyScout.17.05.22.E83.XXX.x264-MANLOVE
2018-06-18 13:03:38 DirtyScout.17.05.29.E84.XXX.x264-MANLOVE
2018-06-18 13:07:04 Block_and_Crown_and_Kaippa_-_Find_the_Light-(TIGREC029)-WEB-2018-MMS
2018-06-18 13:11:52 Siks_and_John_Walt_-_The_Sky_(Julian_Jordan_Mixes)-(GLD011B)-WEB-2018-MMS
2018-06-18 13:12:14 FutileStruggles.Tough.Cop.Rachel.Lured.Into.Captivity.By.Miguel-Part.1.XXX.720p.MP4-hUSHhUSH
2018-06-18 13:14:07 DirtyScout.17.06.05.E85.XXX.x264-MANLOVE
2018-06-18 13:14:11 DirtyScout.17.06.12.E86.XXX.x264-MANLOVE
2018-06-18 13:14:15 DirtyScout.17.06.19.E87.XXX.x264-MANLOVE
2018-06-18 13:14:18 DirtyScout.17.06.26.E88.XXX.x264-MANLOVE
2018-06-18 13:14:22 FIFA.Weltmeisterschaft.2018.Gruppe.E.Brasilien.vs.Schweiz.German.720p.HDTV.x264-WiNMAU
2018-06-18 13:14:26 FutileStruggles.Vesper.Leashed.Paraded.Strung.Up.And.Then.Hogzipped-Part.1.XXX.720p.MP4-hUSHhUSH
2018-06-18 13:16:58 FutileStruggles.Wenona.Statue.Training-Part.1.XXX.720p.MP4-hUSHhUSH
2018-06-18 13:17:11 David_Rodigan-BBC1Xtra-SAT-06-17-2018-YARD
2018-06-18 13:17:39 FIFA.Weltmeisterschaft.2018.Gruppe.E.Brasilien.vs.Schweiz.German.HDTVRip.x264-WiNMAU
2018-06-18 13:19:34 RestrainedElegance.2016.12.25.Stocks.On.The.Landing.XXX.1080p.MP4-hUSHhUSH
2018-06-18 13:22:27 RestrainedElegance.2017.07.04.Behind.The.Scenes.Tillie.New.Slavegirl.Part.One.XXX.1080p.MP4-hUSHhUSH
2018-06-18 13:29:14 Flava_and_Stevenson_ft._Haddaway_-_Lifes_A_Dream-WEB-2018-MMS
2018-06-18 13:31:42 RestrainedElegance.2017.08.01.Behind.The.Scenes.Tillie.New.Slavegirl.Part.Two.XXX.1080p.MP4-hUSHhUSH
2018-06-18 13:34:06 RestrainedElegance.2017.12.16.A.Hot.Shower.XXX.1080p.MP4-hUSHhUSH
2018-06-18 13:34:49 AssParade.18.06.18.Alycia.Starr.XXX.2160p.MP4-KTR
2018-06-18 13:37:50 Art_Frequency_ft._Sean_Beckett_-_This_Is_Art_Frequency-(NEXT045)-REPACK-WEB-2018-MMS
2018-06-18 13:41:01 GirlsOutWest.18.06.18.Layla.XXX.1080p.MP4-TRASHBIN
2018-06-18 13:42:01 GirlsOutWest.18.06.18.Layla.XXX.2160p.MP4-TRASHBIN
2018-06-18 13:42:32 Hustler.18.06.18.Gia.Paloma.XXX.1080p.MP4-TRASHBIN
2018-06-18 13:46:21 AbbyWinters.18.06.18.Elah.Solo.XXX.1080p.MP4-KTR
2018-06-18 13:49:00 Patrick_Metzker_ft._Andria_Marie_and_Gemeni_-_Cantina-(BIGSMILE068)-WEB-2018-MMS
2018-06-18 13:49:18 Dredd.3.XXX.iNTERNAL.720p.WEBRiP.MP4-GUSH
2018-06-18 13:59:45 Dr._Lonnie_Smith-All_in_My_Mind-2018-NOiR
2018-06-18 14:00:16 Animal.Kingdom.US.S03E01.SPANiSH.1080p.HDTV.x264-FCC
2018-06-18 14:00:20 Omegatypez_ft._The_Vision_-_Calling_(Amentis_Remix)-(ANY126)-WEB-2018-MMS
2018-06-18 14:00:51 Brooklyn.Nine-Nine.S05E02.SPANiSH.1080p.HDTV.x264-FCC
2018-06-18 14:01:05 Brooklyn.Nine-Nine.S05E02.SPANiSH.720p.HDTV.x264-FCC
2018-06-18 14:01:19 Brooklyn.Nine-Nine.S05E02.SPANiSH.HDTV.x264-FCC
2018-06-18 14:01:50 The.Affair.S04E01.SPANiSH.720p.HDTV.x264-FCC
2018-06-18 14:01:51 Eli_And_Fur-Something_Was_Real-WEB-2018-AFO
2018-06-18 14:02:58 RVAGE_-_Stuck_In_A_Dream_(Outlands_2018_Extended_Anthem)-(A2REC195)-WEB-2018-MMS
2018-06-18 14:05:55 The_New_Monkey_-_MC_Tazo_and_MC_Ace_B2B-WEB-2018-MMS
2018-06-18 14:09:24 Matan_Caspi-Journey_To_Sahara-WEB-2018-AFO
2018-06-18 14:09:57 Vick_J-Panic_Attack-WEB-2018-AFO
2018-06-18 14:10:20 LEGO.House.Home.of.the.Brick.720p.WEB.x264-CONVOY
2018-06-18 14:11:01 LEGO.House.Home.of.the.Brick.1080p.WEB.x264-CONVOY
2018-06-18 14:23:26 Room_Service-Summer_People_EP-(BF247)-WEB-2018-CBR
2018-06-18 14:23:57 Ozgur_Can-Mode_Avion-(BIBLIOTHEQUE026)-WEB-2018-CBR
2018-06-18 14:24:31 TZEN-West_Coast_EP-(SHR014)-WEB-2018-CBR
2018-06-18 14:25:16 Derek_Armstrong-Blue_Dream_EP-(SYL070)-WEB-2018-CBR
2018-06-18 14:25:48 Paul_Threy-Black_Hole-(IND5B1A9AE041)-WEB-2018-CBR
2018-06-18 14:29:33 Neophyte_-_Wrath_Of_Warlords_(Dominator_2018_Anthem)-WEB-2018-MMS_INT
2018-06-18 14:30:41 The_Underdogz_-_We_Are_The_Underdogz-(BKT052)-WEB-2018-SRG
2018-06-18 14:34:39 PlayboyPlus.18.06.19.Cara.Mell.Sand.And.Surf.XXX.1080p.MP4-KTR
2018-06-18 14:35:37 TakeVan.18.06.18.Ashley.Threesome.With.Model.In.The.Field.XXX.1080p.MP4-KTR
2018-06-18 14:37:24 Sons.Of.Anarchy.S05E01.iTALiAN.WEB.x264-NTROPiC
2018-06-18 14:37:31 Sons.Of.Anarchy.S05E02.iTALiAN.WEB.x264-NTROPiC
2018-06-18 14:37:44 Sons.Of.Anarchy.S05E04.iTALiAN.WEB.x264-NTROPiC
2018-06-18 14:37:51 Sons.Of.Anarchy.S05E05.iTALiAN.WEB.x264-NTROPiC
2018-06-18 14:37:57 Sons.Of.Anarchy.S05E06.iTALiAN.WEB.x264-NTROPiC
2018-06-18 14:38:05 Sons.Of.Anarchy.S05E07.iTALiAN.WEB.x264-NTROPiC
2018-06-18 14:38:12 Sons.Of.Anarchy.S05E08.iTALiAN.WEB.x264-NTROPiC
2018-06-18 14:38:19 Sons.Of.Anarchy.S05E09.iTALiAN.WEB.x264-NTROPiC
2018-06-18 14:38:25 Sons.Of.Anarchy.S05E10.iTALiAN.WEB.x264-NTROPiC
2018-06-18 14:38:32 Sons.Of.Anarchy.S05E11.iTALiAN.WEB.x264-NTROPiC
2018-06-18 14:38:39 Sons.Of.Anarchy.S05E12.iTALiAN.WEB.x264-NTROPiC
2018-06-18 14:38:46 Sons.Of.Anarchy.S05E13.iTALiAN.FiNAL.WEB.x264-NTROPiC
2018-06-18 14:42:00 Sons.Of.Anarchy.S05E01.iTALiAN.720p.WEB.x264-NTROPiC
2018-06-18 14:42:03 Pete_Oak-Maleficent-(BFR019)-WEB-2018-CBR
2018-06-18 14:42:13 Sons.Of.Anarchy.S05E03.iTALiAN.720p.WEB.x264-NTROPiC
2018-06-18 14:42:20 Sons.Of.Anarchy.S05E04.iTALiAN.720p.WEB.x264-NTROPiC
2018-06-18 14:42:27 Sons.Of.Anarchy.S05E05.iTALiAN.720p.WEB.x264-NTROPiC
2018-06-18 14:42:35 Sons.Of.Anarchy.S05E06.iTALiAN.720p.WEB.x264-NTROPiC
2018-06-18 14:42:41 Matthew_Art-Mars_Cowboys-(SFN209)-WEB-2018-CBR
2018-06-18 14:42:47 Sons.Of.Anarchy.S05E08.iTALiAN.720p.WEB.x264-NTROPiC
2018-06-18 14:42:54 Sons.Of.Anarchy.S05E09.iTALiAN.720p.WEB.x264-NTROPiC
2018-06-18 14:43:01 Sons.Of.Anarchy.S05E10.iTALiAN.720p.WEB.x264-NTROPiC
2018-06-18 14:43:08 Sons.Of.Anarchy.S05E11.iTALiAN.720p.WEB.x264-NTROPiC
2018-06-18 14:43:15 Sons.Of.Anarchy.S05E12.iTALiAN.720p.WEB.x264-NTROPiC
2018-06-18 14:43:22 Sons.Of.Anarchy.S05E13.iTALiAN.FiNAL.720p.WEB.x264-NTROPiC
2018-06-18 14:43:50 Betoko-Gonio_EP-(THCD147)-WEB-2018-CBR
2018-06-18 14:44:16 Matt_Fear-Tough_Break_Remixes_Part_I_EP-(GVD030)-WEB-2018-CBR
2018-06-18 14:44:57 Sammy_W_and_Alex_E_and_Ossey_James-Poke_Me-(TBSLD022)-WEB-2018-CBR
2018-06-18 14:47:06 Factory.of.Monsters-PLAZA
2018-06-18 14:47:43 Camblom_Subaria-Journey_to_Lillydale-(DCREC216)-WEB-2018-CBR
2018-06-18 14:49:53 Hatk-Umtshingo_(Remix)-WEB-2018-AFO_INT
2018-06-18 14:50:05 Ozgur_Can-Mode_Avion-WEB-2018-AFO_INT
2018-06-18 14:50:24 Audioglider-Black_Sun_Blood_Moon-WEB-2018-AFO_INT
2018-06-18 14:50:46 Sons.Of.Anarchy.S05E01.iTALiAN.MULTi.1080p.WEB.x264-NTROPiC
2018-06-18 14:51:03 Sons.Of.Anarchy.S05E03.iTALiAN.MULTi.1080p.WEB.x264-NTROPiC
2018-06-18 14:51:12 Sons.Of.Anarchy.S05E04.iTALiAN.MULTi.1080p.WEB.x264-NTROPiC
2018-06-18 14:51:19 Sons.Of.Anarchy.S05E05.iTALiAN.MULTi.1080p.WEB.x264-NTROPiC
2018-06-18 14:51:28 Sons.Of.Anarchy.S05E06.iTALiAN.MULTi.1080p.WEB.x264-NTROPiC
2018-06-18 14:51:35 Sons.Of.Anarchy.S05E07.iTALiAN.MULTi.1080p.WEB.x264-NTROPiC
2018-06-18 14:51:49 Adventure.Time.S01E01.FRENCH.720p.WEB.x264-CARAPiLS
2018-06-18 14:52:01 Sons.Of.Anarchy.S05E10.iTALiAN.MULTi.1080p.WEB.x264-NTROPiC
2018-06-18 14:52:09 Sons.Of.Anarchy.S05E11.iTALiAN.MULTi.1080p.WEB.x264-NTROPiC
2018-06-18 14:52:11 Taeyeon-Something_New-EP-WEB-KR-2018-TosK
2018-06-18 14:52:24 Sons.Of.Anarchy.S05E13.iTALiAN.MULTi.FiNAL.1080p.WEB.x264-NTROPiC
2018-06-18 14:52:28 Adventure.Time.S01E01.MULTi.1080p.WEB.x264-CARAPiLS
2018-06-18 14:52:49 Kommissar.Dupin.S01E01.FRENCH.HDTV.x264-AMB3R
2018-06-18 14:53:03 Adventure.Time.S01E02.FRENCH.720p.WEB.x264-CARAPiLS
2018-06-18 14:53:36 Adventure.Time.S01E02.MULTi.1080p.WEB.x264-CARAPiLS
2018-06-18 14:54:13 Adventure.Time.S01E03.FRENCH.720p.WEB.x264-CARAPiLS
2018-06-18 14:54:45 Adventure.Time.S01E03.MULTi.1080p.WEB.x264-CARAPiLS
2018-06-18 14:55:18 Adventure.Time.S01E04.FRENCH.720p.WEB.x264-CARAPiLS
2018-06-18 14:55:53 Adventure.Time.S01E04.MULTi.1080p.WEB.x264-CARAPiLS
2018-06-18 14:56:24 Adventure.Time.S01E05.FRENCH.720p.WEB.x264-CARAPiLS
2018-06-18 14:56:57 Adventure.Time.S01E05.MULTi.1080p.WEB.x264-CARAPiLS
2018-06-18 14:57:33 Adventure.Time.S01E06.FRENCH.720p.WEB.x264-CARAPiLS
2018-06-18 14:57:46 Tyson_Ray_Borsboom-Sinner-CDEP-FLAC-2018-FAiNT
2018-06-18 14:58:04 Adventure.Time.S01E06.MULTi.1080p.WEB.x264-CARAPiLS
2018-06-18 14:58:40 Adventure.Time.S01E07.FRENCH.720p.WEB.x264-CARAPiLS
2018-06-18 14:59:15 Adventure.Time.S01E07.MULTi.1080p.WEB.x264-CARAPiLS
2018-06-18 14:59:49 Adventure.Time.S01E08.FRENCH.720p.WEB.x264-CARAPiLS
2018-06-18 15:00:20 Adventure.Time.S01E08.MULTi.1080p.WEB.x264-CARAPiLS
2018-06-18 15:00:54 Adventure.Time.S01E09.FRENCH.720p.WEB.x264-CARAPiLS
2018-06-18 15:01:29 Adventure.Time.S01E09.MULTi.1080p.WEB.x264-CARAPiLS
2018-06-18 15:02:01 Adventure.Time.S01E10.FRENCH.720p.WEB.x264-CARAPiLS
2018-06-18 15:02:18 Factory.of.Monsters.X64.RIP-SiMPLEX
2018-06-18 15:02:34 Adventure.Time.S01E10.MULTi.1080p.WEB.x264-CARAPiLS
2018-06-18 15:03:07 Adventure.Time.S01E11.FRENCH.720p.WEB.x264-CARAPiLS
2018-06-18 15:03:40 Adventure.Time.S01E11.MULTi.1080p.WEB.x264-CARAPiLS
2018-06-18 15:04:13 Adventure.Time.S01E12.FRENCH.720p.WEB.x264-CARAPiLS
2018-06-18 15:04:47 Adventure.Time.S01E12.MULTi.1080p.WEB.x264-CARAPiLS
2018-06-18 15:05:25 Adventure.Time.S01E13.FRENCH.720p.WEB.x264-CARAPiLS
2018-06-18 15:06:00 Adventure.Time.S01E13.MULTi.1080p.WEB.x264-CARAPiLS
2018-06-18 15:06:35 Adventure.Time.S01E14.FRENCH.720p.WEB.x264-CARAPiLS
2018-06-18 15:07:11 Adventure.Time.S01E14.MULTi.1080p.WEB.x264-CARAPiLS
2018-06-18 15:07:42 Adventure.Time.S01E15.FRENCH.720p.WEB.x264-CARAPiLS
2018-06-18 15:07:59 VA_-_Ibiza_Mainroom_2018-(MIMR011)-WEB-2018-MMS
2018-06-18 15:08:17 Adventure.Time.S01E15.MULTi.1080p.WEB.x264-CARAPiLS
2018-06-18 15:08:55 Adventure.Time.S01E16.FRENCH.720p.WEB.x264-CARAPiLS
2018-06-18 15:09:29 Adventure.Time.S01E16.MULTi.1080p.WEB.x264-CARAPiLS
2018-06-18 15:10:00 Adventure.Time.S01E17.FRENCH.720p.WEB.x264-CARAPiLS
2018-06-18 15:10:33 Adventure.Time.S01E17.MULTi.1080p.WEB.x264-CARAPiLS
2018-06-18 15:11:07 Adventure.Time.S01E18.FRENCH.720p.WEB.x264-CARAPiLS
2018-06-18 15:11:38 Adventure.Time.S01E18.MULTi.1080p.WEB.x264-CARAPiLS
2018-06-18 15:12:12 Adventure.Time.S01E19.FRENCH.720p.WEB.x264-CARAPiLS
2018-06-18 15:12:49 Adventure.Time.S01E19.MULTi.1080p.WEB.x264-CARAPiLS
2018-06-18 15:13:22 Adventure.Time.S01E20.FRENCH.720p.WEB.x264-CARAPiLS
2018-06-18 15:13:55 Adventure.Time.S01E20.MULTi.1080p.WEB.x264-CARAPiLS
2018-06-18 15:14:18 Railroad.Australia.S01E06.German.DOKU.1080p.HDTV.x264-ATAX
2018-06-18 15:14:27 Adventure.Time.S01E21.FRENCH.720p.WEB.x264-CARAPiLS
2018-06-18 15:14:59 Adventure.Time.S01E21.MULTi.1080p.WEB.x264-CARAPiLS
2018-06-18 15:15:35 Adventure.Time.S01E22.FRENCH.720p.WEB.x264-CARAPiLS
2018-06-18 15:15:37 Anna_Puu-Rakkaudella_Anna_Puu-FI-2015-W4GNER
2018-06-18 15:16:06 Adventure.Time.S01E22.MULTi.1080p.WEB.x264-CARAPiLS
2018-06-18 15:16:39 Adventure.Time.S01E23.FRENCH.720p.WEB.x264-CARAPiLS
2018-06-18 15:16:50 Anna_Puu-Rakkaudella_Anna_Puu-FI-CD-FLAC-2015-ViiVi
2018-06-18 15:17:09 Railroad.Australia.S01E06.German.DOKU.720p.HDTV.x264-ATAX
2018-06-18 15:17:43 Adventure.Time.S01E24.FRENCH.720p.WEB.x264-CARAPiLS
2018-06-18 15:18:17 Adventure.Time.S01E24.MULTi.1080p.WEB.x264-CARAPiLS
2018-06-18 15:18:23 Mikko_Kuustonen-Agricolankatu_11-FI-2017-W4GNER
2018-06-18 15:18:48 Adventure.Time.S01E25.FRENCH.720p.WEB.x264-CARAPiLS
2018-06-18 15:19:20 Adventure.Time.S01E25.MULTi.1080p.WEB.x264-CARAPiLS
2018-06-18 15:19:24 Railroad.Australia.S01E06.German.DOKU.HDTVRip.x264-ATAX
2018-06-18 15:19:29 Mikko_Kuustonen-Agricolankatu_11-FI-CD-FLAC-2017-ViiVi
2018-06-18 15:19:30 Nick_Faye_And_The_Deputies-Stumbling_Distance-CD-FLAC-2018-FAiNT
2018-06-18 15:19:52 Adventure.Time.S01E26.FiNAL.FRENCH.720p.WEB.x264-CARAPiLS
2018-06-18 15:19:57 Factory.of.Monsters.X86.RIP-SiMPLEX
2018-06-18 15:19:59 Nick_Faye_And_The_Deputies-Stumbling_Distance-2018-FNT
2018-06-18 15:20:58 Adventure.Time.S02E01.FRENCH.720p.WEB.x264-CARAPiLS
2018-06-18 15:21:33 Adventure.Time.S02E01.MULTi.1080p.WEB.x264-CARAPiLS
2018-06-18 15:22:05 Adventure.Time.S02E02.FRENCH.720p.WEB.x264-CARAPiLS
2018-06-18 15:22:41 Adventure.Time.S02E02.MULTi.1080p.WEB.x264-CARAPiLS
2018-06-18 15:23:11 Adventure.Time.S02E03.FRENCH.720p.WEB.x264-CARAPiLS
2018-06-18 15:23:12 MasterChef.Australia.S10E31.HDTV.x264-FQM
2018-06-18 15:23:22 MasterChef.Australia.S10E31.720p.HDTV.x264-ORENJI
2018-06-18 15:23:43 Adventure.Time.S02E03.MULTi.1080p.WEB.x264-CARAPiLS
2018-06-18 15:24:05 Railroad.Australia.S02E08.German.DOKU.1080p.HDTV.x264-ATAX
2018-06-18 15:24:16 Adventure.Time.S02E04.FRENCH.720p.WEB.x264-CARAPiLS
2018-06-18 15:24:49 Adventure.Time.S02E04.MULTi.1080p.WEB.x264-CARAPiLS
2018-06-18 15:25:22 Adventure.Time.S02E05.FRENCH.720p.WEB.x264-CARAPiLS
2018-06-18 15:25:54 Adventure.Time.S02E05.MULTi.1080p.WEB.x264-CARAPiLS
2018-06-18 15:26:25 Adventure.Time.S02E06.FRENCH.720p.WEB.x264-CARAPiLS
2018-06-18 15:26:57 Adventure.Time.S02E06.MULTi.1080p.WEB.x264-CARAPiLS
2018-06-18 15:27:31 Adventure.Time.S02E07.FRENCH.720p.WEB.x264-CARAPiLS
2018-06-18 15:28:02 Adventure.Time.S02E07.MULTi.1080p.WEB.x264-CARAPiLS
2018-06-18 15:28:35 Adventure.Time.S02E08.FRENCH.720p.WEB.x264-CARAPiLS
2018-06-18 15:29:06 Adventure.Time.S02E08.MULTi.1080p.WEB.x264-CARAPiLS
2018-06-18 15:29:39 Adventure.Time.S02E09.FRENCH.720p.WEB.x264-CARAPiLS
2018-06-18 15:30:11 Adventure.Time.S02E09.MULTi.1080p.WEB.x264-CARAPiLS
2018-06-18 15:30:45 Adventure.Time.S02E10.FRENCH.720p.WEB.x264-CARAPiLS
2018-06-18 15:31:17 Adventure.Time.S02E10.MULTi.1080p.WEB.x264-CARAPiLS
2018-06-18 15:31:50 Adventure.Time.S02E11.FRENCH.720p.WEB.x264-CARAPiLS
2018-06-18 15:32:22 Adventure.Time.S02E11.MULTi.1080p.WEB.x264-CARAPiLS
2018-06-18 15:32:54 Adventure.Time.S02E12.FRENCH.720p.WEB.x264-CARAPiLS
2018-06-18 15:33:27 Adventure.Time.S02E12.MULTi.1080p.WEB.x264-CARAPiLS
2018-06-18 15:33:58 Adventure.Time.S02E13.FRENCH.720p.WEB.x264-CARAPiLS
2018-06-18 15:34:31 Adventure.Time.S02E13.MULTi.1080p.WEB.x264-CARAPiLS
2018-06-18 15:35:04 Adventure.Time.S02E14.FRENCH.720p.WEB.x264-CARAPiLS
2018-06-18 15:35:36 Adventure.Time.S02E14.MULTi.1080p.WEB.x264-CARAPiLS
2018-06-18 15:36:11 Adventure.Time.S02E15.FRENCH.720p.WEB.x264-CARAPiLS
2018-06-18 15:36:42 Adventure.Time.S02E15.MULTi.1080p.WEB.x264-CARAPiLS
2018-06-18 15:37:17 Adventure.Time.S02E16.FRENCH.720p.WEB.x264-CARAPiLS
2018-06-18 15:37:48 Adventure.Time.S02E16.MULTi.1080p.WEB.x264-CARAPiLS
2018-06-18 15:38:20 Adventure.Time.S02E17.FRENCH.720p.WEB.x264-CARAPiLS
2018-06-18 15:38:45 Dark.S01E01.1080p.WEBRip.X264-DEFLATE
2018-06-18 15:38:52 Adventure.Time.S02E17.MULTi.1080p.WEB.x264-CARAPiLS
2018-06-18 15:39:25 Adventure.Time.S02E18.FRENCH.720p.WEB.x264-CARAPiLS
2018-06-18 15:39:58 Adventure.Time.S02E18.MULTi.1080p.WEB.x264-CARAPiLS
2018-06-18 15:40:31 Adventure.Time.S02E19.FRENCH.720p.WEB.x264-CARAPiLS
2018-06-18 15:40:48 Dark.S01E02.1080p.WEBRip.X264-DEFLATE
2018-06-18 15:41:05 Adventure.Time.S02E19.MULTi.1080p.WEB.x264-CARAPiLS
2018-06-18 15:41:35 Adventure.Time.S02E20.FRENCH.720p.WEB.x264-CARAPiLS
2018-06-18 15:42:08 Adventure.Time.S02E20.MULTi.1080p.WEB.x264-CARAPiLS
2018-06-18 15:42:41 Adventure.Time.S02E21.FRENCH.720p.WEB.x264-CARAPiLS
2018-06-18 15:42:48 Dark.S01E03.1080p.WEBRip.X264-DEFLATE
2018-06-18 15:43:12 Adventure.Time.S02E21.MULTi.1080p.WEB.x264-CARAPiLS
2018-06-18 15:43:44 Adventure.Time.S02E22.FRENCH.720p.WEB.x264-CARAPiLS
2018-06-18 15:44:18 Adventure.Time.S02E22.MULTi.1080p.WEB.x264-CARAPiLS
2018-06-18 15:44:49 Dark.S01E04.1080p.WEBRip.X264-DEFLATE
2018-06-18 15:44:51 Adventure.Time.S02E23.FRENCH.720p.WEB.x264-CARAPiLS
2018-06-18 15:45:22 Adventure.Time.S02E23.MULTi.1080p.WEB.x264-CARAPiLS
2018-06-18 15:46:19 Pinkpop.2018.Part02.DUTCH.1080p.HDTV.x264-DTOD
2018-06-18 15:46:27 Adventure.Time.S02E24.MULTi.1080p.WEB.x264-CARAPiLS
2018-06-18 15:46:50 Dark.S01E05.1080p.WEBRip.X264-DEFLATE
2018-06-18 15:46:59 Adventure.Time.S02E25.FRENCH.720p.WEB.x264-CARAPiLS
2018-06-18 15:47:31 Adventure.Time.S02E25.MULTi.1080p.WEB.x264-CARAPiLS
2018-06-18 15:48:05 Adventure.Time.S02E26.FiNAL.FRENCH.720p.WEB.x264-CARAPiLS
2018-06-18 15:48:38 Adventure.Time.S02E26.FiNAL.MULTi.1080p.WEB.x264-CARAPiLS
2018-06-18 15:48:50 Dark.S01E06.1080p.WEBRip.X264-DEFLATE
2018-06-18 15:49:03 Spreadstorm.RIP-SiMPLEX
2018-06-18 15:49:11 Adventure.Time.S03E01.FRENCH.720p.WEB.x264-CARAPiLS
2018-06-18 15:49:42 Adventure.Time.S03E01.MULTi.1080p.WEB.x264-CARAPiLS
2018-06-18 15:49:51 Spreadstorm.RIP.MUSIC.ADDON-SiMPLEX
2018-06-18 15:50:12 Tal-Mondial-FR-720p-x264-2018-PmV
2018-06-18 15:50:15 Adventure.Time.S03E02.FRENCH.720p.WEB.x264-CARAPiLS
2018-06-18 15:50:18 DirtyScout.17.07.03.E89.XXX.x264-MANLOVE
2018-06-18 15:50:24 DirtyScout.17.07.10.E90.XXX.x264-MANLOVE
2018-06-18 15:50:28 DirtyScout.17.07.17.E91.XXX.x264-MANLOVE
2018-06-18 15:50:37 DirtyScout.17.07.24.E92.XXX.x264-MANLOVE
2018-06-18 15:50:41 DirtyScout.17.07.31.E93.XXX.x264-MANLOVE
2018-06-18 15:50:48 Adventure.Time.S03E02.MULTi.1080p.WEB.x264-CARAPiLS
2018-06-18 15:50:56 Dark.S01E07.1080p.WEBRip.X264-DEFLATE
2018-06-18 15:51:21 Adventure.Time.S03E03.FRENCH.720p.WEB.x264-CARAPiLS
2018-06-18 15:51:54 Adventure.Time.S03E03.MULTi.1080p.WEB.x264-CARAPiLS
2018-06-18 15:52:26 Adventure.Time.S03E04.FRENCH.720p.WEB.x264-CARAPiLS
2018-06-18 15:53:00 Adventure.Time.S03E04.MULTi.1080p.WEB.x264-CARAPiLS
2018-06-18 15:53:04 Dark.S01E08.1080p.WEBRip.X264-DEFLATE
2018-06-18 15:53:31 Adventure.Time.S03E05.FRENCH.720p.WEB.x264-CARAPiLS
2018-06-18 15:54:03 Adventure.Time.S03E05.MULTi.1080p.WEB.x264-CARAPiLS
2018-06-18 15:54:36 Adventure.Time.S03E06.FRENCH.720p.WEB.x264-CARAPiLS
2018-06-18 15:55:04 Dark.S01E09.1080p.WEBRip.X264-DEFLATE
2018-06-18 15:55:43 Adventure.Time.S03E07.FRENCH.720p.WEB.x264-CARAPiLS
2018-06-18 15:56:14 Adventure.Time.S03E07.MULTi.1080p.WEB.x264-CARAPiLS
2018-06-18 15:56:46 Adventure.Time.S03E08.FRENCH.720p.WEB.x264-CARAPiLS
2018-06-18 15:57:05 Dark.S01E10.1080p.WEBRip.X264-DEFLATE
2018-06-18 15:57:19 Adventure.Time.S03E08.MULTi.1080p.WEB.x264-CARAPiLS
2018-06-18 15:57:52 Adventure.Time.S03E09.FRENCH.720p.WEB.x264-CARAPiLS
2018-06-18 15:58:23 Adventure.Time.S03E09.MULTi.1080p.WEB.x264-CARAPiLS
2018-06-18 15:58:55 Adventure.Time.S03E10.FRENCH.720p.WEB.x264-CARAPiLS
2018-06-18 15:59:28 Adventure.Time.S03E10.MULTi.1080p.WEB.x264-CARAPiLS
2018-06-18 16:00:10 Adventure.Time.S03E11.FRENCH.720p.WEB.x264-CARAPiLS
2018-06-18 16:00:36 Adventure.Time.S03E11.MULTi.1080p.WEB.x264-CARAPiLS
2018-06-18 16:00:45 FIFA.World.Cup.2018.Group.F.Sweden.vs.South.Korea.720p.HDTV.x264-VERUM
2018-06-18 16:01:08 Adventure.Time.S03E12.FRENCH.720p.WEB.x264-CARAPiLS
2018-06-18 16:01:30 Lake.Ridden.Update.v1.4.1486-CODEX
2018-06-18 16:01:41 Adventure.Time.S03E12.MULTi.1080p.WEB.x264-CARAPiLS
2018-06-18 16:02:03 Hand.of.Fate.2.Outlands.and.Outsiders.Update.v1.5.2-PLAZA
2018-06-18 16:02:13 Adventure.Time.S03E13.FRENCH.720p.WEB.x264-CARAPiLS
2018-06-18 16:02:45 Adventure.Time.S03E13.MULTi.1080p.WEB.x264-CARAPiLS
2018-06-18 16:03:18 Adventure.Time.S03E14.FRENCH.720p.WEB.x264-CARAPiLS
2018-06-18 16:03:51 Adventure.Time.S03E14.MULTi.1080p.WEB.x264-CARAPiLS
2018-06-18 16:04:25 Adventure.Time.S03E15.FRENCH.720p.WEB.x264-CARAPiLS
2018-06-18 16:04:59 Adventure.Time.S03E15.MULTi.1080p.WEB.x264-CARAPiLS
2018-06-18 16:05:30 Adventure.Time.S03E16.FRENCH.720p.WEB.x264-CARAPiLS
2018-06-18 16:05:46 Miguel_Lobo-Fractal_Mind-(NXL_048)-WEB-2018-BB8
2018-06-18 16:06:02 Adventure.Time.S03E16.MULTi.1080p.WEB.x264-CARAPiLS
2018-06-18 16:06:34 Adventure.Time.S03E17.FRENCH.720p.WEB.x264-CARAPiLS
2018-06-18 16:07:08 Adventure.Time.S03E17.MULTi.1080p.WEB.x264-CARAPiLS
2018-06-18 16:07:42 Adventure.Time.S03E18.FRENCH.720p.WEB.x264-CARAPiLS
2018-06-18 16:08:14 Adventure.Time.S03E18.MULTi.1080p.WEB.x264-CARAPiLS
2018-06-18 16:08:46 Adventure.Time.S03E19.FRENCH.720p.WEB.x264-CARAPiLS
2018-06-18 16:09:18 Adventure.Time.S03E19.MULTi.1080p.WEB.x264-CARAPiLS
2018-06-18 16:09:51 Adventure.Time.S03E20.FRENCH.720p.WEB.x264-CARAPiLS
2018-06-18 16:10:25 Adventure.Time.S03E20.MULTi.1080p.WEB.x264-CARAPiLS
2018-06-18 16:10:57 Adventure.Time.S03E21.FRENCH.720p.WEB.x264-CARAPiLS
2018-06-18 16:11:31 Adventure.Time.S03E21.MULTi.1080p.WEB.x264-CARAPiLS
2018-06-18 16:12:04 Adventure.Time.S03E22.FRENCH.720p.WEB.x264-CARAPiLS
2018-06-18 16:12:38 Adventure.Time.S03E22.MULTi.1080p.WEB.x264-CARAPiLS
2018-06-18 16:13:09 Adventure.Time.S03E23.FRENCH.720p.WEB.x264-CARAPiLS
2018-06-18 16:13:41 Adventure.Time.S03E23.MULTi.1080p.WEB.x264-CARAPiLS
2018-06-18 16:14:11 Dionigi-Electro_Pearls_Vol_1-(QND225)-WEB-2018-ENSLAVE
2018-06-18 16:14:15 Adventure.Time.S03E24.FRENCH.720p.WEB.x264-CARAPiLS
2018-06-18 16:14:22 Steve_Shaden-Raw_and_Acid-(NLD443)-WEB-2018-ENSLAVE
2018-06-18 16:14:38 VA-Lieblingstechno_01-WEB-2018-ENSLAVE
2018-06-18 16:14:47 Adventure.Time.S03E24.MULTi.1080p.WEB.x264-CARAPiLS
2018-06-18 16:15:18 Adventure.Time.S03E25.FRENCH.720p.WEB.x264-CARAPiLS
2018-06-18 16:15:26 Grounders-Coffee_and_Jam-(NVR052)-CD-FLAC-2018-HOUND
2018-06-18 16:16:21 Grounders-Coffee_and_Jam-(NVR052)-CD-2018-FANG
2018-06-18 16:16:24 Adventure.Time.S03E26.FiNAL.FRENCH.720p.WEB.x264-CARAPiLS
2018-06-18 16:16:31 Antigraviator.Update.v1.03-CODEX
2018-06-18 16:16:56 Adventure.Time.S03E26.FiNAL.MULTi.1080p.WEB.x264-CARAPiLS
2018-06-18 16:16:57 Benjamin_Taylor-Kclab-(RSP121)-WEB-2018-ENSLAVE
2018-06-18 16:17:07 Lofti-You_Do-(FP022)-WEB-2018-ENSLAVE
2018-06-18 16:18:06 Laura_Carbone-Empty_Sea-(FSR-108-CD)-CD-FLAC-2018-HOUND
2018-06-18 16:19:19 Laura_Carbone-Empty_Sea-(FSR-108-CD)-CD-2018-FANG
2018-06-18 16:23:29 Moon_Gangs-Earth_Loop-(VGCD032)-CD-FLAC-2018-HOUND
2018-06-18 16:24:09 Moon_Gangs-Earth_Loop-(VGCD032)-CD-2018-FANG
2018-06-18 16:25:11 Sarah_Bernstein_Unearthish-Crazy_Lights_Shining-(PFM004)-CD-FLAC-2018-HOUND
2018-06-18 16:25:58 Sarah_Bernstein_Unearthish-Crazy_Lights_Shining-(PFM004)-CD-2018-FANG
2018-06-18 16:26:48 FIFA.World.Cup.2018.Group.F.Sweden.vs.South.Korea.1080p.HDTV.x264-PRiNCE
2018-06-18 16:27:17 The_Orielles-Silver_Dollar_Moment-(HVNLP147CD)-CD-FLAC-2018-HOUND
2018-06-18 16:28:02 The_Orielles-Silver_Dollar_Moment-(HVNLP147CD)-CD-2018-FANG
2018-06-18 16:29:18 The_Scott_Hamilton_Trio-Live_At_Pyatt_Hall-(CL070217)-CD-FLAC-2018-HOUND
2018-06-18 16:30:12 The_Scott_Hamilton_Trio-Live_At_Pyatt_Hall-(CL070217)-CD-2018-FANG
2018-06-18 16:34:54 Shym-Si_Tu_Maimes_Encore-FR-720p-x264-2017-PmV
2018-06-18 16:36:29 RylskyArt.com_18.06.18.Ynesse.Arkirumi.XXX.IMAGESET-FuGLi
2018-06-18 16:39:24 MetArt.com_18.06.18.Adel.C.Bomec.XXX.IMAGESET-FuGLi
2018-06-18 16:39:47 TheLifeErotic.com_18.06.18.Angel.Wicky.Doppelganger.1.XXX.IMAGESET-FuGLi
2018-06-18 16:44:37 MetArt.com_18.06.18.Andrea.Sixth.Elaci.XXX.IMAGESET-FuGLi
2018-06-18 16:46:50 MetArt.com_18.06.18.Dominika.A.Lotoi.XXX.IMAGESET-FuGLi
2018-06-18 16:50:09 MetArt.com_18.06.18.Eva.Jude.Mizya.XXX.IMAGESET-FuGLi
2018-06-18 16:54:51 Nubiles.net_18.06.18.Lexi.Lore.Teen.Orgasm.XXX.IMAGESET-FuGLi
2018-06-18 16:56:11 Nubiles.net_18.06.18.Sarah.Smith.Take.You.Home.XXX.IMAGESET-FuGLi
2018-06-18 16:58:47 Dva.t.c.v.zel.hl.dve.vesele.nekur.1985.CZECH.PDTV.x264-I_KnoW
2018-06-18 17:05:02 ATKPremium.com_18.06.18.Emily.Willis.XXX.IMAGESET-FuGLi
2018-06-18 17:06:24 Aksak_Maboul-Before_And_After_Bandits_(Documents_1977-1980_2015)-(cram_002.1)-2018-USR
2018-06-18 17:06:48 NSRD-NSRD-(STR12-004)-WEB-2017-USR
2018-06-18 17:07:11 NSRD-Workshop_For_The_Restoration_Of_Unfelt_Feelings-(STRLP-003)-WEB-2017-USR
2018-06-18 17:08:46 Alex_Volkov-Chase_Single-WEB-2018-FALCON
2018-06-18 17:08:47 The.Mindy.Project.S05E01.Decision.2016.German.Dubbed.HDTV.x264-ITG
2018-06-18 17:08:48 Dream_Architect_And_Multiphase-Become_A_Dream-WEB-2018-FALCON
2018-06-18 17:08:50 The.Mindy.Project.S05E01.Decision.2016.GERMAN.DUBBED.720p.HDTV.x264-ZZGtv
2018-06-18 17:08:51 Hiyarant-Seven-WEB-2018-FALCON
2018-06-18 17:09:22 Menog-Trippin_Out-WEB_EP-2018-FALCON
2018-06-18 17:09:48 Mind_And_Matter-Fragile_Nature-WEB-2018-FALCON
2018-06-18 17:10:14 Monolock-Swinging_Himalayas-WEB-2018-FALCON
2018-06-18 17:10:41 Narko-Manipulate_Time-WEB-2018-FALCON
2018-06-18 17:11:07 River_Raids-Bubble_Crash-WEB-2018-FALCON
2018-06-18 17:11:33 Santiago_Torelli-My_Place-WEB-2018-FALCON
2018-06-18 17:12:52 TOT-Simple_Controls_Mechanic-WEB-2018-FALCON
2018-06-18 17:12:59 ClearMajeure_-_You_Will_Can_Overcome_Difficulties-(NT631)-WEB-2018-ZzZz
2018-06-18 17:14:44 DJ_Keri_-_Lucky_In_Love-(GDDR045)-WEB-2018-ZzZz
2018-06-18 17:17:19 Adam_Cooper_and_Paula_Pcay_-_Youve_Got_The_Love-(MZCR094)-WEB-2018-ZzZz
2018-06-18 17:19:44 Pindell_-_What_You_Make_Me_Do-(5054960766921)-WEB-2018-ZzZz
2018-06-18 17:20:01 Belle.E.Sebastien.Amici.Per.Sempre.2017.iTALiAN.BDRip.x264-NTROPiC
2018-06-18 17:21:05 Kross_-_Nights-(QUBEX015)-WEB-2018-ZzZz
2018-06-18 17:21:33 Belle.E.Sebastien.Amici.Per.Sempre.2017.iTALiAN.DTS.720p.BluRay.x264-NTROPiC
2018-06-18 17:22:46 Belle.E.Sebastien.Amici.Per.Sempre.2017.iTALiAN.DTS.1080p.BluRay.x264-NTROPiC
2018-06-18 17:23:11 DJ_Chillout_Master_-_Get_on-(5054960766242)-WEB-2018-ZzZz
2018-06-18 17:24:51 EVAN_GIIA_-_I_Dont_Like_Ur_Friends-(FFC032)-WEB-2018-ZzZz
2018-06-18 17:26:10 Remi_Blaze_-_Bright_Eyed_Unicorn-(5054960764262)-WEB-2018-ZzZz
2018-06-18 17:26:54 FitnessRooms.18.06.18.Lilu.Moon.XXX.1080p.MP4-KTR
2018-06-18 17:27:57 MomsBangTeens.18.06.18.Amara.Romani.And.London.River.Anal.Sex.Education.XXX.1080p.MP4-KTR
2018-06-18 17:29:00 RKPrime.18.06.18.Assh.Lee.Assh.Twerks.XXX.1080p.MP4-KTR
2018-06-18 17:29:09 DJ_Oskar_-_How_Will_I_Know_(Dave_Invade_Remix)-(DNZF398)-WEB-2018-ZzZz
2018-06-18 17:30:37 Attrip-Physics-WEB-2018-FALCON
2018-06-18 17:31:03 Egorythmia_And_Dual_Resonance-Titania-WEB-2018-FALCON
2018-06-18 17:31:30 Out_Now-Sawaye-WEB-2018-FALCON
2018-06-18 17:32:23 Skizologic-Japanic_Panic-WEB-2018-FALCON
2018-06-18 17:32:49 VA-Modern_Mantras-Compiled_By_Ikon_And_Bionix-WEB-2018-FALCON
2018-06-18 17:36:30 DJ_PATRICK_HAYES_-_The_Rising-(5054960762398)-WEB-2018-ZzZz
2018-06-18 17:38:13 Transcend_-_Focus-(EF005)-WEB-2018-ZzZz
2018-06-18 17:41:09 Aleksey_Litunov_-_Angel_(My_Angel_Rework)-(TF067)-WEB-2018-ZzZz
2018-06-18 17:42:49 FakeDrivingSchool.18.06.18.Carmel.Anderson.XXX.1080p.MP4-KTR
2018-06-18 17:44:34 Victor_Breeze_-_Moving_Forward-(KR307)-WEB-2018-ZzZz
2018-06-18 17:45:08 Picnic.at.Hanging.Rock.S01E01.720p.HDTV.x264-aAF
2018-06-18 17:48:27 Kimmerion_-_Chromatic_Rainbow_(Radio_Edit)-(U695)-WEB-2018-ZzZz
2018-06-18 17:51:19 Frost_Miles_-_Trance_Consolidation-(BSR402)-WEB-2018-ZzZz
2018-06-18 17:52:38 Doctors.S19E239.HDTV.x264-NORiTE
2018-06-18 17:55:22 Andrew_Frenir_-_With_You-(SRD030)-WEB-2018-ZzZz
2018-06-18 17:57:59 House.Flipper.Update.v1.05-CODEX
2018-06-18 17:58:18 Alt_Stones_-_Memory-(CF200)-WEB-2018-ZzZz_iNT
2018-06-18 17:58:26 WWE.2018.Money.In.The.Bank.PPV.HDTV.x264-PLUTONiUM
2018-06-18 17:59:53 Jempit_Tull_-_Little-(3615932181207)-WEB-2018-ZzZz
2018-06-18 18:00:19 Wild.Bear.Rescue.S01E04.Cub.Trauma.720p.WEBRip.x264-CAFFEiNE
2018-06-18 18:06:04 Mihail_-_Ma_ucide_ea_(Remixes)-WEB-RO-2016-ZzZz
2018-06-18 18:07:42 Fairy.Tail.E49.CUSTOM.MULTi.1080p.BluRay.x264-AMB3R
2018-06-18 18:08:00 Fairy.Tail.E50.CUSTOM.MULTi.1080p.BluRay.x264-AMB3R
2018-06-18 18:08:17 Fairy.Tail.E51.CUSTOM.MULTi.1080p.BluRay.x264-AMB3R
2018-06-18 18:08:23 Sons.Of.Anarchy.S06E02.iTALiAN.WEB.x264-NTROPiC
2018-06-18 18:08:35 Fairy.Tail.E52.CUSTOM.MULTi.1080p.BluRay.x264-AMB3R
2018-06-18 18:08:40 Sons.Of.Anarchy.S06E03.iTALiAN.WEB.x264-NTROPiC
2018-06-18 18:08:53 Fairy.Tail.E53.CUSTOM.MULTi.1080p.BluRay.x264-AMB3R
2018-06-18 18:09:09 Sons.Of.Anarchy.S06E04.iTALiAN.WEB.x264-NTROPiC
2018-06-18 18:09:11 Fairy.Tail.E54.CUSTOM.MULTi.1080p.BluRay.x264-AMB3R
2018-06-18 18:09:27 Fairy.Tail.E55.CUSTOM.MULTi.1080p.BluRay.x264-AMB3R
2018-06-18 18:09:47 Fairy.Tail.E56.CUSTOM.MULTi.1080p.BluRay.x264-AMB3R
2018-06-18 18:09:51 Railroad.Australia.S02E08.German.DOKU.720p.HDTV.x264-ATAX
2018-06-18 18:10:10 Fairy.Tail.E49.CUSTOM.FRENCH.720p.BluRay.x264-AMB3R
2018-06-18 18:10:27 Fairy.Tail.E49.CUSTOM.SUBFRENCH.720p.BluRay.x264-AMB3R
2018-06-18 18:10:36 Freebot.Battle.for.FreeWeb-PLAZA
2018-06-18 18:10:45 Fairy.Tail.E50.CUSTOM.FRENCH.720p.BluRay.x264-AMB3R
2018-06-18 18:10:54 Sons.Of.Anarchy.S06E09.iTALiAN.WEB.x264-NTROPiC
2018-06-18 18:11:02 Fairy.Tail.E50.CUSTOM.SUBFRENCH.720p.BluRay.x264-AMB3R
2018-06-18 18:11:15 Sons.Of.Anarchy.S06E10.iTALiAN.WEB.x264-NTROPiC
2018-06-18 18:11:20 Fairy.Tail.E51.CUSTOM.FRENCH.720p.BluRay.x264-AMB3R
2018-06-18 18:11:32 Sons.Of.Anarchy.S06E11.iTALiAN.WEB.x264-NTROPiC
2018-06-18 18:11:37 Fairy.Tail.E51.CUSTOM.SUBFRENCH.720p.BluRay.x264-AMB3R
2018-06-18 18:11:48 Sons.Of.Anarchy.S06E12.iTALiAN.WEB.x264-NTROPiC
2018-06-18 18:11:54 Fairy.Tail.E52.CUSTOM.FRENCH.720p.BluRay.x264-AMB3R
2018-06-18 18:12:05 WWE.2018.Money.In.The.Bank.PPV.720p.HDTV.x264-PLUTONiUM
2018-06-18 18:12:12 Fairy.Tail.E52.CUSTOM.SUBFRENCH.720p.BluRay.x264-AMB3R
2018-06-18 18:12:13 Railroad.Australia.S02E08.German.DOKU.HDTVRip.x264-ATAX
2018-06-18 18:12:29 Fairy.Tail.E53.CUSTOM.FRENCH.720p.BluRay.x264-AMB3R
2018-06-18 18:12:58 Fairy.Tail.E54.CUSTOM.FRENCH.720p.BluRay.x264-AMB3R
2018-06-18 18:13:21 Fairy.Tail.E54.CUSTOM.SUBFRENCH.720p.BluRay.x264-AMB3R
2018-06-18 18:13:42 VA-Rizoma_4-WEB-2018-AFO
2018-06-18 18:13:54 Sons.Of.Anarchy.S06E01.iTALiAN.720p.WEB.x264-NTROPiC
2018-06-18 18:14:01 Sons.Of.Anarchy.S06E02.iTALiAN.720p.WEB.x264-NTROPiC
2018-06-18 18:14:06 Fairy.Tail.E53.CUSTOM.SUBFRENCH.720p.BluRay.x264-AMB3R
2018-06-18 18:14:15 Sons.Of.Anarchy.S06E04.iTALiAN.720p.WEB.x264-NTROPiC
2018-06-18 18:14:22 Sons.Of.Anarchy.S06E05.iTALiAN.720p.WEB.x264-NTROPiC
2018-06-18 18:14:24 Fairy.Tail.E55.CUSTOM.FRENCH.720p.BluRay.x264-AMB3R
2018-06-18 18:14:37 Sons.Of.Anarchy.S06E07.iTALiAN.720p.WEB.x264-NTROPiC
2018-06-18 18:14:41 Fairy.Tail.E55.CUSTOM.SUBFRENCH.720p.BluRay.x264-AMB3R
2018-06-18 18:14:47 Sons.Of.Anarchy.S06E08.iTALiAN.720p.WEB.x264-NTROPiC
2018-06-18 18:14:54 Sons.Of.Anarchy.S06E09.iTALiAN.720p.WEB.x264-NTROPiC
2018-06-18 18:14:59 Fairy.Tail.E56.CUSTOM.FRENCH.720p.BluRay.x264-AMB3R
2018-06-18 18:15:05 Sons.Of.Anarchy.S06E10.iTALiAN.720p.WEB.x264-NTROPiC
2018-06-18 18:15:16 Fairy.Tail.E56.CUSTOM.SUBFRENCH.720p.BluRay.x264-AMB3R
2018-06-18 18:16:05 Sons.Of.Anarchy.S06E13.iTALiAN.FiNAL.720p.WEB.x264-NTROPiC
2018-06-18 18:16:54 Sons.Of.Anarchy.S06E01.iTALiAN.MULTi.1080p.WEB.x264-NTROPiC
2018-06-18 18:17:04 Sons.Of.Anarchy.S06E02.iTALiAN.MULTi.1080p.WEB.x264-NTROPiC
2018-06-18 18:17:09 Sons.Of.Anarchy.S06E03.iTALiAN.MULTi.1080p.WEB.x264-NTROPiC
2018-06-18 18:17:17 Sons.Of.Anarchy.S06E04.iTALiAN.MULTi.1080p.WEB.x264-NTROPiC
2018-06-18 18:17:25 Sons.Of.Anarchy.S06E05.iTALiAN.MULTi.1080p.WEB.x264-NTROPiC
2018-06-18 18:17:32 Sons.Of.Anarchy.S06E06.iTALiAN.MULTi.1080p.WEB.x264-NTROPiC
2018-06-18 18:17:40 Sons.Of.Anarchy.S06E07.iTALiAN.MULTi.1080p.WEB.x264-NTROPiC
2018-06-18 18:17:51 Sons.Of.Anarchy.S06E08.iTALiAN.MULTi.1080p.WEB.x264-NTROPiC
2018-06-18 18:18:04 Sons.Of.Anarchy.S06E09.iTALiAN.MULTi.1080p.WEB.x264-NTROPiC
2018-06-18 18:18:12 Sons.Of.Anarchy.S06E10.iTALiAN.MULTi.1080p.WEB.x264-NTROPiC
2018-06-18 18:18:20 Sons.Of.Anarchy.S06E11.iTALiAN.MULTi.1080p.WEB.x264-NTROPiC
2018-06-18 18:18:30 Sons.Of.Anarchy.S06E12.iTALiAN.MULTi.1080p.WEB.x264-NTROPiC
2018-06-18 18:19:23 Airwave-Rain_Upon_My_Skin_Remixes_Pt_3-WEB-2018-AFO
2018-06-18 18:19:29 House.Of.Anubis.S02E21.House.Of.Pressure.720p.HDTV.x264-PLUTONiUM
2018-06-18 18:19:45 Sons.Of.Anarchy.S06E13.iTALiAN.MULTi.FiNAL.1080p.WEB.x264-NTROPiC
2018-06-18 18:20:28 Falco.S03E10.Babylon.GERMAN.WS.HDTVRip.x264-Pumuck
2018-06-18 18:21:28 House.Of.Anubis.S02E21.House.Of.Pressure.1080p.HDTV.x264-PLUTONiUM
2018-06-18 18:22:11 Dice_Raw-The_Narrative-WEB-2018-ENRAGED
2018-06-18 18:22:21 E-Nut-Gang_Land_Season_of_the_Funk-WEB-2018-ENRAGED
2018-06-18 18:22:32 ICEDOUTFLAMEs_and_VinC__Vega-Thizzneyland-WEB-2018-ENRAGED
2018-06-18 18:22:43 Mylo_MU_X_Barlitxs-Spaces-WEB-2018-ENRAGED
2018-06-18 18:22:54 Smitroc-Roc_Appetizers-WEB-2018-ENRAGED
2018-06-18 18:24:04 Re.E230.Leben.vom.Ueberfluss.-.Warum.alle.die.Tafel.brauchen.GERMAN.DOKU.720p.HDTV.x264-Pumuck
2018-06-18 18:26:17 House.Of.Anubis.S02E22.House.Of.Deja.Vu.1080p.HDTV.x264-PLUTONiUM
2018-06-18 18:27:07 Fishing.Barents.Sea.MULTi18-PLAZA
2018-06-18 18:27:31 RIGS.Mechanized.Combat.League.PS4-DUPLEX
2018-06-18 18:30:59 Mallorca.-.Alarm.am.Ballermann.GERMAN.DOKU.720p.HDTV.x264-TMSF
2018-06-18 18:31:39 Unsolved.S01E02.FRENCH.WEBRip.x264-AMB3R
2018-06-18 18:31:58 Unsolved.S01E03.FRENCH.WEBRip.x264-AMB3R
2018-06-18 18:32:07 Mallorca.-.Alarm.am.Ballermann.GERMAN.DOKU.WS.HDTVRip.x264-TMSF
2018-06-18 18:32:15 Unsolved.S01E04.FRENCH.WEBRip.x264-AMB3R
2018-06-18 18:32:27 The.Mentalist.S01E01.MULTi.1080p.WEB.x264-CiELOS
2018-06-18 18:32:31 Unsolved.S01E05.FRENCH.WEBRip.x264-AMB3R
2018-06-18 18:32:37 The.Mentalist.S01E02.MULTi.1080p.WEB.x264-CiELOS
2018-06-18 18:32:43 The.Mentalist.S01E03.MULTi.1080p.WEB.x264-CiELOS
2018-06-18 18:32:51 The.Mentalist.S01E04.MULTi.1080p.WEB.x264-CiELOS
2018-06-18 18:32:53 Unsolved.S01E06.FRENCH.WEBRip.x264-AMB3R
2018-06-18 18:32:56 Almighty_Jmoney-Big_Dawg-SINGLE-WEB-2018-ENRAGED
2018-06-18 18:32:59 The.Mentalist.S01E05.MULTi.1080p.WEB.x264-CiELOS
2018-06-18 18:33:07 Almighty_Jmoney-Neighborhood_Hero-WEB-2018-ENRAGED
2018-06-18 18:33:11 Unsolved.S01E07.FRENCH.WEBRip.x264-AMB3R
2018-06-18 18:33:15 The.Mentalist.S01E07.MULTi.1080p.WEB.x264-CiELOS
2018-06-18 18:33:19 Dc_Babydraco-Free_Wuwu_Campain-WEB-2018-ENRAGED
2018-06-18 18:33:23 The.Mentalist.S01E08.MULTi.1080p.WEB.x264-CiELOS
2018-06-18 18:33:29 Dc_Babydraco-In_These_Streets_(feat_Lil_Slugg_and_Shredgang_Mone)-SINGLE-WEB-2018-ENRAGED
2018-06-18 18:33:39 The.Mentalist.S01E10.MULTi.1080p.WEB.x264-CiELOS
2018-06-18 18:33:41 Derez_DeShon-Pain_(Deluxe_Edition)-BONUS_TRACKS-WEB-2018-ENRAGED
2018-06-18 18:33:47 Unsolved.S01E09.FRENCH.WEBRip.x264-AMB3R
2018-06-18 18:33:48 The.Mentalist.S01E11.MULTi.1080p.WEB.x264-CiELOS
2018-06-18 18:33:51 Jbadge-Faded-SINGLE-WEB-2017-ENRAGED
2018-06-18 18:34:02 P-Lo-Nirvana-SINGLE-WEB-2018-ENRAGED
2018-06-18 18:34:04 Unsolved.S01E10.FiNAL.FRENCH.WEBRip.x264-AMB3R
2018-06-18 18:34:05 The.Mentalist.S01E13.MULTi.1080p.WEB.x264-CiELOS
2018-06-18 18:34:11 The.Mentalist.S01E14.MULTi.1080p.WEB.x264-CiELOS
2018-06-18 18:34:14 Priv-Skythanku-WEB-2017-ENRAGED
2018-06-18 18:34:20 Child.of.Light.PS4-DUPLEX
2018-06-18 18:34:25 Skeeteam_Deuce-The_Love_Fake-SINGLE-WEB-2018-ENRAGED
2018-06-18 18:34:36 The.Mentalist.S01E17.MULTi.1080p.WEB.x264-CiELOS
2018-06-18 18:34:45 The.Mentalist.S01E18.MULTi.1080p.WEB.x264-CiELOS
2018-06-18 18:34:51 The.Mentalist.S01E19.MULTi.1080p.WEB.x264-CiELOS
2018-06-18 18:34:59 The.Mentalist.S01E20.MULTi.1080p.WEB.x264-CiELOS
2018-06-18 18:35:08 The.Mentalist.S01E21.MULTi.1080p.WEB.x264-CiELOS
2018-06-18 18:35:15 The.Mentalist.S01E22.MULTi.1080p.WEB.x264-CiELOS
2018-06-18 18:35:24 The.Mentalist.S01E23.FiNAL.MULTi.1080p.WEB.x264-CiELOS
2018-06-18 18:42:53 The.Deadly.Tower.of.Monsters.PS4-DUPLEX
2018-06-18 18:55:24 Bob.Dylans.Amerika.E01.New.York.GERMAN.DOKU.WS.HDTVRip.x264-TMSF
2018-06-18 18:55:51 Doug.and.Lily-ALiAS
2018-06-18 19:00:36 Svet.otevreny.nahodam.1971.CZECH.PDTV.x264-I_KnoW
2018-06-18 19:02:25 Orion_-_High_On_Life-(HMDR0003)-WEB-2018-ZzZz
2018-06-18 19:09:20 Honan_-_Last_Exit_(Extended)-(PURETRANCE115)-WEB-2018-MMS
2018-06-18 19:09:28 Jody_6_-_Amethyst_(Extended)-(FLASHTR094)-WEB-2018-MMS
2018-06-18 19:09:37 Mart_Sine_ft._Christina_Novelli_-_Carry_You_(Extended)-(AVAW072)-WEB-2018-MMS
2018-06-18 19:09:46 Shugz_-_Down_The_Rabbit_Hole_(Extended)-(DR017)-WEB-2018-MMS
2018-06-18 19:12:49 Amnesia.Collection.PS4-DUPLEX
2018-06-18 19:16:11 All.The.Money.In.The.World.2017.NORDiC.COMPLETE.BLURAY-NoSence
2018-06-18 19:23:04 Swe-Bang_Bang-WEB-FR-2018-JAH
2018-06-18 19:27:14 GreenMind_-_Out_of_Mind-(SSCD1784)-WEB-2018-ZzZz
2018-06-18 19:27:19 Flesh_Juicer-Fairy_Tales_Of_The_Ocean_Deep-WEB-CN-2018-TosK
2018-06-18 19:28:32 Frozen.2013.MULTi.COMPLETE.BLURAY-FLAME
2018-06-18 19:29:22 Bob.Dylans.Amerika.E01.New.York.GERMAN.DOKU.720p.HDTV.x264-TMSF
2018-06-18 19:29:27 Armin_Van_Buuren_-_Blah_Blah_Blah_EP-(ARMD1415C)-WEB-2018-MMS
2018-06-18 19:30:25 Veni_Vici_-_Free_Spirit-(SSCD1770)-WEB-2018-ZzZz
2018-06-18 19:31:04 Extinct.or.Alive.S01E02.HDTV.x264-W4F
2018-06-18 19:31:48 The.Good.Fight.S02E02.Tag.415.GERMAN.WS.HDTVRip.x264-TMSF
2018-06-18 19:31:54 Belle.And.Sebastian.Friends.For.Life.2017.MULTi.COMPLETE.BLURAY-MHT
2018-06-18 19:32:20 Animal.Cops.Miami.S01E05.HDTV.x264-W4F
2018-06-18 19:33:37 Extinct.or.Alive.S01E02.720p.HDTV.x264-W4F
2018-06-18 19:34:19 Blaiz_Fayah-Call_The_Police-WEB-2018-JAH
2018-06-18 19:34:41 Blaiz_Fayah-Level_Up-WEB-2018-JAH
2018-06-18 19:35:02 Sean_Taylor-Medal_(Hot_Kettle_Riddim)-WEB-2018-JAH
2018-06-18 19:35:12 Deliver.Us.From.Evil.2014.MULTi.COMPLETE.BLURAY-FLAME
2018-06-18 19:35:23 VA-Nothing_Better_Than_Reggae-WEB-2018-JAH
2018-06-18 19:35:44 VA-Pure_Reggae-WEB-2018-JAH
2018-06-18 19:35:50 The.Mentalist.S02E01.MULTi.1080p.WEB.x264-CiELOS
2018-06-18 19:35:58 The.Mentalist.S02E02.MULTi.1080p.WEB.x264-CiELOS
2018-06-18 19:36:14 The.Mentalist.S02E04.MULTi.1080p.WEB.x264-CiELOS
2018-06-18 19:36:38 The.Mentalist.S02E07.MULTi.1080p.WEB.x264-CiELOS
2018-06-18 19:36:47 The.Mentalist.S02E08.MULTi.1080p.WEB.x264-CiELOS
2018-06-18 19:36:54 The.Mentalist.S02E09.MULTi.1080p.WEB.x264-CiELOS
2018-06-18 19:37:02 The.Mentalist.S02E10.MULTi.1080p.WEB.x264-CiELOS
2018-06-18 19:37:17 The.Mentalist.S02E12.MULTi.1080p.WEB.x264-CiELOS
2018-06-18 19:37:19 Casual_Treatment-Silicate_EP-(BDD005)-WEB-2018-CBR
2018-06-18 19:37:43 The.Mentalist.S02E15.MULTi.1080p.WEB.x264-CiELOS
2018-06-18 19:37:51 The.Mentalist.S02E16.MULTi.1080p.WEB.x264-CiELOS
2018-06-18 19:38:09 The.Mentalist.S02E18.MULTi.1080p.WEB.x264-CiELOS
2018-06-18 19:38:14 The.Mentalist.S02E19.MULTi.1080p.WEB.x264-CiELOS
2018-06-18 19:38:22 The.Mentalist.S02E20.MULTi.1080p.WEB.x264-CiELOS
2018-06-18 19:38:30 The.Mentalist.S02E21.MULTi.1080p.WEB.x264-CiELOS
2018-06-18 19:38:31 Deliver.Us.From.Evil.2014.PL.BDRip.x264-FLAME
2018-06-18 19:38:46 The.Mentalist.S02E23.FiNAL.MULTi.1080p.WEB.x264-CiELOS
2018-06-18 19:39:33 Deliver.Us.From.Evil.2014.PL.DUAL.720p.BluRay.x264-FLAME
2018-06-18 19:39:44 Vixen.18.06.18.Paige.Owens.XXX.1080p.MP4-KTR
2018-06-18 19:40:01 Deliver.Us.From.Evil.2014.PL.DUAL.1080p.BluRay.x264-FLAME
2018-06-18 19:41:14 The.Mentalist.S03E01.MULTi.1080p.WEB.x264-CiELOS
2018-06-18 19:41:21 The.Mentalist.S03E02.MULTi.1080p.WEB.x264-CiELOS
2018-06-18 19:41:29 The.Mentalist.S03E03.MULTi.1080p.WEB.x264-CiELOS
2018-06-18 19:41:37 The.Mentalist.S03E04.MULTi.1080p.WEB.x264-CiELOS
2018-06-18 19:41:45 The.Mentalist.S03E05.MULTi.1080p.WEB.x264-CiELOS
2018-06-18 19:41:53 The.Mentalist.S03E06.MULTi.1080p.WEB.x264-CiELOS
2018-06-18 19:42:09 The.Mentalist.S03E08.MULTi.1080p.WEB.x264-CiELOS
2018-06-18 19:42:17 The.Mentalist.S03E09.MULTi.1080p.WEB.x264-CiELOS
2018-06-18 19:42:26 The.Mentalist.S03E10.MULTi.1080p.WEB.x264-CiELOS
2018-06-18 19:42:33 The.Mentalist.S03E11.MULTi.1080p.WEB.x264-CiELOS
2018-06-18 19:42:41 The.Mentalist.S03E12.MULTi.1080p.WEB.x264-CiELOS
2018-06-18 19:42:50 The.Mentalist.S03E13.MULTi.1080p.WEB.x264-CiELOS
2018-06-18 19:43:05 The.Mentalist.S03E15.MULTi.1080p.WEB.x264-CiELOS
2018-06-18 19:43:13 The.Mentalist.S03E16.MULTi.1080p.WEB.x264-CiELOS
2018-06-18 19:43:22 The.Mentalist.S03E17.MULTi.1080p.WEB.x264-CiELOS
2018-06-18 19:43:30 The.Mentalist.S03E18.MULTi.1080p.WEB.x264-CiELOS
2018-06-18 19:43:38 The.Mentalist.S03E19.MULTi.1080p.WEB.x264-CiELOS
2018-06-18 19:43:45 The.Mentalist.S03E20.MULTi.1080p.WEB.x264-CiELOS
2018-06-18 19:43:53 The.Mentalist.S03E21.MULTi.1080p.WEB.x264-CiELOS
2018-06-18 19:44:02 The.Mentalist.S03E22.MULTi.1080p.WEB.x264-CiELOS
2018-06-18 19:44:09 The.Mentalist.S03E23.MULTi.1080p.WEB.x264-CiELOS
2018-06-18 19:44:11 Vixen.18.06.18.Paige.Owens.XXX.2160p.MP4-KTR
2018-06-18 19:44:17 The.Mentalist.S03E24.FiNAL.MULTi.1080p.WEB.x264-CiELOS
2018-06-18 19:44:24 Bigroots-Biggionthetrack-WEB-FR-2017-JAH
2018-06-18 19:44:45 Bigroots-Hot-WEB-FR-2018-JAH
2018-06-18 19:45:16 Bigroots-Laisse_Moi_Fumer-WEB-FR-2018-JAH
2018-06-18 19:45:37 Bigroots-Twerk_It-WEB-FR-2017-JAH
2018-06-18 19:46:43 The.Mentalist.S04E01.MULTi.1080p.WEB.x264-CiELOS
2018-06-18 19:46:46 Terrence_Dixon-From_There_to_Here-(IBX3)-WEB-2018-CBR
2018-06-18 19:46:58 The.Mentalist.S04E03.MULTi.1080p.WEB.x264-CiELOS
2018-06-18 19:47:07 The.Mentalist.S04E04.MULTi.1080p.WEB.x264-CiELOS
2018-06-18 19:47:14 The.Mentalist.S04E05.MULTi.1080p.WEB.x264-CiELOS
2018-06-18 19:47:22 The.Mentalist.S04E06.MULTi.1080p.WEB.x264-CiELOS
2018-06-18 19:47:31 The.Mentalist.S04E07.MULTi.1080p.WEB.x264-CiELOS
2018-06-18 19:47:38 The.Mentalist.S04E08.MULTi.1080p.WEB.x264-CiELOS
2018-06-18 19:47:46 The.Mentalist.S04E09.MULTi.1080p.WEB.x264-CiELOS
2018-06-18 19:47:54 The.Mentalist.S04E10.MULTi.1080p.WEB.x264-CiELOS
2018-06-18 19:48:03 The.Mentalist.S04E11.MULTi.1080p.WEB.x264-CiELOS
2018-06-18 19:48:10 The.Mentalist.S04E12.MULTi.1080p.WEB.x264-CiELOS
2018-06-18 19:48:18 The.Mentalist.S04E13.MULTi.1080p.WEB.x264-CiELOS
2018-06-18 19:48:27 The.Mentalist.S04E14.MULTi.1080p.WEB.x264-CiELOS
2018-06-18 19:48:34 The.Mentalist.S04E15.MULTi.1080p.WEB.x264-CiELOS
2018-06-18 19:48:42 The.Mentalist.S04E16.MULTi.1080p.WEB.x264-CiELOS
2018-06-18 19:48:44 DateSlam.18.06.18.Suzie.Hot.Asian.MILF.Picked.Up.And.Banged.XXX.1080p.MP4-KTR
2018-06-18 19:48:50 The.Mentalist.S04E17.MULTi.1080p.WEB.x264-CiELOS
2018-06-18 19:49:00 The.Mentalist.S04E18.MULTi.1080p.WEB.x264-CiELOS
2018-06-18 19:49:06 The.Mentalist.S04E19.MULTi.1080p.WEB.x264-CiELOS
2018-06-18 19:49:14 The.Mentalist.S04E20.MULTi.1080p.WEB.x264-CiELOS
2018-06-18 19:49:23 The.Mentalist.S04E21.MULTi.1080p.WEB.x264-CiELOS
2018-06-18 19:49:30 The.Mentalist.S04E22.MULTi.1080p.WEB.x264-CiELOS
2018-06-18 19:49:38 The.Mentalist.S04E23.MULTi.1080p.WEB.x264-CiELOS
2018-06-18 19:49:46 The.Mentalist.S04E24.FiNAL.MULTi.1080p.WEB.x264-CiELOS
2018-06-18 19:50:33 Elams-Billet-SINGLE-WEB-FR-2018-sceau
2018-06-18 19:50:50 Jones_Cruipy-Gang_Zone-SINGLE-WEB-FR-2018-sceau
2018-06-18 19:51:09 LIM-Anthologie_Volume.1_(Version_Non_Mixee)-WEB-FR-2018-sceau
2018-06-18 19:51:13 InnocentHigh.18.06.18.Kelsey.Kage.XXX.1080p.MP4-KTR
2018-06-18 19:51:15 Dances.with.the.Dragons.E11.SUBFRENCH.720p.HDTV.x264-AMB3R
2018-06-18 19:51:31 Dances.with.the.Dragons.E11.SUBFRENCH.HDTV.x264-AMB3R
2018-06-18 19:53:00 Swallowed.18.06.18.Kissa.Sins.XXX.1080p.MP4-KTR
2018-06-18 19:53:06 Young_Chang_Mc-Paka_Oublie-WEB-FR-2018-JAH
2018-06-18 19:54:16 Rocket.League.Jurassic.World.Car.Pack.DLC-PLAZA
2018-06-18 19:54:23 WickedPictures.High.School.Reunion.XXX.720p.MP4-KTR
2018-06-18 19:54:48 Mom.S04E19.SPANiSH.1080p.HDTV.x264-FERiCE
2018-06-18 19:56:21 WickedPictures.High.School.Reunion.XXX.1080p.MP4-KTR
2018-06-18 19:56:34 Laylow-.RAW-WEB-FR-2018-sceau
2018-06-18 19:56:44 The.Mentalist.S05E01.MULTi.1080p.WEB.x264-CiELOS
2018-06-18 19:56:52 The.Mentalist.S05E02.MULTi.1080p.WEB.x264-CiELOS
2018-06-18 19:57:00 The.Mentalist.S05E03.MULTi.1080p.WEB.x264-CiELOS
2018-06-18 19:57:02 Mom.S04E19.SPANiSH.HDTV.x264-FERiCE
2018-06-18 19:57:17 The.Mentalist.S05E05.MULTi.1080p.WEB.x264-CiELOS
2018-06-18 19:57:25 The.Mentalist.S05E06.MULTi.1080p.WEB.x264-CiELOS
2018-06-18 19:57:32 The.Mentalist.S05E07.MULTi.1080p.WEB.x264-CiELOS
2018-06-18 19:57:42 The.Mentalist.S05E08.MULTi.1080p.WEB.x264-CiELOS
2018-06-18 19:57:50 The.Mentalist.S05E09.MULTi.1080p.WEB.x264-CiELOS
2018-06-18 19:57:54 Mom.S04E19.SPANiSH.720p.HDTV.x264-FERiCE
2018-06-18 19:57:58 The.Mentalist.S05E10.MULTi.1080p.WEB.x264-CiELOS
2018-06-18 19:58:06 The.Mentalist.S05E11.MULTi.1080p.WEB.x264-CiELOS
2018-06-18 19:58:13 The.Mentalist.S05E12.MULTi.1080p.WEB.x264-CiELOS
2018-06-18 19:58:21 The.Mentalist.S05E13.MULTi.1080p.WEB.x264-CiELOS
2018-06-18 19:58:30 The.Mentalist.S05E14.MULTi.1080p.WEB.x264-CiELOS
2018-06-18 19:58:38 The.Mentalist.S05E15.MULTi.1080p.WEB.x264-CiELOS
2018-06-18 19:58:45 The.Mentalist.S05E16.MULTi.1080p.WEB.x264-CiELOS
2018-06-18 19:58:53 The.Mentalist.S05E17.MULTi.1080p.WEB.x264-CiELOS
2018-06-18 19:59:01 The.Mentalist.S05E18.MULTi.1080p.WEB.x264-CiELOS
2018-06-18 19:59:09 The.Mentalist.S05E19.MULTi.1080p.WEB.x264-CiELOS
2018-06-18 19:59:17 The.Mentalist.S05E20.MULTi.1080p.WEB.x264-CiELOS
2018-06-18 19:59:25 The.Mentalist.S05E21.MULTi.1080p.WEB.x264-CiELOS
2018-06-18 19:59:34 The.Mentalist.S05E22.FiNAL.MULTi.1080p.WEB.x264-CiELOS
2018-06-18 20:01:07 Komodo_-_(I_Just)_Died_In_Your_Arms_(Club_Radio_Edit)-WEB-2018-MMS
2018-06-18 20:01:09 Komodo_-_(I_Just)_Died_In_Your_Arms_(Original_Radio_Edit)-WEB-2018-MMS
2018-06-18 20:01:22 Komodo_-_(I_Just)_Died_In_Your_Arms_(Club_Extended_Remix)-WEB-2018-MMS
2018-06-18 20:01:26 Komodo_-_(I_Just)_Died_In_Your_Arms_(Original_Extended_Mix)-WEB-2018-MMS
2018-06-18 20:03:34 The.Mentalist.S06E01.MULTi.1080p.WEB.x264-CiELOS
2018-06-18 20:03:43 The.Mentalist.S06E02.MULTi.1080p.WEB.x264-CiELOS
2018-06-18 20:03:49 The.Mentalist.S06E03.MULTi.1080p.WEB.x264-CiELOS
2018-06-18 20:03:57 The.Mentalist.S06E04.MULTi.1080p.WEB.x264-CiELOS
2018-06-18 20:04:05 The.Mentalist.S06E05.MULTi.1080p.WEB.x264-CiELOS
2018-06-18 20:04:14 The.Mentalist.S06E06.MULTi.1080p.WEB.x264-CiELOS
2018-06-18 20:04:22 The.Mentalist.S06E07.MULTi.1080p.WEB.x264-CiELOS
2018-06-18 20:04:30 The.Mentalist.S06E08.MULTi.1080p.WEB.x264-CiELOS
2018-06-18 20:04:39 The.Mentalist.S06E09.MULTi.1080p.WEB.x264-CiELOS
2018-06-18 20:04:45 The.Mentalist.S06E10.MULTi.1080p.WEB.x264-CiELOS
2018-06-18 20:04:53 The.Mentalist.S06E11.MULTi.1080p.WEB.x264-CiELOS
2018-06-18 20:05:01 The.Mentalist.S06E12.MULTi.1080p.WEB.x264-CiELOS
2018-06-18 20:05:09 The.Mentalist.S06E13.MULTi.1080p.WEB.x264-CiELOS
2018-06-18 20:05:17 The.Mentalist.S06E14.MULTi.1080p.WEB.x264-CiELOS
2018-06-18 20:05:25 The.Mentalist.S06E15.MULTi.1080p.WEB.x264-CiELOS
2018-06-18 20:05:33 The.Mentalist.S06E16.MULTi.1080p.WEB.x264-CiELOS
2018-06-18 20:05:42 The.Mentalist.S06E17.MULTi.1080p.WEB.x264-CiELOS
2018-06-18 20:05:49 The.Mentalist.S06E18.MULTi.1080p.WEB.x264-CiELOS
2018-06-18 20:06:05 The.Mentalist.S06E20.MULTi.1080p.WEB.x264-CiELOS
2018-06-18 20:06:21 The.Mentalist.S06E22.FiNAL.MULTi.1080p.WEB.x264-CiELOS
2018-06-18 20:08:22 Mani_Deiz-Many_Days_Vol_3_(Instrumental_Best_Of)-WEB-FR-2018-sceau
2018-06-18 20:08:37 Seiya-Poignee_De_Punchlines-SINGLE-WEB-FR-2018-sceau
2018-06-18 20:09:23 Big.City.Greens.S01E01.720p.HDTV.x264-W4F
2018-06-18 20:09:33 Big.City.Greens.S01E01.HDTV.x264-W4F
2018-06-18 20:14:47 Die.Geier.warten.schon.1973.German.720p.BluRay.x264-SPiCY
2018-06-18 20:14:53 Die.Geier.warten.schon.German.REMASTERED.1973.AC3.BDRip.x264-SPiCY
2018-06-18 20:15:41 Khilo_(La_Breche)-La_Faim_Est_Proche-(Repack)-(Bootleg)-FR-2018-H5N1
2018-06-18 20:15:55 Mezy-Entre_Dans_Lzoo-(Repack)-(Bootleg)-(CDM)-FR-2018-H5N1
2018-06-18 20:19:18 Twoloud_-_My_Game_(Destlours_Remix)-WEB-2018-MMS
2018-06-18 20:20:26 Brian_Arimura_-_Where_I_Wanna_Be-(GLO092)-WEB-2018-FMC
2018-06-18 20:20:32 Die.Geier.warten.schon.1973.German.DL.1080p.BluRay.x264-SPiCY
2018-06-18 20:21:01 Tom_Budin_X_Kopa_-_Things_Change-(MMD055)-WEB-2018-FMC
2018-06-18 20:21:05 Yokus.Island.Express.Update.v20180618-CODEX
2018-06-18 20:21:37 Eric_Chase_-_Time_to_Shine-WEB-2018-MMS
2018-06-18 20:22:26 Tom_Crusher_-_Overdrive-(PTRH005)-WEB-2018-MMS
2018-06-18 20:25:36 Pigeon_John-Good_Sinner-2017-MTD
2018-06-18 20:26:13 PLURALSIGHT.PLAY.BY.PLAY.STRATEGIES.FOR.SUCCESSFUL.SALESFORCE.DX.MIGRATION.AND.ADOPTION-JGTiSO
2018-06-18 20:26:39 Lexer_-_Signals_EP-WEB-2018-MMS
2018-06-18 20:28:33 PLURALSIGHT.SWORDS.AND.SHOVELS.COMBAT.SYSTEM-JGTiSO
2018-06-18 20:30:35 Inner_City_-_Do_You_Love_What_You_Feel_2018_(Inner_City_and_House_Of_Virus_Remix)-WEB-2018-MMS
2018-06-18 20:34:45 Pigeon_John-Good_Sinner-CD-FLAC-2017-FORSAKEN
2018-06-18 20:35:19 Alle_Farben_and_YOUNOTUS_and_Kelvin_Jones_-_Only_Thing_We_Know-WEB-2018-MMS
2018-06-18 20:38:22 Assassins.Creed.Freedom.Cry.PS4-DUPLEX
2018-06-18 20:39:40 Yo-Yo_Ma_Chris_Thile_Edgar_Meyer-Bach_Trios-CD-FLAC-2017-FORSAKEN
2018-06-18 20:39:45 Yo-Yo_Ma_Chris_Thile_Edgar_Meyer-Bach_Trios-2017-MTD
2018-06-18 20:42:04 Rico_Jeezus-A_Misanthropist_Heaven-WEB-2015-UVU
2018-06-18 20:42:23 Rico_Jeezus-Deadbeat_Prophet-WEB-2016-UVU
2018-06-18 20:43:40 Adam_Trigger_-_Ole_(HUGEL_Remix)-WEB-2018-MMS
2018-06-18 20:43:46 The.Mentalist.S07E01.MULTi.1080p.WEB.x264-CiELOS
2018-06-18 20:44:03 The.Mentalist.S07E03.MULTi.1080p.WEB.x264-CiELOS
2018-06-18 20:44:10 The.Mentalist.S07E04.MULTi.1080p.WEB.x264-CiELOS
2018-06-18 20:44:19 The.Mentalist.S07E05.MULTi.1080p.WEB.x264-CiELOS
2018-06-18 20:44:26 The.Mentalist.S07E06.MULTi.1080p.WEB.x264-CiELOS
2018-06-18 20:44:35 The.Mentalist.S07E07.MULTi.1080p.WEB.x264-CiELOS
2018-06-18 20:44:42 The.Mentalist.S07E08.MULTi.1080p.WEB.x264-CiELOS
2018-06-18 20:44:58 The.Mentalist.S07E10.MULTi.1080p.WEB.x264-CiELOS
2018-06-18 20:45:06 The.Mentalist.S07E11.MULTi.1080p.WEB.x264-CiELOS
2018-06-18 20:45:16 The.Mentalist.S07E12.MULTi.1080p.WEB.x264-CiELOS
2018-06-18 20:45:23 The.Mentalist.S07E13.FiNAL.MULTi.1080p.WEB.x264-CiELOS
2018-06-18 20:45:40 VA-The_Best_Of_Lounge_Vol_06-(ARUY036)-WEB-2018-CBR
2018-06-18 20:46:05 Sehnsuchtsorte.S01E01.Ruegen.und.Caspar.David.Friedrich.GERMAN.DOKU.WS.HDTVRip.x264-TMSF
2018-06-18 20:47:21 My.Favorite.Wedding.2017.1080p.HDTV.x264-W4F
2018-06-18 20:52:05 Sehnsuchtsorte.S01E01.Ruegen.und.Caspar.David.Friedrich.GERMAN.DOKU.720p.HDTV.x264-TMSF
2018-06-18 20:53:47 CrystalIdea.AnyToISO.v3.9.1.MacOS.Incl.Keymaker-CORE
2018-06-18 20:54:30 DJ_Rectangle-The_Ultimate_Battle_Weapon-(TNT004)-VINYL-1993-DEF
2018-06-18 20:55:11 DJ_Rectangle-The_Ultimate_Battle_Weapon-(TNT004)-VINYL-FLAC-1993-BITOCUL
2018-06-18 20:56:23 The.Amazing.World.of.Gumball.S06E11.720p.HDTV.x264-W4F
2018-06-18 20:57:15 My.Favorite.Wedding.2017.720p.HDTV.x264-W4F
2018-06-18 20:57:38 The.Amazing.World.of.Gumball.S06E11.HDTV.x264-W4F
2018-06-18 21:01:18 ZDF.History.Schwarz.und.weiss.-.Unsere.Nationalmannschaft.GERMAN.DOKU.WS.HDTVRip.x264-TMSF
2018-06-18 21:01:46 Wolga.Wodka.und.WM.Von.Nischni.Nowgorod.bis.Wolgograd.GERMAN.DOKU.720p.HDTV.x264-TMSF
2018-06-18 21:03:47 ZDF.History.Schwarz.und.weiss.-.Unsere.Nationalmannschaft.GERMAN.DOKU.720p.HDTV.x264-TMSF
2018-06-18 21:03:58 The.Amazing.World.of.Gumball.S06E14.720p.HDTV.x264-W4F
2018-06-18 21:07:09 My.Favorite.Wedding.2017.HDTV.x264-W4F
2018-06-18 21:07:21 Dredd.Up.Your.Ass.XXX.iNTERNAL.2160p.WEBRiP.MP4-GUSH
2018-06-18 21:07:22 Showdown.1973.720p.BluRay.x264-GUACAMOLE
2018-06-18 21:09:02 The.Amazing.World.of.Gumball.S06E16.720p.HDTV.x264-W4F
2018-06-18 21:10:18 Sport.Reporter.2018.06.17.DOC.FRENCH.720p.HDTV.x264-DEAL
2018-06-18 21:11:33 Doermoegoek.kalandjai.E19.A.gyurmazgatok.HUNGARiAN.DVDRiP.x264-NMHH
2018-06-18 21:12:09 Sons.Of.Anarchy.S07E01.iTALiAN.WEB.x264-NTROPiC
2018-06-18 21:12:24 Sons.Of.Anarchy.S07E03.iTALiAN.WEB.x264-NTROPiC
2018-06-18 21:12:38 Sons.Of.Anarchy.S07E04.iTALiAN.WEB.x264-NTROPiC
2018-06-18 21:12:46 Sons.Of.Anarchy.S07E05.iTALiAN.WEB.x264-NTROPiC
2018-06-18 21:12:53 Sons.Of.Anarchy.S07E06.iTALiAN.WEB.x264-NTROPiC
2018-06-18 21:13:00 Sons.Of.Anarchy.S07E07.iTALiAN.WEB.x264-NTROPiC
2018-06-18 21:13:07 Sons.Of.Anarchy.S07E08.iTALiAN.WEB.x264-NTROPiC
2018-06-18 21:13:14 Sons.Of.Anarchy.S07E09.iTALiAN.WEB.x264-NTROPiC
2018-06-18 21:13:22 Sons.Of.Anarchy.S07E10.iTALiAN.WEB.x264-NTROPiC
2018-06-18 21:13:30 Sons.Of.Anarchy.S07E11.iTALiAN.WEB.x264-NTROPiC
2018-06-18 21:13:45 Sons.Of.Anarchy.S07E13.iTALiAN.FiNAL.WEB.x264-NTROPiC
2018-06-18 21:13:49 Dario_Trapani-Work_That_Body-WEB-2018-CBR_INT
2018-06-18 21:16:08 David_Guetta_feat._Sia-Flames_Leandro_Da_Silva_Remix-WEB-2018-CBR_INT
2018-06-18 21:17:29 VA-Clippers_Promo_June-WEB-2018-CBR_INT
2018-06-18 21:17:45 VA_-_Hotline_Miami_18-(REN052)-WEB-2018-ZzZz
2018-06-18 21:19:34 Sleep.Tight.S01E05.FRENCH.HDTV.x264-AMB3R
2018-06-18 21:19:38 Showdown.1973.1080p.BluRay.x264-GUACAMOLE
2018-06-18 21:19:54 Die.Geier.warten.schon.1973.German.DL.1080p.BluRay.AVC-HOVAC
2018-06-18 21:21:49 Laera-Trumpet_Party_Ep-WEB-2018-CBR_INT
2018-06-18 21:21:59 Canned_Heat-Live_In_Europe_1973-CD-FLAC-2014-D2H
2018-06-18 21:23:15 Human.Fall.Flat.v1.4-SiMPLEX
2018-06-18 21:28:08 Min_Mal_Delayz-On_Your_Side-WEB-2018-CBR_INT
2018-06-18 21:28:23 Spooky_Tooth-Its_All_About-CD-FLAC-2005-D2H
2018-06-18 21:28:50 Blacker_and_James_and_Aulora_-_Nothing_Is_Forever-(TRM0178)-WEB-2018-ZzZz
2018-06-18 21:32:38 Infuture_-_Never_Stop-(FLAG238)-WEB-2018-ZzZz_iNT
2018-06-18 21:54:00 Sons.Of.Anarchy.S07E10.iTALiAN.MULTi.1080p.WEB.x264-NTROPiC
2018-06-18 21:54:34 Sons.Of.Anarchy.S07E12.iTALiAN.MULTi.1080p.WEB.x264-NTROPiC
2018-06-18 21:54:35 Sons.Of.Anarchy.S07E13.iTALiAN.MULTi.FiNAL.1080p.WEB.x264-NTROPiC
2018-06-18 21:54:36 Suits.S07E14.FRENCH.720p.HDTV.x264-SH0W
2018-06-18 21:54:38 Lucifer.S03E25.FRENCH.720p.HDTV.x264-SH0W
2018-06-18 21:54:39 A.O.T_-_That_Loud-(BOURNE0115)-WEB-2018-MMS
2018-06-18 21:54:40 Pinstripe.v2.1.0.RIP-SiMPLEX
2018-06-18 21:54:42 Every.Day.2018.DVDR-JFKDVD
2018-06-18 22:00:57 Godlazer_-_Every_Breath_Precious-(CAT204969)-WEB-2018-ZzZz
2018-06-18 22:01:09 Ley.Y.Orden.UVE.S19E23.SPANiSH.1080p.HDTV.x264-FCC
2018-06-18 22:01:11 Suits.S07E14.FRENCH.HDTV.x264-AMB3R
2018-06-18 22:01:21 Ley.Y.Orden.UVE.S19E23.SPANiSH.720p.HDTV.x264-FCC
2018-06-18 22:01:35 Ley.Y.Orden.UVE.S19E23.SPANiSH.HDTV.x264-FCC
2018-06-18 22:01:41 Fotbolls.VM.2018.Grupp.F.Sverige.vs.Sydkorea.SWEDISH.720p.HDTV.x264-TAXi
2018-06-18 22:01:45 Sherlock.Gnomes.2018.DVDR-JFKDVD
2018-06-18 22:02:09 Unsolved.S01E01.SPANiSH.720p.WEB.x264-FCC
2018-06-18 22:02:38 Unsolved.S01E01.SPANiSH.WEB.x264-FCC
2018-06-18 22:03:02 Unsolved.S01E02.SPANiSH.1080p.WEB.x264-FCC
2018-06-18 22:03:30 Future-SUPERFLY_(Original_Motion_Picture_Soundtrack)-BONUS_TRACKS-WEB-2018-ENRAGED
2018-06-18 22:03:40 Unsolved.S01E02.SPANiSH.WEB.x264-FCC
2018-06-18 22:03:41 Joe_Blow-Real_Recognize_Real-BONUS_TRACKS-WEB-2012-ENRAGED
2018-06-18 22:03:52 Mistah_FAB-Thug_Tears_2-WEB-2018-ENRAGED
2018-06-18 22:04:03 Rockwilder_and_Method_Man-Who_Im_Iz_Reloaded-SINGLE-WEB-2018-ENRAGED
2018-06-18 22:04:14 Scarab_Shabazz-Hydrate-SINGLE-WEB-2018-ENRAGED
2018-06-18 22:04:20 Unsolved.S01E03.SPANiSH.720p.WEB.x264-FCC
2018-06-18 22:04:25 Scarab_Shabazz-Saint_Ptah-WEB-2017-ENRAGED
2018-06-18 22:04:36 Lone.Star.Law.-.Die.Gesetzeshueter.von.Texas.S03E12.German.DOKU.1080p.HDTV.x264-ATAX
2018-06-18 22:04:59 Unsolved.S01E04.SPANiSH.1080p.WEB.x264-FCC
2018-06-18 22:05:18 Unsolved.S01E04.SPANiSH.720p.WEB.x264-FCC
2018-06-18 22:06:01 Unsolved.S01E05.SPANiSH.1080p.WEB.x264-FCC
2018-06-18 22:06:38 Unsolved.S01E05.SPANiSH.WEB.x264-FCC
2018-06-18 22:06:51 Unsolved.S01E06.SPANiSH.1080p.WEB.x264-FCC
2018-06-18 22:07:13 Unsolved.S01E06.SPANiSH.720p.WEB.x264-FCC
2018-06-18 22:07:29 Unsolved.S01E06.SPANiSH.WEB.x264-FCC
2018-06-18 22:07:48 Unsolved.S01E07.SPANiSH.1080p.WEB.x264-FCC
2018-06-18 22:08:25 Unsolved.S01E07.SPANiSH.WEB.x264-FCC
2018-06-18 22:08:38 Lone.Star.Law.-.Die.Gesetzeshueter.von.Texas.S03E12.German.DOKU.720p.HDTV.x264-ATAX
2018-06-18 22:08:39 Unsolved.S01E08.SPANiSH.1080p.WEB.x264-FCC
2018-06-18 22:09:00 Unsolved.S01E08.SPANiSH.720p.WEB.x264-FCC
2018-06-18 22:09:02 test.pre-dbOOk
2018-06-18 22:09:09 Lucifer.S03E25.FRENCH.HDTV.x264-AMB3R
2018-06-18 22:09:30 Unsolved.S01E09.SPANiSH.1080p.WEB.x264-FCC
2018-06-18 22:09:52 Unsolved.S01E09.SPANiSH.720p.WEB.x264-FCC
2018-06-18 22:10:01 Deutschland.83.S01E06.POLISH.720p.HDTV.x264-A4O
2018-06-18 22:10:08 Unsolved.S01E09.SPANiSH.WEB.x264-FCC
2018-06-18 22:10:49 Unsolved.S01E10.SPANiSH.720p.WEB.x264-FCC
2018-06-18 22:11:13 Unsolved.S01E10.SPANiSH.WEB.x264-FCC
2018-06-18 22:11:42 Lone.Star.Law.-.Die.Gesetzeshueter.von.Texas.S03E12.German.DOKU.HDTVRip.x264-ATAX
2018-06-18 22:14:25 The.Hurricane.Heist.2018.DVDR-JFKDVD
2018-06-18 22:16:48 FIFA.World.Cup.2018.Group.G.Tunisia.vs.England.720p.HDTV.x264-VERUM
2018-06-18 22:18:57 Deutschland.83.S01E07.POLISH.720p.HDTV.x264-A4O
2018-06-18 22:19:30 Suspects.S02E01.FRENCH.HDTV.x264-AMB3R
2018-06-18 22:20:35 Its.A.Daddy.Thing.8.XXX.DVDRip.x264-CiCXXX
2018-06-18 22:20:56 Benjamin_Ken-Ben_Through_It-WEB-2018-ENRAGED
2018-06-18 22:21:07 Jeffrey_Osborne-Worth_It_All_-_The_Remix_EP-WEB-2018-ENRAGED
2018-06-18 22:21:18 SENSERE-Kingdom_Therapy-WEB-2015-ENRAGED
2018-06-18 22:21:29 Sensere-The_Soul_of_Future_Worship_Vol_1-WEB-2011-ENRAGED
2018-06-18 22:21:40 Sensere-Win-SINGLE-WEB-2018-ENRAGED
2018-06-18 22:21:51 The_Carters_(aka_Beyonce_and_Jay-Z)-EVERYTHING_IS_LOVE-WEB-2018-ENRAGED
2018-06-18 22:22:43 Teen.Bush.XXX.DVDRip.x264-CiCXXX
2018-06-18 22:24:27 Lesbian.Performers.Of.The.Year.2018.XXX.DVDRip.x264-CiCXXX
2018-06-18 22:24:28 Bertie_Bassett-Magic_Ball_Never_Dies-(BBS062)-WEB-2018-BF
2018-06-18 22:25:18 The.Strangers.Prey.at.Night.2018.DVDR-JFKDVD
2018-06-18 22:27:21 Amaral-Estrella_De_Mar-ES-CD-FLAC-2002-MAHOU
2018-06-18 22:30:39 Sleep.Tight.S01E05.FRENCH.720p.HDTV.x264-SH0W
2018-06-18 22:34:53 Lucifer.S03E26.FiNAL.FRENCH.720p.HDTV.x264-SH0W
2018-06-18 22:36:09 Westworld.S02E09.German.Dubbed.DL.720p.WEB.h264-ATAX
2018-06-18 22:36:18 Suits.S07E15.FRENCH.720p.HDTV.x264-SH0W
2018-06-18 22:38:12 Deutschland.83.S01E08.POLISH.720p.HDTV.x264-A4O
2018-06-18 22:38:45 Westworld.S02E09.German.Dubbed.WEB.x264-ATAX
2018-06-18 22:42:15 Elijah_The_Young_Prophit-Letter_2_Trump-SINGLE-WEB-2018-ENRAGED
2018-06-18 22:42:25 Elijah_The_Young_Prophit-the_Rules-SINGLE-WEB-2018-ENRAGED
2018-06-18 22:42:36 Mobb_Deep-Boom_Goes_The_Cannon_-SINGLE-WEB-2018-ENRAGED
2018-06-18 22:42:48 Noah_Jones-Cinematic-WEB-2017-ENRAGED
2018-06-18 22:43:00 Noah_Jones-Heart_of_a_Lion_Blood_of_a_King-WEB-2018-ENRAGED
2018-06-18 22:43:10 Noah_Jones-Relationship_Therapy-WEB-2017-ENRAGED
2018-06-18 22:43:33 Noah_Jones-The_Incinerator-WEB-2009-ENRAGED
2018-06-18 22:43:43 Noah_Jones-The_Missing_Project-WEB-2017-ENRAGED
2018-06-18 22:43:54 Rico_Davis-Do_U_Wanna-SINGLE-WEB-2018-ENRAGED
2018-06-18 22:44:06 Rico_Davis-Sorry_Secrets_and_Lies_-_Ep-WEB-2010-ENRAGED
2018-06-18 22:44:17 Rico_Nasty-Nasty-WEB-2018-ENRAGED
2018-06-18 22:44:26 Spiritualized-Im_Your_Man__A_Perfect_Miracle-WEB-2018-MOHAWK
2018-06-18 22:44:28 VA-Nice_Life_SUMMER_18-WEB-2018-ENRAGED
2018-06-18 22:44:38 VA-disCOVERED_Vol_1-WEB-2018-ENRAGED
2018-06-18 22:44:49 rassshad-Kenjaitaimu_Goodbye-WEB-2017-ENRAGED
2018-06-18 22:47:02 TRIGGER.x64-DARKSiDERS
2018-06-18 22:48:49 Lucifer.S03E26.FiNAL.FRENCH.HDTV.x264-AMB3R
2018-06-18 22:50:41 In_Hearts_Wake_-_Ark-2018-FKK
2018-06-18 22:51:44 Vein.Hotel.x64-DARKSiDERS
2018-06-18 22:53:48 In_Hearts_Wake-Ark-CD-FLAC-2018-BOCKSCAR
2018-06-18 22:53:53 FishXGrits-Idlyirl-WEB-2018-ENRAGED
2018-06-18 22:54:04 J_Dundas-FishXGrits-WEB-2016-ENRAGED
2018-06-18 22:54:14 Just_Dough-REAL-WEB-2017-ENRAGED
2018-06-18 22:54:26 Leslaflame-Inferno-WEB-2018-ENRAGED
2018-06-18 22:54:37 Louis_York-No_Regrets_Feat_The_Shindellas-SINGLE-WEB-2018-ENRAGED
2018-06-18 22:54:48 V_Don-Lost_Gemz-WEB-2015-ENRAGED
2018-06-18 22:54:59 V_Don-Lost_Gemz_2-WEB-2016-ENRAGED
2018-06-18 22:55:00 Suspects.S02E02.FRENCH.HDTV.x264-AMB3R
2018-06-18 22:55:10 V_Don-Lost_Gemz_3-WEB-2017-ENRAGED
2018-06-18 22:55:22 V_Don-This_Thing_of_Ours-WEB-2018-ENRAGED
2018-06-18 22:58:49 Suits.S07E15.FRENCH.HDTV.x264-AMB3R
2018-06-18 23:00:23 Moon_Rocket_-_Intro-(DM061)-WEB-2018-ZzZz
2018-06-18 23:02:10 Baba_Yega-Babastyle-WEB-2018-AZF
2018-06-18 23:03:58 Knox_-_Eternal-(KHM_184)-WEB-2018-ZzZz
2018-06-18 23:05:19 Genius.S02E09.FRENCH.720p.HDTV.x264-SH0W
2018-06-18 23:07:29 VA-The_Best_Of_Lounge_Vol_04-(ARUY034)-WEB-2018-CBR
2018-06-18 23:07:48 VA-The_Best_Of_Lounge_Vol_03-(ARUY033)-WEB-2018-CBR
2018-06-18 23:08:07 VA-The_Best_Of_Lounge_Vol_02-(ARUY032)-WEB-2018-CBR
2018-06-18 23:09:36 Dark.Matter.S03E01.720p.BluRay.x264-YELLOWBiRD
2018-06-18 23:10:20 WWE.2018.Money.In.The.Bank.PPV.1080p.HDTV.x264-PLUTONiUM
2018-06-18 23:11:37 Genius.S02E09.FRENCH.HDTV.x264-SH0W
2018-06-18 23:15:19 Dark.Matter.S03E07.720p.BluRay.x264-YELLOWBiRD
2018-06-18 23:16:16 Rake.US.S01E12.FRENCH.720p.HDTV.x264-SH0W
2018-06-18 23:23:36 CastingCouch-HD.18.06.01.Callie.XXX.1080p.MP4-KTR
2018-06-18 23:25:08 CastingCouch-HD.18.06.08.Simone.XXX.1080p.MP4-KTR
2018-06-18 23:25:55 CastingCouch-HD.18.06.15.Rosa.XXX.1080p.MP4-KTR
2018-06-18 23:26:42 NetGirl.18.05.30.Ariel.Aka.Athena.XXX.1080p.MP4-KTR
2018-06-18 23:27:29 NetGirl.18.06.06.Lex.XXX.1080p.MP4-KTR
2018-06-18 23:28:10 Supergirl.S02E01.FRENCH.720p.BluRay.x264-SODAPOP
2018-06-18 23:28:17 NetGirl.18.06.13.Keilani.XXX.1080p.MP4-KTR
2018-06-18 23:29:04 NetVideoGirls.18.06.05.Selena.XXX.1080p.MP4-KTR
2018-06-18 23:29:52 NetVideoGirls.18.06.12.Sasha.XXX.1080p.MP4-KTR
2018-06-18 23:30:19 Deante_Hitchcock-Good-WEB-2016-ENRAGED
2018-06-18 23:30:29 Deante_Hitchcock-Good_Live-WEB-2017-ENRAGED
2018-06-18 23:30:41 Deante_Hitchcock-So_Much_For_Good_Luck-WEB-2017-ENRAGED
2018-06-18 23:30:43 Rake.US.S01E12.FRENCH.HDTV.x264-AMB3R
2018-06-18 23:30:51 Erick_Sermon-E_Double-WEB-2018-ENRAGED
2018-06-18 23:31:03 Grim_Reality_Entertainment-Dark_Scriptures_(Expanded_Edition)-WEB-2018-ENRAGED
2018-06-18 23:31:14 Grim_Reality_Entertainment-Hard_Rock_and_Hip_Hop-WEB-2018-ENRAGED
2018-06-18 23:31:36 Junk_Science_and_Scott_Thorough-Phoenix_Down-WEB-2011-ENRAGED
2018-06-18 23:31:47 La_Chat-Da_Hood_Homegirl-WEB-2008-ENRAGED
2018-06-18 23:31:58 La_Chat-Da_Hood_Homegirl_-_Gutta_Vol_2-WEB-2009-ENRAGED
2018-06-18 23:32:09 La_Chat-Krumbz_2_Brickz-WEB-2010-ENRAGED
2018-06-18 23:32:17 Succession.S01E03.SUBFRENCH.720p.HDTV.x264-SH0W
2018-06-18 23:32:20 Lord_Fubu-1000_Degreez-WEB-2017-ENRAGED
2018-06-18 23:32:31 Lord_Fubu-First_Name_Lord_Last_Name_Fubu-WEB-2018-ENRAGED
2018-06-18 23:32:43 Lord_Fubu-Generation_XX-WEB-2017-ENRAGED
2018-06-18 23:32:54 Lord_Fubu-Lord_Fubu_Greateast_Hits_Vol_1-WEB-2017-ENRAGED
2018-06-18 23:33:16 Lord_Fubu-Task_Force_Music-WEB-2018-ENRAGED
2018-06-18 23:33:27 Lord_Fubu-TayMasterFubu-WEB-2017-ENRAGED
2018-06-18 23:33:38 Lord_Fubu-The_Courtesy_Album-WEB-2017-ENRAGED
2018-06-18 23:33:49 NAP-The_Highway-WEB-2016-ENRAGED
2018-06-18 23:34:00 Top_Authority-Rated_G-WEB-1995-ENRAGED_iNT
2018-06-18 23:34:11 Top_Authority-Somethin_to_Blaze_To-WEB-1993-ENRAGED_iNT
2018-06-18 23:34:22 Top_Authority-Top_Authority_Uncut_(The_New_Year)-WEB-1997-ENRAGED_iNT
2018-06-18 23:34:33 VA-Kings_Are_Coming_-_The_Freestyles-WEB-2007-ENRAGED
2018-06-18 23:35:34 Stargate.SG-1.S04E15.720p.HDTV.x264-SFM
2018-06-18 23:37:04 Alexander_Orue_-_Detox-DAB-06-14-2018-TALiON
2018-06-18 23:38:00 Stargate.SG-1.S04E15.1080p.HDTV.h264-SFM
2018-06-18 23:39:56 Outbreak.The.Nightmare.Chronicles.Chapter.2-PLAZA
2018-06-18 23:43:35 Westworld.S02E07.FRENCH.720p.HDTV.x264-SH0W
2018-06-18 23:44:05 Supergirl.S02E02.FRENCH.720p.BluRay.x264-SODAPOP
2018-06-18 23:44:52 Supergirl.S02E03.FRENCH.720p.BluRay.x264-SODAPOP
2018-06-18 23:45:38 Supergirl.S02E04.FRENCH.720p.BluRay.x264-SODAPOP
2018-06-18 23:46:24 Supergirl.S02E05.FRENCH.720p.BluRay.x264-SODAPOP
2018-06-18 23:47:10 Supergirl.S02E06.FRENCH.720p.BluRay.x264-SODAPOP
2018-06-18 23:47:29 Duane_Harden_-_Voces-DAB-06-16-2018-TALiON
2018-06-18 23:47:57 Supergirl.S02E07.FRENCH.720p.BluRay.x264-SODAPOP
2018-06-18 23:48:44 Supergirl.S02E08.FRENCH.720p.BluRay.x264-SODAPOP
2018-06-18 23:49:30 Supergirl.S02E09.FRENCH.720p.BluRay.x264-SODAPOP
2018-06-18 23:50:17 Supergirl.S02E10.FRENCH.720p.BluRay.x264-SODAPOP
2018-06-18 23:50:43 Succession.S01E03.SUBFRENCH.HDTV.x264-AMB3R
2018-06-18 23:51:03 Supergirl.S02E11.FRENCH.720p.BluRay.x264-SODAPOP
2018-06-18 23:51:06 Suspects.S02E01.FRENCH.720p.HDTV.x264-SH0W
2018-06-18 23:51:42 Unsolved.S01E01.German.Dubbed.DL.1080p.WEB.x264-BiGiNT
2018-06-18 23:51:44 Bunkd.S03E01.720p.HDTV.x264-W4F
2018-06-18 23:51:49 Supergirl.S02E12.FRENCH.720p.BluRay.x264-SODAPOP
2018-06-18 23:52:02 Rake.US.S01E13.FiNAL.FRENCH.720p.HDTV.x264-SH0W
2018-06-18 23:52:37 Supergirl.S02E13.FRENCH.720p.BluRay.x264-SODAPOP
2018-06-18 23:53:23 Supergirl.S02E14.FRENCH.720p.BluRay.x264-SODAPOP
2018-06-18 23:53:25 Unsolved.S01E01.German.Dubbed.DL.720p.WEB.x264-BiGiNT
2018-06-18 23:53:35 Suspects.S02E02.FRENCH.720p.HDTV.x264-SH0W
2018-06-18 23:54:10 Supergirl.S02E15.FRENCH.720p.BluRay.x264-SODAPOP
2018-06-18 23:54:16 Alek_Soltirov_-_Caramelized-(SG_016)-WEB-2018-ZzZz
2018-06-18 23:54:25 Pete_Tong_-_All_Gone_Pete_Tong-DAB-06-18-2018-TALiON
2018-06-18 23:54:48 Unsolved.S01E01.German.Dubbed.DL.WEB.x264-BiGiNT
2018-06-18 23:54:56 Supergirl.S02E16.FRENCH.720p.BluRay.x264-SODAPOP
2018-06-18 23:55:43 Supergirl.S02E17.FRENCH.720p.BluRay.x264-SODAPOP
2018-06-18 23:56:17 Urban_Brainchild_-_305_Takeover-DAB-06-15-2018-TALiON
2018-06-18 23:56:29 Supergirl.S02E18.FRENCH.720p.BluRay.x264-SODAPOP
2018-06-18 23:57:16 Supergirl.S02E19.FRENCH.720p.BluRay.x264-SODAPOP
2018-06-18 23:58:03 Supergirl.S02E20.FRENCH.720p.BluRay.x264-SODAPOP
2018-06-18 23:58:49 Supergirl.S02E21.FRENCH.720p.BluRay.x264-SODAPOP
2018-06-18 23:59:36 Supergirl.S02E22.FiNAL.FRENCH.720p.BluRay.x264-SODAPOP